<?xml version="1.0" encoding="UTF-8" standalone="no" ?>
<gpx xmlns="http://www.topografix.com/GPX/1/1" xmlns:xsi="http://www.w3.org/2001/XMLSchema-instance" xsi:schemaLocation="http://www.topografix.com/GPX/1/1 http://www.topografix.com/GPX/1/1/gpx.xsd" version="1.1" creator="VisuGPX - https://www.visugpx.com">
  <metadata>
    <name>Lacs Merlet</name>
    <desc><![CDATA[
]]></desc>
  </metadata>
  <wpt lat="45.40091" lon="6.66053">
    <ele>1848</ele>
    <name><![CDATA[Quitter la piste]]></name>
  </wpt>
  <wpt lat="45.39519" lon="6.65767">
    <ele>2050</ele>
    <name><![CDATA[Partir sud dans la combe]]></name>
  </wpt>
  <wpt lat="45.38581" lon="6.65521">
    <ele>2183</ele>
    <name><![CDATA[Lac artificiel]]></name>
  </wpt>
  <wpt lat="45.37074" lon="6.65209">
    <ele>2418</ele>
    <name><![CDATA[Parc National de la Vanoise]]></name>
  </wpt>
  <wpt lat="45.36956" lon="6.65245">
    <ele>2431</ele>
    <name><![CDATA[Bifurcation vers la droite]]></name>
  </wpt>
  <wpt lat="45.35965" lon="6.65109">
    <ele>2401</ele>
    <name><![CDATA[Vers le lac Merlet inférieur]]></name>
  </wpt>
  <wpt lat="45.35993" lon="6.64207">
    <ele>2449</ele>
    <name><![CDATA[Lac Merlet supérieur]]></name>
  </wpt>
  <wpt lat="45.35966" lon="6.65167">
    <ele>2403</ele>
    <name><![CDATA[Intersection]]></name>
  </wpt>
  <wpt lat="45.35962" lon="6.66211">
    <ele>2223</ele>
    <name><![CDATA[Quitter le parc]]></name>
  </wpt>
  <wpt lat="45.37958" lon="6.66881">
    <ele>1901</ele>
    <name><![CDATA[Empilement du Biol]]></name>
  </wpt>
  <wpt lat="45.39476" lon="6.67453">
    <ele>1775</ele>
    <name><![CDATA[Intersection, partir à gauche]]></name>
  </wpt>
  <trk>
    <name><![CDATA[Lacs Merlet]]></name>
    <trkseg>
      <trkpt lat="45.40766" lon="6.66043">
        <ele>1729</ele>
        <time>2015-07-06T09:13:13+02:00</time>
      </trkpt>
      <trkpt lat="45.40764" lon="6.66045">
        <ele>1729</ele>
        <time>2015-07-06T09:13:42+02:00</time>
      </trkpt>
      <trkpt lat="45.40755" lon="6.66053">
        <ele>1729</ele>
        <time>2015-07-06T09:16:52+02:00</time>
      </trkpt>
      <trkpt lat="45.40746" lon="6.66065">
        <ele>1730</ele>
        <time>2015-07-06T09:17:07+02:00</time>
      </trkpt>
      <trkpt lat="45.40741" lon="6.66073">
        <ele>1730</ele>
        <time>2015-07-06T09:17:16+02:00</time>
      </trkpt>
      <trkpt lat="45.4073" lon="6.66084">
        <ele>1731</ele>
        <time>2015-07-06T09:17:32+02:00</time>
      </trkpt>
      <trkpt lat="45.4072" lon="6.66088">
        <ele>1732</ele>
        <time>2015-07-06T09:17:46+02:00</time>
      </trkpt>
      <trkpt lat="45.40718" lon="6.66088">
        <ele>1732</ele>
        <time>2015-07-06T09:17:48+02:00</time>
      </trkpt>
      <trkpt lat="45.40709" lon="6.6609">
        <ele>1734</ele>
        <time>2015-07-06T09:18:00+02:00</time>
      </trkpt>
      <trkpt lat="45.40697" lon="6.66088">
        <ele>1735</ele>
        <time>2015-07-06T09:18:14+02:00</time>
      </trkpt>
      <trkpt lat="45.40688" lon="6.66088">
        <ele>1737</ele>
        <time>2015-07-06T09:18:25+02:00</time>
      </trkpt>
      <trkpt lat="45.40679" lon="6.66091">
        <ele>1738</ele>
        <time>2015-07-06T09:18:41+02:00</time>
      </trkpt>
      <trkpt lat="45.40674" lon="6.66093">
        <ele>1739</ele>
        <time>2015-07-06T09:18:53+02:00</time>
      </trkpt>
      <trkpt lat="45.40669" lon="6.66093">
        <ele>1739</ele>
        <time>2015-07-06T09:19:06+02:00</time>
      </trkpt>
      <trkpt lat="45.40661" lon="6.66091">
        <ele>1740</ele>
        <time>2015-07-06T09:19:21+02:00</time>
      </trkpt>
      <trkpt lat="45.40652" lon="6.66088">
        <ele>1742</ele>
        <time>2015-07-06T09:19:36+02:00</time>
      </trkpt>
      <trkpt lat="45.40644" lon="6.66086">
        <ele>1743</ele>
        <time>2015-07-06T09:19:49+02:00</time>
      </trkpt>
      <trkpt lat="45.40634" lon="6.66083">
        <ele>1744</ele>
        <time>2015-07-06T09:20:03+02:00</time>
      </trkpt>
      <trkpt lat="45.40624" lon="6.6608">
        <ele>1745</ele>
        <time>2015-07-06T09:20:19+02:00</time>
      </trkpt>
      <trkpt lat="45.40617" lon="6.66079">
        <ele>1746</ele>
        <time>2015-07-06T09:20:32+02:00</time>
      </trkpt>
      <trkpt lat="45.40608" lon="6.66078">
        <ele>1747</ele>
        <time>2015-07-06T09:20:45+02:00</time>
      </trkpt>
      <trkpt lat="45.40599" lon="6.66077">
        <ele>1748</ele>
        <time>2015-07-06T09:20:59+02:00</time>
      </trkpt>
      <trkpt lat="45.40588" lon="6.66074">
        <ele>1750</ele>
        <time>2015-07-06T09:21:13+02:00</time>
      </trkpt>
      <trkpt lat="45.40587" lon="6.66073">
        <ele>1750</ele>
        <time>2015-07-06T09:21:16+02:00</time>
      </trkpt>
      <trkpt lat="45.4058" lon="6.66069">
        <ele>1751</ele>
        <time>2015-07-06T09:21:29+02:00</time>
      </trkpt>
      <trkpt lat="45.4057" lon="6.66064">
        <ele>1753</ele>
        <time>2015-07-06T09:21:45+02:00</time>
      </trkpt>
      <trkpt lat="45.40563" lon="6.66063">
        <ele>1755</ele>
        <time>2015-07-06T09:21:56+02:00</time>
      </trkpt>
      <trkpt lat="45.40554" lon="6.6606">
        <ele>1757</ele>
        <time>2015-07-06T09:22:09+02:00</time>
      </trkpt>
      <trkpt lat="45.40546" lon="6.66057">
        <ele>1759</ele>
        <time>2015-07-06T09:22:22+02:00</time>
      </trkpt>
      <trkpt lat="45.40536" lon="6.66053">
        <ele>1761</ele>
        <time>2015-07-06T09:22:35+02:00</time>
      </trkpt>
      <trkpt lat="45.40529" lon="6.66048">
        <ele>1762</ele>
        <time>2015-07-06T09:22:48+02:00</time>
      </trkpt>
      <trkpt lat="45.40524" lon="6.66042">
        <ele>1763</ele>
        <time>2015-07-06T09:23:01+02:00</time>
      </trkpt>
      <trkpt lat="45.40515" lon="6.6604">
        <ele>1765</ele>
        <time>2015-07-06T09:23:16+02:00</time>
      </trkpt>
      <trkpt lat="45.40506" lon="6.66037">
        <ele>1767</ele>
        <time>2015-07-06T09:23:32+02:00</time>
      </trkpt>
      <trkpt lat="45.40497" lon="6.66032">
        <ele>1769</ele>
        <time>2015-07-06T09:23:46+02:00</time>
      </trkpt>
      <trkpt lat="45.40487" lon="6.66027">
        <ele>1771</ele>
        <time>2015-07-06T09:24:01+02:00</time>
      </trkpt>
      <trkpt lat="45.4048" lon="6.66022">
        <ele>1772</ele>
        <time>2015-07-06T09:24:14+02:00</time>
      </trkpt>
      <trkpt lat="45.40474" lon="6.66019">
        <ele>1774</ele>
        <time>2015-07-06T09:24:28+02:00</time>
      </trkpt>
      <trkpt lat="45.40469" lon="6.66019">
        <ele>1774</ele>
        <time>2015-07-06T09:24:42+02:00</time>
      </trkpt>
      <trkpt lat="45.40465" lon="6.66018">
        <ele>1775</ele>
        <time>2015-07-06T09:24:54+02:00</time>
      </trkpt>
      <trkpt lat="45.40462" lon="6.6601">
        <ele>1776</ele>
        <time>2015-07-06T09:25:07+02:00</time>
      </trkpt>
      <trkpt lat="45.40457" lon="6.66002">
        <ele>1777</ele>
        <time>2015-07-06T09:25:23+02:00</time>
      </trkpt>
      <trkpt lat="45.40451" lon="6.65999">
        <ele>1779</ele>
        <time>2015-07-06T09:25:36+02:00</time>
      </trkpt>
      <trkpt lat="45.40447" lon="6.65988">
        <ele>1780</ele>
        <time>2015-07-06T09:25:53+02:00</time>
      </trkpt>
      <trkpt lat="45.40446" lon="6.65989">
        <ele>1780</ele>
        <time>2015-07-06T09:26:10+02:00</time>
      </trkpt>
      <trkpt lat="45.40441" lon="6.65985">
        <ele>1781</ele>
        <time>2015-07-06T09:26:20+02:00</time>
      </trkpt>
      <trkpt lat="45.40439" lon="6.65983">
        <ele>1782</ele>
        <time>2015-07-06T09:26:35+02:00</time>
      </trkpt>
      <trkpt lat="45.40434" lon="6.65984">
        <ele>1783</ele>
        <time>2015-07-06T09:26:47+02:00</time>
      </trkpt>
      <trkpt lat="45.40431" lon="6.65989">
        <ele>1783</ele>
        <time>2015-07-06T09:26:59+02:00</time>
      </trkpt>
      <trkpt lat="45.40423" lon="6.66001">
        <ele>1784</ele>
        <time>2015-07-06T09:27:14+02:00</time>
      </trkpt>
      <trkpt lat="45.40414" lon="6.66015">
        <ele>1785</ele>
        <time>2015-07-06T09:27:31+02:00</time>
      </trkpt>
      <trkpt lat="45.40409" lon="6.66021">
        <ele>1785</ele>
        <time>2015-07-06T09:27:43+02:00</time>
      </trkpt>
      <trkpt lat="45.40408" lon="6.66022">
        <ele>1785</ele>
        <time>2015-07-06T09:28:02+02:00</time>
      </trkpt>
      <trkpt lat="45.40404" lon="6.66025">
        <ele>1786</ele>
        <time>2015-07-06T09:28:09+02:00</time>
      </trkpt>
      <trkpt lat="45.40392" lon="6.6602">
        <ele>1788</ele>
        <time>2015-07-06T09:28:25+02:00</time>
      </trkpt>
      <trkpt lat="45.40386" lon="6.66006">
        <ele>1790</ele>
        <time>2015-07-06T09:28:39+02:00</time>
      </trkpt>
      <trkpt lat="45.40383" lon="6.65993">
        <ele>1791</ele>
        <time>2015-07-06T09:28:53+02:00</time>
      </trkpt>
      <trkpt lat="45.40381" lon="6.65981">
        <ele>1792</ele>
        <time>2015-07-06T09:29:03+02:00</time>
      </trkpt>
      <trkpt lat="45.40378" lon="6.65963">
        <ele>1795</ele>
        <time>2015-07-06T09:29:17+02:00</time>
      </trkpt>
      <trkpt lat="45.40368" lon="6.65952">
        <ele>1798</ele>
        <time>2015-07-06T09:29:32+02:00</time>
      </trkpt>
      <trkpt lat="45.40367" lon="6.65951">
        <ele>1798</ele>
        <time>2015-07-06T09:29:33+02:00</time>
      </trkpt>
      <trkpt lat="45.40365" lon="6.65951">
        <ele>1798</ele>
        <time>2015-07-06T09:29:35+02:00</time>
      </trkpt>
      <trkpt lat="45.40353" lon="6.65952">
        <ele>1801</ele>
        <time>2015-07-06T09:29:50+02:00</time>
      </trkpt>
      <trkpt lat="45.40352" lon="6.65952">
        <ele>1801</ele>
        <time>2015-07-06T09:29:51+02:00</time>
      </trkpt>
      <trkpt lat="45.40339" lon="6.65958">
        <ele>1802</ele>
        <time>2015-07-06T09:30:07+02:00</time>
      </trkpt>
      <trkpt lat="45.40327" lon="6.65964">
        <ele>1804</ele>
        <time>2015-07-06T09:30:23+02:00</time>
      </trkpt>
      <trkpt lat="45.40315" lon="6.65969">
        <ele>1806</ele>
        <time>2015-07-06T09:30:38+02:00</time>
      </trkpt>
      <trkpt lat="45.40303" lon="6.65975">
        <ele>1807</ele>
        <time>2015-07-06T09:30:54+02:00</time>
      </trkpt>
      <trkpt lat="45.40291" lon="6.65981">
        <ele>1809</ele>
        <time>2015-07-06T09:31:09+02:00</time>
      </trkpt>
      <trkpt lat="45.40279" lon="6.65985">
        <ele>1811</ele>
        <time>2015-07-06T09:31:23+02:00</time>
      </trkpt>
      <trkpt lat="45.40265" lon="6.65989">
        <ele>1813</ele>
        <time>2015-07-06T09:31:40+02:00</time>
      </trkpt>
      <trkpt lat="45.40251" lon="6.65992">
        <ele>1816</ele>
        <time>2015-07-06T09:31:57+02:00</time>
      </trkpt>
      <trkpt lat="45.40237" lon="6.65993">
        <ele>1818</ele>
        <time>2015-07-06T09:32:13+02:00</time>
      </trkpt>
      <trkpt lat="45.4023" lon="6.65998">
        <ele>1819</ele>
        <time>2015-07-06T09:32:22+02:00</time>
      </trkpt>
      <trkpt lat="45.40222" lon="6.66013">
        <ele>1819</ele>
        <time>2015-07-06T09:32:38+02:00</time>
      </trkpt>
      <trkpt lat="45.40219" lon="6.6603">
        <ele>1818</ele>
        <time>2015-07-06T09:32:54+02:00</time>
      </trkpt>
      <trkpt lat="45.40211" lon="6.66047">
        <ele>1818</ele>
        <time>2015-07-06T09:33:11+02:00</time>
      </trkpt>
      <trkpt lat="45.40202" lon="6.66056">
        <ele>1819</ele>
        <time>2015-07-06T09:33:26+02:00</time>
      </trkpt>
      <trkpt lat="45.4019" lon="6.66053">
        <ele>1822</ele>
        <time>2015-07-06T09:33:43+02:00</time>
      </trkpt>
      <trkpt lat="45.40185" lon="6.66039">
        <ele>1825</ele>
        <time>2015-07-06T09:33:56+02:00</time>
      </trkpt>
      <trkpt lat="45.40183" lon="6.6602">
        <ele>1827</ele>
        <time>2015-07-06T09:34:11+02:00</time>
      </trkpt>
      <trkpt lat="45.40172" lon="6.66015">
        <ele>1829</ele>
        <time>2015-07-06T09:34:28+02:00</time>
      </trkpt>
      <trkpt lat="45.40162" lon="6.66022">
        <ele>1831</ele>
        <time>2015-07-06T09:34:43+02:00</time>
      </trkpt>
      <trkpt lat="45.40153" lon="6.6603">
        <ele>1833</ele>
        <time>2015-07-06T09:34:56+02:00</time>
      </trkpt>
      <trkpt lat="45.40145" lon="6.66039">
        <ele>1834</ele>
        <time>2015-07-06T09:35:11+02:00</time>
      </trkpt>
      <trkpt lat="45.40136" lon="6.66049">
        <ele>1836</ele>
        <time>2015-07-06T09:35:25+02:00</time>
      </trkpt>
      <trkpt lat="45.40125" lon="6.66055">
        <ele>1838</ele>
        <time>2015-07-06T09:35:39+02:00</time>
      </trkpt>
      <trkpt lat="45.40115" lon="6.66065">
        <ele>1840</ele>
        <time>2015-07-06T09:35:54+02:00</time>
      </trkpt>
      <trkpt lat="45.40104" lon="6.66074">
        <ele>1842</ele>
        <time>2015-07-06T09:36:09+02:00</time>
      </trkpt>
      <trkpt lat="45.40103" lon="6.66074">
        <ele>1842</ele>
        <time>2015-07-06T09:36:11+02:00</time>
      </trkpt>
      <trkpt lat="45.40095" lon="6.6607">
        <ele>1844</ele>
        <time>2015-07-06T09:36:22+02:00</time>
      </trkpt>
      <trkpt lat="45.40091" lon="6.66053">
        <ele>1848</ele>
        <time>2015-07-06T09:36:37+02:00</time>
      </trkpt>
      <trkpt lat="45.40093" lon="6.66045">
        <ele>1848</ele>
        <time>2015-07-06T09:36:53+02:00</time>
      </trkpt>
      <trkpt lat="45.40094" lon="6.66045">
        <ele>1848</ele>
        <time>2015-07-06T09:37:12+02:00</time>
      </trkpt>
      <trkpt lat="45.40093" lon="6.66044">
        <ele>1848</ele>
        <time>2015-07-06T09:37:32+02:00</time>
      </trkpt>
      <trkpt lat="45.40093" lon="6.66044">
        <ele>1849</ele>
        <time>2015-07-06T09:37:57+02:00</time>
      </trkpt>
      <trkpt lat="45.40092" lon="6.66045">
        <ele>1849</ele>
        <time>2015-07-06T09:38:15+02:00</time>
      </trkpt>
      <trkpt lat="45.40093" lon="6.66043">
        <ele>1849</ele>
        <time>2015-07-06T09:38:28+02:00</time>
      </trkpt>
      <trkpt lat="45.40087" lon="6.66047">
        <ele>1850</ele>
        <time>2015-07-06T09:38:42+02:00</time>
      </trkpt>
      <trkpt lat="45.40079" lon="6.66053">
        <ele>1851</ele>
        <time>2015-07-06T09:38:57+02:00</time>
      </trkpt>
      <trkpt lat="45.4007" lon="6.66058">
        <ele>1853</ele>
        <time>2015-07-06T09:39:13+02:00</time>
      </trkpt>
      <trkpt lat="45.4006" lon="6.66064">
        <ele>1856</ele>
        <time>2015-07-06T09:39:28+02:00</time>
      </trkpt>
      <trkpt lat="45.40051" lon="6.6607">
        <ele>1858</ele>
        <time>2015-07-06T09:39:42+02:00</time>
      </trkpt>
      <trkpt lat="45.40041" lon="6.66079">
        <ele>1860</ele>
        <time>2015-07-06T09:39:58+02:00</time>
      </trkpt>
      <trkpt lat="45.40033" lon="6.66091">
        <ele>1861</ele>
        <time>2015-07-06T09:40:14+02:00</time>
      </trkpt>
      <trkpt lat="45.40026" lon="6.66099">
        <ele>1862</ele>
        <time>2015-07-06T09:40:29+02:00</time>
      </trkpt>
      <trkpt lat="45.40016" lon="6.66105">
        <ele>1865</ele>
        <time>2015-07-06T09:40:44+02:00</time>
      </trkpt>
      <trkpt lat="45.40008" lon="6.66117">
        <ele>1866</ele>
        <time>2015-07-06T09:41:01+02:00</time>
      </trkpt>
      <trkpt lat="45.39999" lon="6.66126">
        <ele>1868</ele>
        <time>2015-07-06T09:41:17+02:00</time>
      </trkpt>
      <trkpt lat="45.39991" lon="6.66133">
        <ele>1870</ele>
        <time>2015-07-06T09:41:35+02:00</time>
      </trkpt>
      <trkpt lat="45.39983" lon="6.66142">
        <ele>1873</ele>
        <time>2015-07-06T09:41:50+02:00</time>
      </trkpt>
      <trkpt lat="45.39974" lon="6.66147">
        <ele>1875</ele>
        <time>2015-07-06T09:42:06+02:00</time>
      </trkpt>
      <trkpt lat="45.39964" lon="6.66152">
        <ele>1879</ele>
        <time>2015-07-06T09:42:23+02:00</time>
      </trkpt>
      <trkpt lat="45.39951" lon="6.66155">
        <ele>1883</ele>
        <time>2015-07-06T09:42:42+02:00</time>
      </trkpt>
      <trkpt lat="45.39943" lon="6.66164">
        <ele>1885</ele>
        <time>2015-07-06T09:42:59+02:00</time>
      </trkpt>
      <trkpt lat="45.39933" lon="6.6617">
        <ele>1888</ele>
        <time>2015-07-06T09:43:16+02:00</time>
      </trkpt>
      <trkpt lat="45.39923" lon="6.66164">
        <ele>1893</ele>
        <time>2015-07-06T09:43:33+02:00</time>
      </trkpt>
      <trkpt lat="45.39916" lon="6.66159">
        <ele>1897</ele>
        <time>2015-07-06T09:43:51+02:00</time>
      </trkpt>
      <trkpt lat="45.39909" lon="6.66162">
        <ele>1899</ele>
        <time>2015-07-06T09:44:07+02:00</time>
      </trkpt>
      <trkpt lat="45.39909" lon="6.66169">
        <ele>1897</ele>
        <time>2015-07-06T09:44:22+02:00</time>
      </trkpt>
      <trkpt lat="45.3991" lon="6.66172">
        <ele>1896</ele>
        <time>2015-07-06T09:44:43+02:00</time>
      </trkpt>
      <trkpt lat="45.39906" lon="6.66179">
        <ele>1896</ele>
        <time>2015-07-06T09:44:59+02:00</time>
      </trkpt>
      <trkpt lat="45.39899" lon="6.66187">
        <ele>1897</ele>
        <time>2015-07-06T09:45:14+02:00</time>
      </trkpt>
      <trkpt lat="45.39896" lon="6.66187">
        <ele>1898</ele>
        <time>2015-07-06T09:45:26+02:00</time>
      </trkpt>
      <trkpt lat="45.39892" lon="6.66189">
        <ele>1899</ele>
        <time>2015-07-06T09:45:38+02:00</time>
      </trkpt>
      <trkpt lat="45.39887" lon="6.66193">
        <ele>1899</ele>
        <time>2015-07-06T09:45:52+02:00</time>
      </trkpt>
      <trkpt lat="45.39883" lon="6.66193">
        <ele>1901</ele>
        <time>2015-07-06T09:46:05+02:00</time>
      </trkpt>
      <trkpt lat="45.39879" lon="6.6619">
        <ele>1903</ele>
        <time>2015-07-06T09:46:19+02:00</time>
      </trkpt>
      <trkpt lat="45.39872" lon="6.66193">
        <ele>1904</ele>
        <time>2015-07-06T09:46:33+02:00</time>
      </trkpt>
      <trkpt lat="45.39869" lon="6.66191">
        <ele>1906</ele>
        <time>2015-07-06T09:46:47+02:00</time>
      </trkpt>
      <trkpt lat="45.39867" lon="6.66187">
        <ele>1908</ele>
        <time>2015-07-06T09:47:01+02:00</time>
      </trkpt>
      <trkpt lat="45.39868" lon="6.6618">
        <ele>1910</ele>
        <time>2015-07-06T09:47:16+02:00</time>
      </trkpt>
      <trkpt lat="45.39868" lon="6.66172">
        <ele>1912</ele>
        <time>2015-07-06T09:47:30+02:00</time>
      </trkpt>
      <trkpt lat="45.39868" lon="6.66168">
        <ele>1913</ele>
        <time>2015-07-06T09:47:41+02:00</time>
      </trkpt>
      <trkpt lat="45.3986" lon="6.66175">
        <ele>1914</ele>
        <time>2015-07-06T09:47:57+02:00</time>
      </trkpt>
      <trkpt lat="45.39852" lon="6.6618">
        <ele>1915</ele>
        <time>2015-07-06T09:48:12+02:00</time>
      </trkpt>
      <trkpt lat="45.39854" lon="6.66171">
        <ele>1917</ele>
        <time>2015-07-06T09:48:31+02:00</time>
      </trkpt>
      <trkpt lat="45.39851" lon="6.66168">
        <ele>1919</ele>
        <time>2015-07-06T09:48:45+02:00</time>
      </trkpt>
      <trkpt lat="45.3985" lon="6.66159">
        <ele>1922</ele>
        <time>2015-07-06T09:49:03+02:00</time>
      </trkpt>
      <trkpt lat="45.39847" lon="6.66156">
        <ele>1924</ele>
        <time>2015-07-06T09:49:21+02:00</time>
      </trkpt>
      <trkpt lat="45.39846" lon="6.66154">
        <ele>1925</ele>
        <time>2015-07-06T09:49:41+02:00</time>
      </trkpt>
      <trkpt lat="45.39847" lon="6.66153">
        <ele>1925</ele>
        <time>2015-07-06T09:50:03+02:00</time>
      </trkpt>
      <trkpt lat="45.39846" lon="6.66153">
        <ele>1926</ele>
        <time>2015-07-06T09:50:22+02:00</time>
      </trkpt>
      <trkpt lat="45.39848" lon="6.66155">
        <ele>1924</ele>
        <time>2015-07-06T09:50:43+02:00</time>
      </trkpt>
      <trkpt lat="45.39849" lon="6.66154">
        <ele>1924</ele>
        <time>2015-07-06T09:51:09+02:00</time>
      </trkpt>
      <trkpt lat="45.39848" lon="6.66151">
        <ele>1925</ele>
        <time>2015-07-06T09:51:31+02:00</time>
      </trkpt>
      <trkpt lat="45.39849" lon="6.66153">
        <ele>1924</ele>
        <time>2015-07-06T09:51:56+02:00</time>
      </trkpt>
      <trkpt lat="45.3985" lon="6.66157">
        <ele>1923</ele>
        <time>2015-07-06T09:52:27+02:00</time>
      </trkpt>
      <trkpt lat="45.39849" lon="6.66156">
        <ele>1923</ele>
        <time>2015-07-06T09:52:56+02:00</time>
      </trkpt>
      <trkpt lat="45.39848" lon="6.66149">
        <ele>1926</ele>
        <time>2015-07-06T09:53:05+02:00</time>
      </trkpt>
      <trkpt lat="45.3985" lon="6.6614">
        <ele>1928</ele>
        <time>2015-07-06T09:53:21+02:00</time>
      </trkpt>
      <trkpt lat="45.39846" lon="6.66135">
        <ele>1931</ele>
        <time>2015-07-06T09:53:36+02:00</time>
      </trkpt>
      <trkpt lat="45.39841" lon="6.6614">
        <ele>1932</ele>
        <time>2015-07-06T09:53:49+02:00</time>
      </trkpt>
      <trkpt lat="45.39835" lon="6.66144">
        <ele>1933</ele>
        <time>2015-07-06T09:54:04+02:00</time>
      </trkpt>
      <trkpt lat="45.39829" lon="6.66154">
        <ele>1931</ele>
        <time>2015-07-06T09:54:18+02:00</time>
      </trkpt>
      <trkpt lat="45.39824" lon="6.66158">
        <ele>1930</ele>
        <time>2015-07-06T09:54:29+02:00</time>
      </trkpt>
      <trkpt lat="45.39816" lon="6.66165">
        <ele>1929</ele>
        <time>2015-07-06T09:54:49+02:00</time>
      </trkpt>
      <trkpt lat="45.39808" lon="6.66165">
        <ele>1930</ele>
        <time>2015-07-06T09:55:04+02:00</time>
      </trkpt>
      <trkpt lat="45.39804" lon="6.6616">
        <ele>1932</ele>
        <time>2015-07-06T09:55:19+02:00</time>
      </trkpt>
      <trkpt lat="45.39799" lon="6.66164">
        <ele>1931</ele>
        <time>2015-07-06T09:55:35+02:00</time>
      </trkpt>
      <trkpt lat="45.39791" lon="6.66167">
        <ele>1931</ele>
        <time>2015-07-06T09:55:51+02:00</time>
      </trkpt>
      <trkpt lat="45.39782" lon="6.66165">
        <ele>1933</ele>
        <time>2015-07-06T09:56:07+02:00</time>
      </trkpt>
      <trkpt lat="45.39783" lon="6.66158">
        <ele>1935</ele>
        <time>2015-07-06T09:56:22+02:00</time>
      </trkpt>
      <trkpt lat="45.39787" lon="6.66148">
        <ele>1939</ele>
        <time>2015-07-06T09:56:39+02:00</time>
      </trkpt>
      <trkpt lat="45.39791" lon="6.66138">
        <ele>1942</ele>
        <time>2015-07-06T09:56:56+02:00</time>
      </trkpt>
      <trkpt lat="45.39794" lon="6.66124">
        <ele>1947</ele>
        <time>2015-07-06T09:57:13+02:00</time>
      </trkpt>
      <trkpt lat="45.39794" lon="6.66113">
        <ele>1951</ele>
        <time>2015-07-06T09:57:27+02:00</time>
      </trkpt>
      <trkpt lat="45.39794" lon="6.66107">
        <ele>1953</ele>
        <time>2015-07-06T09:57:40+02:00</time>
      </trkpt>
      <trkpt lat="45.39794" lon="6.66098">
        <ele>1956</ele>
        <time>2015-07-06T09:57:55+02:00</time>
      </trkpt>
      <trkpt lat="45.39794" lon="6.66093">
        <ele>1958</ele>
        <time>2015-07-06T09:58:06+02:00</time>
      </trkpt>
      <trkpt lat="45.39793" lon="6.66091">
        <ele>1959</ele>
        <time>2015-07-06T09:58:20+02:00</time>
      </trkpt>
      <trkpt lat="45.3979" lon="6.66087">
        <ele>1961</ele>
        <time>2015-07-06T09:58:34+02:00</time>
      </trkpt>
      <trkpt lat="45.39787" lon="6.66087">
        <ele>1962</ele>
        <time>2015-07-06T09:58:49+02:00</time>
      </trkpt>
      <trkpt lat="45.39784" lon="6.66085">
        <ele>1963</ele>
        <time>2015-07-06T09:59:02+02:00</time>
      </trkpt>
      <trkpt lat="45.39788" lon="6.6608">
        <ele>1964</ele>
        <time>2015-07-06T09:59:16+02:00</time>
      </trkpt>
      <trkpt lat="45.39789" lon="6.66077">
        <ele>1965</ele>
        <time>2015-07-06T09:59:29+02:00</time>
      </trkpt>
      <trkpt lat="45.39788" lon="6.66073">
        <ele>1966</ele>
        <time>2015-07-06T09:59:43+02:00</time>
      </trkpt>
      <trkpt lat="45.39787" lon="6.66068">
        <ele>1968</ele>
        <time>2015-07-06T09:59:56+02:00</time>
      </trkpt>
      <trkpt lat="45.39788" lon="6.66061">
        <ele>1970</ele>
        <time>2015-07-06T10:00:10+02:00</time>
      </trkpt>
      <trkpt lat="45.39787" lon="6.66057">
        <ele>1972</ele>
        <time>2015-07-06T10:00:25+02:00</time>
      </trkpt>
      <trkpt lat="45.39783" lon="6.6606">
        <ele>1972</ele>
        <time>2015-07-06T10:00:39+02:00</time>
      </trkpt>
      <trkpt lat="45.39781" lon="6.66057">
        <ele>1973</ele>
        <time>2015-07-06T10:00:53+02:00</time>
      </trkpt>
      <trkpt lat="45.3978" lon="6.66055">
        <ele>1974</ele>
        <time>2015-07-06T10:01:06+02:00</time>
      </trkpt>
      <trkpt lat="45.39783" lon="6.66047">
        <ele>1977</ele>
        <time>2015-07-06T10:01:20+02:00</time>
      </trkpt>
      <trkpt lat="45.39784" lon="6.66043">
        <ele>1978</ele>
        <time>2015-07-06T10:01:37+02:00</time>
      </trkpt>
      <trkpt lat="45.39782" lon="6.66041">
        <ele>1979</ele>
        <time>2015-07-06T10:01:51+02:00</time>
      </trkpt>
      <trkpt lat="45.3978" lon="6.66043">
        <ele>1979</ele>
        <time>2015-07-06T10:02:02+02:00</time>
      </trkpt>
      <trkpt lat="45.39775" lon="6.6605">
        <ele>1977</ele>
        <time>2015-07-06T10:02:14+02:00</time>
      </trkpt>
      <trkpt lat="45.39771" lon="6.66054">
        <ele>1977</ele>
        <time>2015-07-06T10:02:28+02:00</time>
      </trkpt>
      <trkpt lat="45.39767" lon="6.66056">
        <ele>1977</ele>
        <time>2015-07-06T10:02:42+02:00</time>
      </trkpt>
      <trkpt lat="45.39764" lon="6.66054">
        <ele>1979</ele>
        <time>2015-07-06T10:03:04+02:00</time>
      </trkpt>
      <trkpt lat="45.39765" lon="6.66055">
        <ele>1978</ele>
        <time>2015-07-06T10:03:40+02:00</time>
      </trkpt>
      <trkpt lat="45.39765" lon="6.66056">
        <ele>1978</ele>
        <time>2015-07-06T10:03:56+02:00</time>
      </trkpt>
      <trkpt lat="45.39765" lon="6.66055">
        <ele>1978</ele>
        <time>2015-07-06T10:04:09+02:00</time>
      </trkpt>
      <trkpt lat="45.39764" lon="6.66058">
        <ele>1977</ele>
        <time>2015-07-06T10:04:35+02:00</time>
      </trkpt>
      <trkpt lat="45.39763" lon="6.66058">
        <ele>1977</ele>
        <time>2015-07-06T10:05:02+02:00</time>
      </trkpt>
      <trkpt lat="45.39761" lon="6.66059">
        <ele>1977</ele>
        <time>2015-07-06T10:05:22+02:00</time>
      </trkpt>
      <trkpt lat="45.39762" lon="6.66067">
        <ele>1974</ele>
        <time>2015-07-06T10:06:16+02:00</time>
      </trkpt>
      <trkpt lat="45.39763" lon="6.66063">
        <ele>1976</ele>
        <time>2015-07-06T10:06:43+02:00</time>
      </trkpt>
      <trkpt lat="45.39763" lon="6.66062">
        <ele>1976</ele>
        <time>2015-07-06T10:07:01+02:00</time>
      </trkpt>
      <trkpt lat="45.39764" lon="6.66061">
        <ele>1976</ele>
        <time>2015-07-06T10:07:21+02:00</time>
      </trkpt>
      <trkpt lat="45.39763" lon="6.6606">
        <ele>1977</ele>
        <time>2015-07-06T10:07:48+02:00</time>
      </trkpt>
      <trkpt lat="45.39763" lon="6.66062">
        <ele>1976</ele>
        <time>2015-07-06T10:08:18+02:00</time>
      </trkpt>
      <trkpt lat="45.39762" lon="6.66062">
        <ele>1976</ele>
        <time>2015-07-06T10:08:50+02:00</time>
      </trkpt>
      <trkpt lat="45.39757" lon="6.66062">
        <ele>1977</ele>
        <time>2015-07-06T10:09:21+02:00</time>
      </trkpt>
      <trkpt lat="45.3976" lon="6.66063">
        <ele>1976</ele>
        <time>2015-07-06T10:10:15+02:00</time>
      </trkpt>
      <trkpt lat="45.39762" lon="6.66064">
        <ele>1975</ele>
        <time>2015-07-06T10:10:43+02:00</time>
      </trkpt>
      <trkpt lat="45.39762" lon="6.66062">
        <ele>1976</ele>
        <time>2015-07-06T10:11:07+02:00</time>
      </trkpt>
      <trkpt lat="45.39761" lon="6.66058">
        <ele>1978</ele>
        <time>2015-07-06T10:11:20+02:00</time>
      </trkpt>
      <trkpt lat="45.39757" lon="6.66058">
        <ele>1979</ele>
        <time>2015-07-06T10:11:36+02:00</time>
      </trkpt>
      <trkpt lat="45.39752" lon="6.66059">
        <ele>1980</ele>
        <time>2015-07-06T10:11:49+02:00</time>
      </trkpt>
      <trkpt lat="45.39744" lon="6.66061">
        <ele>1979</ele>
        <time>2015-07-06T10:12:03+02:00</time>
      </trkpt>
      <trkpt lat="45.39742" lon="6.66051">
        <ele>1983</ele>
        <time>2015-07-06T10:12:20+02:00</time>
      </trkpt>
      <trkpt lat="45.39746" lon="6.66045">
        <ele>1986</ele>
        <time>2015-07-06T10:12:34+02:00</time>
      </trkpt>
      <trkpt lat="45.39752" lon="6.66036">
        <ele>1990</ele>
        <time>2015-07-06T10:12:48+02:00</time>
      </trkpt>
      <trkpt lat="45.39759" lon="6.66026">
        <ele>1991</ele>
        <time>2015-07-06T10:13:04+02:00</time>
      </trkpt>
      <trkpt lat="45.39764" lon="6.66024">
        <ele>1991</ele>
        <time>2015-07-06T10:13:18+02:00</time>
      </trkpt>
      <trkpt lat="45.39764" lon="6.66027">
        <ele>1989</ele>
        <time>2015-07-06T10:13:33+02:00</time>
      </trkpt>
      <trkpt lat="45.39764" lon="6.66025">
        <ele>1990</ele>
        <time>2015-07-06T10:13:50+02:00</time>
      </trkpt>
      <trkpt lat="45.39765" lon="6.66023">
        <ele>1991</ele>
        <time>2015-07-06T10:14:17+02:00</time>
      </trkpt>
      <trkpt lat="45.39763" lon="6.66021">
        <ele>1992</ele>
        <time>2015-07-06T10:14:28+02:00</time>
      </trkpt>
      <trkpt lat="45.39761" lon="6.6602">
        <ele>1993</ele>
        <time>2015-07-06T10:15:08+02:00</time>
      </trkpt>
      <trkpt lat="45.39761" lon="6.66019">
        <ele>1994</ele>
        <time>2015-07-06T10:16:09+02:00</time>
      </trkpt>
      <trkpt lat="45.39761" lon="6.66019">
        <ele>1994</ele>
        <time>2015-07-06T10:16:37+02:00</time>
      </trkpt>
      <trkpt lat="45.3976" lon="6.66019">
        <ele>1994</ele>
        <time>2015-07-06T10:17:43+02:00</time>
      </trkpt>
      <trkpt lat="45.39751" lon="6.66009">
        <ele>2001</ele>
        <time>2015-07-06T10:17:57+02:00</time>
      </trkpt>
      <trkpt lat="45.39754" lon="6.65998">
        <ele>2004</ele>
        <time>2015-07-06T10:18:10+02:00</time>
      </trkpt>
      <trkpt lat="45.39754" lon="6.65988">
        <ele>2006</ele>
        <time>2015-07-06T10:18:23+02:00</time>
      </trkpt>
      <trkpt lat="45.39753" lon="6.6598">
        <ele>2007</ele>
        <time>2015-07-06T10:18:36+02:00</time>
      </trkpt>
      <trkpt lat="45.39761" lon="6.65971">
        <ele>2006</ele>
        <time>2015-07-06T10:18:49+02:00</time>
      </trkpt>
      <trkpt lat="45.3977" lon="6.65964">
        <ele>2004</ele>
        <time>2015-07-06T10:19:04+02:00</time>
      </trkpt>
      <trkpt lat="45.39774" lon="6.65953">
        <ele>2005</ele>
        <time>2015-07-06T10:19:19+02:00</time>
      </trkpt>
      <trkpt lat="45.39775" lon="6.65943">
        <ele>2006</ele>
        <time>2015-07-06T10:19:33+02:00</time>
      </trkpt>
      <trkpt lat="45.3977" lon="6.65928">
        <ele>2011</ele>
        <time>2015-07-06T10:19:48+02:00</time>
      </trkpt>
      <trkpt lat="45.39765" lon="6.65925">
        <ele>2013</ele>
        <time>2015-07-06T10:20:04+02:00</time>
      </trkpt>
      <trkpt lat="45.39766" lon="6.65927">
        <ele>2012</ele>
        <time>2015-07-06T10:20:17+02:00</time>
      </trkpt>
      <trkpt lat="45.39768" lon="6.65939">
        <ele>2009</ele>
        <time>2015-07-06T10:20:32+02:00</time>
      </trkpt>
      <trkpt lat="45.39761" lon="6.65947">
        <ele>2010</ele>
        <time>2015-07-06T10:20:47+02:00</time>
      </trkpt>
      <trkpt lat="45.39754" lon="6.65949">
        <ele>2012</ele>
        <time>2015-07-06T10:21:02+02:00</time>
      </trkpt>
      <trkpt lat="45.39743" lon="6.65943">
        <ele>2014</ele>
        <time>2015-07-06T10:21:18+02:00</time>
      </trkpt>
      <trkpt lat="45.39733" lon="6.6594">
        <ele>2015</ele>
        <time>2015-07-06T10:21:34+02:00</time>
      </trkpt>
      <trkpt lat="45.39725" lon="6.6594">
        <ele>2015</ele>
        <time>2015-07-06T10:21:51+02:00</time>
      </trkpt>
      <trkpt lat="45.3972" lon="6.65934">
        <ele>2017</ele>
        <time>2015-07-06T10:22:04+02:00</time>
      </trkpt>
      <trkpt lat="45.39715" lon="6.65928">
        <ele>2018</ele>
        <time>2015-07-06T10:22:18+02:00</time>
      </trkpt>
      <trkpt lat="45.39719" lon="6.6592">
        <ele>2020</ele>
        <time>2015-07-06T10:22:33+02:00</time>
      </trkpt>
      <trkpt lat="45.39714" lon="6.65912">
        <ele>2022</ele>
        <time>2015-07-06T10:22:47+02:00</time>
      </trkpt>
      <trkpt lat="45.39703" lon="6.65914">
        <ele>2022</ele>
        <time>2015-07-06T10:23:04+02:00</time>
      </trkpt>
      <trkpt lat="45.39693" lon="6.65917">
        <ele>2023</ele>
        <time>2015-07-06T10:23:20+02:00</time>
      </trkpt>
      <trkpt lat="45.39682" lon="6.65919">
        <ele>2023</ele>
        <time>2015-07-06T10:23:36+02:00</time>
      </trkpt>
      <trkpt lat="45.39676" lon="6.65911">
        <ele>2025</ele>
        <time>2015-07-06T10:23:51+02:00</time>
      </trkpt>
      <trkpt lat="45.3967" lon="6.65908">
        <ele>2026</ele>
        <time>2015-07-06T10:24:06+02:00</time>
      </trkpt>
      <trkpt lat="45.39662" lon="6.65904">
        <ele>2027</ele>
        <time>2015-07-06T10:24:24+02:00</time>
      </trkpt>
      <trkpt lat="45.39652" lon="6.65896">
        <ele>2029</ele>
        <time>2015-07-06T10:24:40+02:00</time>
      </trkpt>
      <trkpt lat="45.39639" lon="6.65892">
        <ele>2030</ele>
        <time>2015-07-06T10:24:56+02:00</time>
      </trkpt>
      <trkpt lat="45.39628" lon="6.65885">
        <ele>2032</ele>
        <time>2015-07-06T10:25:11+02:00</time>
      </trkpt>
      <trkpt lat="45.39613" lon="6.65875">
        <ele>2034</ele>
        <time>2015-07-06T10:25:29+02:00</time>
      </trkpt>
      <trkpt lat="45.39599" lon="6.65862">
        <ele>2036</ele>
        <time>2015-07-06T10:25:47+02:00</time>
      </trkpt>
      <trkpt lat="45.39588" lon="6.6585">
        <ele>2038</ele>
        <time>2015-07-06T10:26:03+02:00</time>
      </trkpt>
      <trkpt lat="45.39583" lon="6.65845">
        <ele>2039</ele>
        <time>2015-07-06T10:26:09+02:00</time>
      </trkpt>
      <trkpt lat="45.39572" lon="6.65836">
        <ele>2041</ele>
        <time>2015-07-06T10:26:25+02:00</time>
      </trkpt>
      <trkpt lat="45.39562" lon="6.65828">
        <ele>2043</ele>
        <time>2015-07-06T10:26:40+02:00</time>
      </trkpt>
      <trkpt lat="45.39552" lon="6.65816">
        <ele>2045</ele>
        <time>2015-07-06T10:27:00+02:00</time>
      </trkpt>
      <trkpt lat="45.39545" lon="6.65805">
        <ele>2046</ele>
        <time>2015-07-06T10:27:18+02:00</time>
      </trkpt>
      <trkpt lat="45.39538" lon="6.6579">
        <ele>2047</ele>
        <time>2015-07-06T10:27:36+02:00</time>
      </trkpt>
      <trkpt lat="45.39531" lon="6.65781">
        <ele>2049</ele>
        <time>2015-07-06T10:27:52+02:00</time>
      </trkpt>
      <trkpt lat="45.39527" lon="6.65773">
        <ele>2049</ele>
        <time>2015-07-06T10:28:06+02:00</time>
      </trkpt>
      <trkpt lat="45.39519" lon="6.65767">
        <ele>2050</ele>
        <time>2015-07-06T10:28:20+02:00</time>
      </trkpt>
      <trkpt lat="45.3951" lon="6.65764">
        <ele>2052</ele>
        <time>2015-07-06T10:28:36+02:00</time>
      </trkpt>
      <trkpt lat="45.39506" lon="6.65765">
        <ele>2052</ele>
        <time>2015-07-06T10:31:27+02:00</time>
      </trkpt>
      <trkpt lat="45.39507" lon="6.65765">
        <ele>2052</ele>
        <time>2015-07-06T10:31:44+02:00</time>
      </trkpt>
      <trkpt lat="45.39498" lon="6.65763">
        <ele>2053</ele>
        <time>2015-07-06T10:36:24+02:00</time>
      </trkpt>
      <trkpt lat="45.39488" lon="6.65761">
        <ele>2054</ele>
        <time>2015-07-06T10:36:38+02:00</time>
      </trkpt>
      <trkpt lat="45.39476" lon="6.65762">
        <ele>2056</ele>
        <time>2015-07-06T10:36:53+02:00</time>
      </trkpt>
      <trkpt lat="45.39464" lon="6.65762">
        <ele>2057</ele>
        <time>2015-07-06T10:37:07+02:00</time>
      </trkpt>
      <trkpt lat="45.39452" lon="6.65762">
        <ele>2058</ele>
        <time>2015-07-06T10:37:22+02:00</time>
      </trkpt>
      <trkpt lat="45.39439" lon="6.65759">
        <ele>2060</ele>
        <time>2015-07-06T10:37:38+02:00</time>
      </trkpt>
      <trkpt lat="45.39426" lon="6.65758">
        <ele>2062</ele>
        <time>2015-07-06T10:37:54+02:00</time>
      </trkpt>
      <trkpt lat="45.39413" lon="6.65756">
        <ele>2063</ele>
        <time>2015-07-06T10:38:09+02:00</time>
      </trkpt>
      <trkpt lat="45.39399" lon="6.65753">
        <ele>2065</ele>
        <time>2015-07-06T10:38:26+02:00</time>
      </trkpt>
      <trkpt lat="45.39384" lon="6.6575">
        <ele>2068</ele>
        <time>2015-07-06T10:38:43+02:00</time>
      </trkpt>
      <trkpt lat="45.39371" lon="6.65751">
        <ele>2069</ele>
        <time>2015-07-06T10:38:58+02:00</time>
      </trkpt>
      <trkpt lat="45.39358" lon="6.6575">
        <ele>2071</ele>
        <time>2015-07-06T10:39:13+02:00</time>
      </trkpt>
      <trkpt lat="45.39342" lon="6.65748">
        <ele>2074</ele>
        <time>2015-07-06T10:39:31+02:00</time>
      </trkpt>
      <trkpt lat="45.3933" lon="6.65744">
        <ele>2075</ele>
        <time>2015-07-06T10:39:45+02:00</time>
      </trkpt>
      <trkpt lat="45.39315" lon="6.65739">
        <ele>2079</ele>
        <time>2015-07-06T10:40:03+02:00</time>
      </trkpt>
      <trkpt lat="45.39303" lon="6.65734">
        <ele>2081</ele>
        <time>2015-07-06T10:40:19+02:00</time>
      </trkpt>
      <trkpt lat="45.39293" lon="6.65729">
        <ele>2083</ele>
        <time>2015-07-06T10:40:34+02:00</time>
      </trkpt>
      <trkpt lat="45.39282" lon="6.65723">
        <ele>2085</ele>
        <time>2015-07-06T10:40:50+02:00</time>
      </trkpt>
      <trkpt lat="45.39271" lon="6.65718">
        <ele>2087</ele>
        <time>2015-07-06T10:41:06+02:00</time>
      </trkpt>
      <trkpt lat="45.39259" lon="6.65712">
        <ele>2090</ele>
        <time>2015-07-06T10:41:21+02:00</time>
      </trkpt>
      <trkpt lat="45.39247" lon="6.65706">
        <ele>2092</ele>
        <time>2015-07-06T10:41:37+02:00</time>
      </trkpt>
      <trkpt lat="45.39237" lon="6.65702">
        <ele>2094</ele>
        <time>2015-07-06T10:41:53+02:00</time>
      </trkpt>
      <trkpt lat="45.39227" lon="6.65696">
        <ele>2096</ele>
        <time>2015-07-06T10:42:09+02:00</time>
      </trkpt>
      <trkpt lat="45.39218" lon="6.65689">
        <ele>2098</ele>
        <time>2015-07-06T10:42:24+02:00</time>
      </trkpt>
      <trkpt lat="45.39207" lon="6.65683">
        <ele>2100</ele>
        <time>2015-07-06T10:42:41+02:00</time>
      </trkpt>
      <trkpt lat="45.39197" lon="6.6568">
        <ele>2102</ele>
        <time>2015-07-06T10:42:54+02:00</time>
      </trkpt>
      <trkpt lat="45.39189" lon="6.65677">
        <ele>2103</ele>
        <time>2015-07-06T10:43:10+02:00</time>
      </trkpt>
      <trkpt lat="45.39189" lon="6.65676">
        <ele>2103</ele>
        <time>2015-07-06T10:43:33+02:00</time>
      </trkpt>
      <trkpt lat="45.39186" lon="6.65674">
        <ele>2103</ele>
        <time>2015-07-06T10:45:46+02:00</time>
      </trkpt>
      <trkpt lat="45.39175" lon="6.65668">
        <ele>2105</ele>
        <time>2015-07-06T10:46:02+02:00</time>
      </trkpt>
      <trkpt lat="45.39164" lon="6.65661">
        <ele>2107</ele>
        <time>2015-07-06T10:46:17+02:00</time>
      </trkpt>
      <trkpt lat="45.39154" lon="6.65655">
        <ele>2110</ele>
        <time>2015-07-06T10:46:31+02:00</time>
      </trkpt>
      <trkpt lat="45.39143" lon="6.65648">
        <ele>2112</ele>
        <time>2015-07-06T10:46:46+02:00</time>
      </trkpt>
      <trkpt lat="45.39132" lon="6.65639">
        <ele>2115</ele>
        <time>2015-07-06T10:47:02+02:00</time>
      </trkpt>
      <trkpt lat="45.39122" lon="6.65629">
        <ele>2116</ele>
        <time>2015-07-06T10:47:17+02:00</time>
      </trkpt>
      <trkpt lat="45.3911" lon="6.65617">
        <ele>2118</ele>
        <time>2015-07-06T10:47:33+02:00</time>
      </trkpt>
      <trkpt lat="45.39099" lon="6.65607">
        <ele>2119</ele>
        <time>2015-07-06T10:47:48+02:00</time>
      </trkpt>
      <trkpt lat="45.39089" lon="6.65592">
        <ele>2119</ele>
        <time>2015-07-06T10:48:04+02:00</time>
      </trkpt>
      <trkpt lat="45.39075" lon="6.65579">
        <ele>2119</ele>
        <time>2015-07-06T10:48:22+02:00</time>
      </trkpt>
      <trkpt lat="45.39061" lon="6.6557">
        <ele>2118</ele>
        <time>2015-07-06T10:48:39+02:00</time>
      </trkpt>
      <trkpt lat="45.39044" lon="6.65564">
        <ele>2119</ele>
        <time>2015-07-06T10:48:58+02:00</time>
      </trkpt>
      <trkpt lat="45.39024" lon="6.65562">
        <ele>2120</ele>
        <time>2015-07-06T10:49:18+02:00</time>
      </trkpt>
      <trkpt lat="45.39017" lon="6.65562">
        <ele>2121</ele>
        <time>2015-07-06T10:49:25+02:00</time>
      </trkpt>
      <trkpt lat="45.39001" lon="6.65562">
        <ele>2123</ele>
        <time>2015-07-06T10:49:41+02:00</time>
      </trkpt>
      <trkpt lat="45.38982" lon="6.65561">
        <ele>2125</ele>
        <time>2015-07-06T10:50:01+02:00</time>
      </trkpt>
      <trkpt lat="45.38964" lon="6.6556">
        <ele>2128</ele>
        <time>2015-07-06T10:50:20+02:00</time>
      </trkpt>
      <trkpt lat="45.38949" lon="6.65564">
        <ele>2131</ele>
        <time>2015-07-06T10:50:38+02:00</time>
      </trkpt>
      <trkpt lat="45.38935" lon="6.65568">
        <ele>2133</ele>
        <time>2015-07-06T10:50:54+02:00</time>
      </trkpt>
      <trkpt lat="45.38923" lon="6.65569">
        <ele>2135</ele>
        <time>2015-07-06T10:51:09+02:00</time>
      </trkpt>
      <trkpt lat="45.38911" lon="6.65571">
        <ele>2137</ele>
        <time>2015-07-06T10:51:25+02:00</time>
      </trkpt>
      <trkpt lat="45.38899" lon="6.65572">
        <ele>2139</ele>
        <time>2015-07-06T10:51:40+02:00</time>
      </trkpt>
      <trkpt lat="45.38888" lon="6.6557">
        <ele>2140</ele>
        <time>2015-07-06T10:51:56+02:00</time>
      </trkpt>
      <trkpt lat="45.3888" lon="6.65567">
        <ele>2142</ele>
        <time>2015-07-06T10:52:12+02:00</time>
      </trkpt>
      <trkpt lat="45.38871" lon="6.65565">
        <ele>2143</ele>
        <time>2015-07-06T10:52:27+02:00</time>
      </trkpt>
      <trkpt lat="45.38859" lon="6.65562">
        <ele>2145</ele>
        <time>2015-07-06T10:52:44+02:00</time>
      </trkpt>
      <trkpt lat="45.38851" lon="6.65558">
        <ele>2147</ele>
        <time>2015-07-06T10:53:00+02:00</time>
      </trkpt>
      <trkpt lat="45.38843" lon="6.6555">
        <ele>2148</ele>
        <time>2015-07-06T10:53:18+02:00</time>
      </trkpt>
      <trkpt lat="45.38836" lon="6.65544">
        <ele>2150</ele>
        <time>2015-07-06T10:53:33+02:00</time>
      </trkpt>
      <trkpt lat="45.38826" lon="6.6554">
        <ele>2152</ele>
        <time>2015-07-06T10:53:50+02:00</time>
      </trkpt>
      <trkpt lat="45.38817" lon="6.65538">
        <ele>2153</ele>
        <time>2015-07-06T10:54:09+02:00</time>
      </trkpt>
      <trkpt lat="45.38804" lon="6.65536">
        <ele>2155</ele>
        <time>2015-07-06T10:54:28+02:00</time>
      </trkpt>
      <trkpt lat="45.38793" lon="6.65532">
        <ele>2157</ele>
        <time>2015-07-06T10:54:48+02:00</time>
      </trkpt>
      <trkpt lat="45.38782" lon="6.65529">
        <ele>2159</ele>
        <time>2015-07-06T10:55:05+02:00</time>
      </trkpt>
      <trkpt lat="45.38769" lon="6.65528">
        <ele>2161</ele>
        <time>2015-07-06T10:55:25+02:00</time>
      </trkpt>
      <trkpt lat="45.38758" lon="6.65528">
        <ele>2162</ele>
        <time>2015-07-06T10:55:42+02:00</time>
      </trkpt>
      <trkpt lat="45.38742" lon="6.65525">
        <ele>2165</ele>
        <time>2015-07-06T10:56:04+02:00</time>
      </trkpt>
      <trkpt lat="45.38731" lon="6.65519">
        <ele>2167</ele>
        <time>2015-07-06T10:56:20+02:00</time>
      </trkpt>
      <trkpt lat="45.38721" lon="6.65516">
        <ele>2169</ele>
        <time>2015-07-06T10:56:35+02:00</time>
      </trkpt>
      <trkpt lat="45.38718" lon="6.65517">
        <ele>2169</ele>
        <time>2015-07-06T10:56:39+02:00</time>
      </trkpt>
      <trkpt lat="45.38705" lon="6.65526">
        <ele>2170</ele>
        <time>2015-07-06T10:57:15+02:00</time>
      </trkpt>
      <trkpt lat="45.38705" lon="6.65526">
        <ele>2170</ele>
        <time>2015-07-06T11:02:57+02:00</time>
      </trkpt>
      <trkpt lat="45.38704" lon="6.65527">
        <ele>2170</ele>
        <time>2015-07-06T11:03:24+02:00</time>
      </trkpt>
      <trkpt lat="45.387" lon="6.65529">
        <ele>2170</ele>
        <time>2015-07-06T11:03:44+02:00</time>
      </trkpt>
      <trkpt lat="45.38699" lon="6.65531">
        <ele>2170</ele>
        <time>2015-07-06T11:03:59+02:00</time>
      </trkpt>
      <trkpt lat="45.38692" lon="6.65533">
        <ele>2171</ele>
        <time>2015-07-06T11:04:21+02:00</time>
      </trkpt>
      <trkpt lat="45.38681" lon="6.65538">
        <ele>2171</ele>
        <time>2015-07-06T11:04:34+02:00</time>
      </trkpt>
      <trkpt lat="45.38669" lon="6.65543">
        <ele>2172</ele>
        <time>2015-07-06T11:04:49+02:00</time>
      </trkpt>
      <trkpt lat="45.38656" lon="6.65542">
        <ele>2174</ele>
        <time>2015-07-06T11:05:05+02:00</time>
      </trkpt>
      <trkpt lat="45.38644" lon="6.65538">
        <ele>2175</ele>
        <time>2015-07-06T11:05:21+02:00</time>
      </trkpt>
      <trkpt lat="45.38638" lon="6.65535">
        <ele>2176</ele>
        <time>2015-07-06T11:05:34+02:00</time>
      </trkpt>
      <trkpt lat="45.38628" lon="6.65531">
        <ele>2178</ele>
        <time>2015-07-06T11:05:49+02:00</time>
      </trkpt>
      <trkpt lat="45.38623" lon="6.65527">
        <ele>2179</ele>
        <time>2015-07-06T11:06:04+02:00</time>
      </trkpt>
      <trkpt lat="45.38612" lon="6.65523">
        <ele>2180</ele>
        <time>2015-07-06T11:06:18+02:00</time>
      </trkpt>
      <trkpt lat="45.386" lon="6.65526">
        <ele>2181</ele>
        <time>2015-07-06T11:06:33+02:00</time>
      </trkpt>
      <trkpt lat="45.38588" lon="6.65533">
        <ele>2181</ele>
        <time>2015-07-06T11:06:49+02:00</time>
      </trkpt>
      <trkpt lat="45.38584" lon="6.65534">
        <ele>2182</ele>
        <time>2015-07-06T11:07:06+02:00</time>
      </trkpt>
      <trkpt lat="45.38583" lon="6.65534">
        <ele>2182</ele>
        <time>2015-07-06T11:08:50+02:00</time>
      </trkpt>
      <trkpt lat="45.38581" lon="6.65521">
        <ele>2183</ele>
        <time>2015-07-06T11:09:04+02:00</time>
      </trkpt>
      <trkpt lat="45.38578" lon="6.65509">
        <ele>2185</ele>
        <time>2015-07-06T11:09:19+02:00</time>
      </trkpt>
      <trkpt lat="45.38576" lon="6.65504">
        <ele>2186</ele>
        <time>2015-07-06T11:09:24+02:00</time>
      </trkpt>
      <trkpt lat="45.38571" lon="6.65497">
        <ele>2187</ele>
        <time>2015-07-06T11:09:35+02:00</time>
      </trkpt>
      <trkpt lat="45.38558" lon="6.65485">
        <ele>2188</ele>
        <time>2015-07-06T11:09:52+02:00</time>
      </trkpt>
      <trkpt lat="45.38543" lon="6.65474">
        <ele>2189</ele>
        <time>2015-07-06T11:10:10+02:00</time>
      </trkpt>
      <trkpt lat="45.38529" lon="6.65466">
        <ele>2190</ele>
        <time>2015-07-06T11:10:26+02:00</time>
      </trkpt>
      <trkpt lat="45.38516" lon="6.65454">
        <ele>2190</ele>
        <time>2015-07-06T11:10:43+02:00</time>
      </trkpt>
      <trkpt lat="45.38509" lon="6.65454">
        <ele>2190</ele>
        <time>2015-07-06T11:10:59+02:00</time>
      </trkpt>
      <trkpt lat="45.38507" lon="6.65454">
        <ele>2191</ele>
        <time>2015-07-06T11:11:15+02:00</time>
      </trkpt>
      <trkpt lat="45.38491" lon="6.65449">
        <ele>2191</ele>
        <time>2015-07-06T11:11:32+02:00</time>
      </trkpt>
      <trkpt lat="45.38475" lon="6.65448">
        <ele>2193</ele>
        <time>2015-07-06T11:11:49+02:00</time>
      </trkpt>
      <trkpt lat="45.3846" lon="6.65448">
        <ele>2194</ele>
        <time>2015-07-06T11:12:05+02:00</time>
      </trkpt>
      <trkpt lat="45.38445" lon="6.65451">
        <ele>2196</ele>
        <time>2015-07-06T11:12:21+02:00</time>
      </trkpt>
      <trkpt lat="45.38433" lon="6.65454">
        <ele>2197</ele>
        <time>2015-07-06T11:12:35+02:00</time>
      </trkpt>
      <trkpt lat="45.38419" lon="6.65458">
        <ele>2199</ele>
        <time>2015-07-06T11:12:51+02:00</time>
      </trkpt>
      <trkpt lat="45.38405" lon="6.65462">
        <ele>2201</ele>
        <time>2015-07-06T11:13:06+02:00</time>
      </trkpt>
      <trkpt lat="45.38392" lon="6.65463">
        <ele>2202</ele>
        <time>2015-07-06T11:13:21+02:00</time>
      </trkpt>
      <trkpt lat="45.38378" lon="6.65465">
        <ele>2203</ele>
        <time>2015-07-06T11:13:37+02:00</time>
      </trkpt>
      <trkpt lat="45.38373" lon="6.65466">
        <ele>2203</ele>
        <time>2015-07-06T11:13:42+02:00</time>
      </trkpt>
      <trkpt lat="45.38359" lon="6.65473">
        <ele>2204</ele>
        <time>2015-07-06T11:13:59+02:00</time>
      </trkpt>
      <trkpt lat="45.38346" lon="6.6548">
        <ele>2206</ele>
        <time>2015-07-06T11:14:16+02:00</time>
      </trkpt>
      <trkpt lat="45.38333" lon="6.65487">
        <ele>2207</ele>
        <time>2015-07-06T11:14:31+02:00</time>
      </trkpt>
      <trkpt lat="45.38321" lon="6.65495">
        <ele>2209</ele>
        <time>2015-07-06T11:14:47+02:00</time>
      </trkpt>
      <trkpt lat="45.38308" lon="6.65502">
        <ele>2212</ele>
        <time>2015-07-06T11:15:03+02:00</time>
      </trkpt>
      <trkpt lat="45.38294" lon="6.65512">
        <ele>2215</ele>
        <time>2015-07-06T11:15:20+02:00</time>
      </trkpt>
      <trkpt lat="45.38279" lon="6.65521">
        <ele>2218</ele>
        <time>2015-07-06T11:15:37+02:00</time>
      </trkpt>
      <trkpt lat="45.38265" lon="6.65519">
        <ele>2219</ele>
        <time>2015-07-06T11:15:53+02:00</time>
      </trkpt>
      <trkpt lat="45.38252" lon="6.65513">
        <ele>2220</ele>
        <time>2015-07-06T11:16:11+02:00</time>
      </trkpt>
      <trkpt lat="45.38241" lon="6.65507">
        <ele>2221</ele>
        <time>2015-07-06T11:16:27+02:00</time>
      </trkpt>
      <trkpt lat="45.38231" lon="6.65502">
        <ele>2221</ele>
        <time>2015-07-06T11:16:41+02:00</time>
      </trkpt>
      <trkpt lat="45.38221" lon="6.65498">
        <ele>2222</ele>
        <time>2015-07-06T11:16:55+02:00</time>
      </trkpt>
      <trkpt lat="45.3821" lon="6.65491">
        <ele>2223</ele>
        <time>2015-07-06T11:17:11+02:00</time>
      </trkpt>
      <trkpt lat="45.38201" lon="6.65482">
        <ele>2224</ele>
        <time>2015-07-06T11:17:26+02:00</time>
      </trkpt>
      <trkpt lat="45.3819" lon="6.65475">
        <ele>2226</ele>
        <time>2015-07-06T11:17:42+02:00</time>
      </trkpt>
      <trkpt lat="45.38179" lon="6.6547">
        <ele>2228</ele>
        <time>2015-07-06T11:17:58+02:00</time>
      </trkpt>
      <trkpt lat="45.38167" lon="6.6547">
        <ele>2229</ele>
        <time>2015-07-06T11:18:14+02:00</time>
      </trkpt>
      <trkpt lat="45.38168" lon="6.65471">
        <ele>2229</ele>
        <time>2015-07-06T11:20:15+02:00</time>
      </trkpt>
      <trkpt lat="45.38162" lon="6.65476">
        <ele>2230</ele>
        <time>2015-07-06T11:28:36+02:00</time>
      </trkpt>
      <trkpt lat="45.38154" lon="6.65482">
        <ele>2232</ele>
        <time>2015-07-06T11:28:46+02:00</time>
      </trkpt>
      <trkpt lat="45.3814" lon="6.65484">
        <ele>2235</ele>
        <time>2015-07-06T11:29:02+02:00</time>
      </trkpt>
      <trkpt lat="45.38139" lon="6.65484">
        <ele>2236</ele>
        <time>2015-07-06T11:29:04+02:00</time>
      </trkpt>
      <trkpt lat="45.38135" lon="6.65485">
        <ele>2236</ele>
        <time>2015-07-06T11:29:08+02:00</time>
      </trkpt>
      <trkpt lat="45.38122" lon="6.6549">
        <ele>2239</ele>
        <time>2015-07-06T11:29:23+02:00</time>
      </trkpt>
      <trkpt lat="45.3811" lon="6.65497">
        <ele>2242</ele>
        <time>2015-07-06T11:29:39+02:00</time>
      </trkpt>
      <trkpt lat="45.381" lon="6.65507">
        <ele>2243</ele>
        <time>2015-07-06T11:29:54+02:00</time>
      </trkpt>
      <trkpt lat="45.38088" lon="6.65513">
        <ele>2244</ele>
        <time>2015-07-06T11:30:11+02:00</time>
      </trkpt>
      <trkpt lat="45.38078" lon="6.65518">
        <ele>2246</ele>
        <time>2015-07-06T11:30:29+02:00</time>
      </trkpt>
      <trkpt lat="45.38069" lon="6.65519">
        <ele>2248</ele>
        <time>2015-07-06T11:30:46+02:00</time>
      </trkpt>
      <trkpt lat="45.38062" lon="6.65519">
        <ele>2249</ele>
        <time>2015-07-06T11:30:59+02:00</time>
      </trkpt>
      <trkpt lat="45.38055" lon="6.65521">
        <ele>2250</ele>
        <time>2015-07-06T11:31:15+02:00</time>
      </trkpt>
      <trkpt lat="45.38049" lon="6.65522">
        <ele>2251</ele>
        <time>2015-07-06T11:31:32+02:00</time>
      </trkpt>
      <trkpt lat="45.38045" lon="6.65523">
        <ele>2252</ele>
        <time>2015-07-06T11:31:45+02:00</time>
      </trkpt>
      <trkpt lat="45.38035" lon="6.65522">
        <ele>2254</ele>
        <time>2015-07-06T11:32:05+02:00</time>
      </trkpt>
      <trkpt lat="45.38027" lon="6.65518">
        <ele>2257</ele>
        <time>2015-07-06T11:32:21+02:00</time>
      </trkpt>
      <trkpt lat="45.38021" lon="6.65515">
        <ele>2259</ele>
        <time>2015-07-06T11:32:35+02:00</time>
      </trkpt>
      <trkpt lat="45.38014" lon="6.65525">
        <ele>2258</ele>
        <time>2015-07-06T11:32:51+02:00</time>
      </trkpt>
      <trkpt lat="45.38008" lon="6.65521">
        <ele>2260</ele>
        <time>2015-07-06T11:33:06+02:00</time>
      </trkpt>
      <trkpt lat="45.38001" lon="6.65518">
        <ele>2262</ele>
        <time>2015-07-06T11:33:21+02:00</time>
      </trkpt>
      <trkpt lat="45.37996" lon="6.65513">
        <ele>2265</ele>
        <time>2015-07-06T11:33:36+02:00</time>
      </trkpt>
      <trkpt lat="45.37988" lon="6.65508">
        <ele>2267</ele>
        <time>2015-07-06T11:33:54+02:00</time>
      </trkpt>
      <trkpt lat="45.37979" lon="6.65503">
        <ele>2270</ele>
        <time>2015-07-06T11:34:12+02:00</time>
      </trkpt>
      <trkpt lat="45.37973" lon="6.65494">
        <ele>2273</ele>
        <time>2015-07-06T11:34:30+02:00</time>
      </trkpt>
      <trkpt lat="45.37969" lon="6.65482">
        <ele>2275</ele>
        <time>2015-07-06T11:34:49+02:00</time>
      </trkpt>
      <trkpt lat="45.37966" lon="6.65471">
        <ele>2277</ele>
        <time>2015-07-06T11:35:03+02:00</time>
      </trkpt>
      <trkpt lat="45.3796" lon="6.65464">
        <ele>2279</ele>
        <time>2015-07-06T11:35:19+02:00</time>
      </trkpt>
      <trkpt lat="45.37952" lon="6.65461">
        <ele>2281</ele>
        <time>2015-07-06T11:35:36+02:00</time>
      </trkpt>
      <trkpt lat="45.37946" lon="6.65459">
        <ele>2283</ele>
        <time>2015-07-06T11:35:51+02:00</time>
      </trkpt>
      <trkpt lat="45.37938" lon="6.6546">
        <ele>2284</ele>
        <time>2015-07-06T11:36:09+02:00</time>
      </trkpt>
      <trkpt lat="45.37929" lon="6.6546">
        <ele>2286</ele>
        <time>2015-07-06T11:36:25+02:00</time>
      </trkpt>
      <trkpt lat="45.37921" lon="6.65457">
        <ele>2288</ele>
        <time>2015-07-06T11:36:41+02:00</time>
      </trkpt>
      <trkpt lat="45.37913" lon="6.65456">
        <ele>2290</ele>
        <time>2015-07-06T11:36:58+02:00</time>
      </trkpt>
      <trkpt lat="45.37904" lon="6.65452">
        <ele>2293</ele>
        <time>2015-07-06T11:37:16+02:00</time>
      </trkpt>
      <trkpt lat="45.37894" lon="6.65447">
        <ele>2296</ele>
        <time>2015-07-06T11:37:33+02:00</time>
      </trkpt>
      <trkpt lat="45.37885" lon="6.65444">
        <ele>2297</ele>
        <time>2015-07-06T11:37:52+02:00</time>
      </trkpt>
      <trkpt lat="45.37878" lon="6.65441">
        <ele>2299</ele>
        <time>2015-07-06T11:38:07+02:00</time>
      </trkpt>
      <trkpt lat="45.37871" lon="6.65442">
        <ele>2300</ele>
        <time>2015-07-06T11:38:23+02:00</time>
      </trkpt>
      <trkpt lat="45.37861" lon="6.6544">
        <ele>2302</ele>
        <time>2015-07-06T11:38:39+02:00</time>
      </trkpt>
      <trkpt lat="45.37851" lon="6.65441">
        <ele>2304</ele>
        <time>2015-07-06T11:38:57+02:00</time>
      </trkpt>
      <trkpt lat="45.37847" lon="6.6544">
        <ele>2304</ele>
        <time>2015-07-06T11:52:35+02:00</time>
      </trkpt>
      <trkpt lat="45.37837" lon="6.65442">
        <ele>2306</ele>
        <time>2015-07-06T11:52:50+02:00</time>
      </trkpt>
      <trkpt lat="45.37835" lon="6.65442">
        <ele>2307</ele>
        <time>2015-07-06T11:52:52+02:00</time>
      </trkpt>
      <trkpt lat="45.37821" lon="6.65441">
        <ele>2310</ele>
        <time>2015-07-06T11:53:08+02:00</time>
      </trkpt>
      <trkpt lat="45.37809" lon="6.6544">
        <ele>2314</ele>
        <time>2015-07-06T11:53:23+02:00</time>
      </trkpt>
      <trkpt lat="45.37797" lon="6.65437">
        <ele>2317</ele>
        <time>2015-07-06T11:53:37+02:00</time>
      </trkpt>
      <trkpt lat="45.37784" lon="6.65438">
        <ele>2320</ele>
        <time>2015-07-06T11:53:53+02:00</time>
      </trkpt>
      <trkpt lat="45.37772" lon="6.65435">
        <ele>2323</ele>
        <time>2015-07-06T11:54:08+02:00</time>
      </trkpt>
      <trkpt lat="45.37762" lon="6.6543">
        <ele>2325</ele>
        <time>2015-07-06T11:54:22+02:00</time>
      </trkpt>
      <trkpt lat="45.37752" lon="6.65424">
        <ele>2326</ele>
        <time>2015-07-06T11:54:36+02:00</time>
      </trkpt>
      <trkpt lat="45.37743" lon="6.65418">
        <ele>2328</ele>
        <time>2015-07-06T11:54:52+02:00</time>
      </trkpt>
      <trkpt lat="45.37734" lon="6.65413">
        <ele>2331</ele>
        <time>2015-07-06T11:55:05+02:00</time>
      </trkpt>
      <trkpt lat="45.37725" lon="6.65412">
        <ele>2335</ele>
        <time>2015-07-06T11:55:19+02:00</time>
      </trkpt>
      <trkpt lat="45.37713" lon="6.65412">
        <ele>2339</ele>
        <time>2015-07-06T11:55:35+02:00</time>
      </trkpt>
      <trkpt lat="45.37703" lon="6.65409">
        <ele>2343</ele>
        <time>2015-07-06T11:55:51+02:00</time>
      </trkpt>
      <trkpt lat="45.37694" lon="6.654">
        <ele>2345</ele>
        <time>2015-07-06T11:56:07+02:00</time>
      </trkpt>
      <trkpt lat="45.3769" lon="6.65385">
        <ele>2345</ele>
        <time>2015-07-06T11:56:23+02:00</time>
      </trkpt>
      <trkpt lat="45.37691" lon="6.6537">
        <ele>2342</ele>
        <time>2015-07-06T11:56:39+02:00</time>
      </trkpt>
      <trkpt lat="45.37691" lon="6.65355">
        <ele>2340</ele>
        <time>2015-07-06T11:56:54+02:00</time>
      </trkpt>
      <trkpt lat="45.3769" lon="6.65342">
        <ele>2339</ele>
        <time>2015-07-06T11:57:09+02:00</time>
      </trkpt>
      <trkpt lat="45.37687" lon="6.65329">
        <ele>2338</ele>
        <time>2015-07-06T11:57:23+02:00</time>
      </trkpt>
      <trkpt lat="45.37681" lon="6.65317">
        <ele>2338</ele>
        <time>2015-07-06T11:57:38+02:00</time>
      </trkpt>
      <trkpt lat="45.37678" lon="6.65314">
        <ele>2339</ele>
        <time>2015-07-06T11:57:43+02:00</time>
      </trkpt>
      <trkpt lat="45.37675" lon="6.65311">
        <ele>2339</ele>
        <time>2015-07-06T11:57:48+02:00</time>
      </trkpt>
      <trkpt lat="45.37661" lon="6.65313">
        <ele>2342</ele>
        <time>2015-07-06T11:58:04+02:00</time>
      </trkpt>
      <trkpt lat="45.3765" lon="6.65319">
        <ele>2344</ele>
        <time>2015-07-06T11:58:21+02:00</time>
      </trkpt>
      <trkpt lat="45.37645" lon="6.65318">
        <ele>2345</ele>
        <time>2015-07-06T11:58:27+02:00</time>
      </trkpt>
      <trkpt lat="45.37633" lon="6.65316">
        <ele>2346</ele>
        <time>2015-07-06T11:58:44+02:00</time>
      </trkpt>
      <trkpt lat="45.37622" lon="6.65318">
        <ele>2348</ele>
        <time>2015-07-06T11:58:59+02:00</time>
      </trkpt>
      <trkpt lat="45.37612" lon="6.65324">
        <ele>2350</ele>
        <time>2015-07-06T11:59:14+02:00</time>
      </trkpt>
      <trkpt lat="45.376" lon="6.65326">
        <ele>2351</ele>
        <time>2015-07-06T11:59:29+02:00</time>
      </trkpt>
      <trkpt lat="45.37589" lon="6.65327">
        <ele>2353</ele>
        <time>2015-07-06T11:59:43+02:00</time>
      </trkpt>
      <trkpt lat="45.37575" lon="6.65325">
        <ele>2355</ele>
        <time>2015-07-06T11:59:59+02:00</time>
      </trkpt>
      <trkpt lat="45.37563" lon="6.6532">
        <ele>2357</ele>
        <time>2015-07-06T12:00:14+02:00</time>
      </trkpt>
      <trkpt lat="45.37549" lon="6.65313">
        <ele>2359</ele>
        <time>2015-07-06T12:00:30+02:00</time>
      </trkpt>
      <trkpt lat="45.37538" lon="6.65305">
        <ele>2360</ele>
        <time>2015-07-06T12:00:45+02:00</time>
      </trkpt>
      <trkpt lat="45.37529" lon="6.65295">
        <ele>2362</ele>
        <time>2015-07-06T12:01:00+02:00</time>
      </trkpt>
      <trkpt lat="45.37526" lon="6.65293">
        <ele>2363</ele>
        <time>2015-07-06T12:01:05+02:00</time>
      </trkpt>
      <trkpt lat="45.37515" lon="6.65295">
        <ele>2365</ele>
        <time>2015-07-06T12:01:21+02:00</time>
      </trkpt>
      <trkpt lat="45.37507" lon="6.65293">
        <ele>2367</ele>
        <time>2015-07-06T12:01:36+02:00</time>
      </trkpt>
      <trkpt lat="45.375" lon="6.65292">
        <ele>2368</ele>
        <time>2015-07-06T12:01:51+02:00</time>
      </trkpt>
      <trkpt lat="45.37492" lon="6.65289">
        <ele>2370</ele>
        <time>2015-07-06T12:02:06+02:00</time>
      </trkpt>
      <trkpt lat="45.3748" lon="6.6529">
        <ele>2372</ele>
        <time>2015-07-06T12:02:25+02:00</time>
      </trkpt>
      <trkpt lat="45.37471" lon="6.65291">
        <ele>2374</ele>
        <time>2015-07-06T12:02:44+02:00</time>
      </trkpt>
      <trkpt lat="45.37463" lon="6.65291">
        <ele>2376</ele>
        <time>2015-07-06T12:02:59+02:00</time>
      </trkpt>
      <trkpt lat="45.37456" lon="6.65293">
        <ele>2377</ele>
        <time>2015-07-06T12:03:16+02:00</time>
      </trkpt>
      <trkpt lat="45.3745" lon="6.65294">
        <ele>2379</ele>
        <time>2015-07-06T12:03:30+02:00</time>
      </trkpt>
      <trkpt lat="45.37442" lon="6.65293">
        <ele>2380</ele>
        <time>2015-07-06T12:03:50+02:00</time>
      </trkpt>
      <trkpt lat="45.37434" lon="6.65291">
        <ele>2382</ele>
        <time>2015-07-06T12:04:06+02:00</time>
      </trkpt>
      <trkpt lat="45.37422" lon="6.65285">
        <ele>2384</ele>
        <time>2015-07-06T12:04:23+02:00</time>
      </trkpt>
      <trkpt lat="45.37411" lon="6.65284">
        <ele>2386</ele>
        <time>2015-07-06T12:04:42+02:00</time>
      </trkpt>
      <trkpt lat="45.37408" lon="6.65282">
        <ele>2386</ele>
        <time>2015-07-06T12:04:47+02:00</time>
      </trkpt>
      <trkpt lat="45.37403" lon="6.65277">
        <ele>2386</ele>
        <time>2015-07-06T12:05:04+02:00</time>
      </trkpt>
      <trkpt lat="45.37396" lon="6.65277">
        <ele>2387</ele>
        <time>2015-07-06T12:05:20+02:00</time>
      </trkpt>
      <trkpt lat="45.37395" lon="6.65277">
        <ele>2387</ele>
        <time>2015-07-06T12:09:40+02:00</time>
      </trkpt>
      <trkpt lat="45.37393" lon="6.65279">
        <ele>2388</ele>
        <time>2015-07-06T12:10:26+02:00</time>
      </trkpt>
      <trkpt lat="45.3739" lon="6.65285">
        <ele>2388</ele>
        <time>2015-07-06T12:16:45+02:00</time>
      </trkpt>
      <trkpt lat="45.37384" lon="6.65295">
        <ele>2389</ele>
        <time>2015-07-06T12:17:00+02:00</time>
      </trkpt>
      <trkpt lat="45.37375" lon="6.65306">
        <ele>2390</ele>
        <time>2015-07-06T12:17:16+02:00</time>
      </trkpt>
      <trkpt lat="45.37366" lon="6.65314">
        <ele>2391</ele>
        <time>2015-07-06T12:17:31+02:00</time>
      </trkpt>
      <trkpt lat="45.37357" lon="6.65319">
        <ele>2391</ele>
        <time>2015-07-06T12:17:45+02:00</time>
      </trkpt>
      <trkpt lat="45.37348" lon="6.65322">
        <ele>2392</ele>
        <time>2015-07-06T12:18:01+02:00</time>
      </trkpt>
      <trkpt lat="45.37338" lon="6.6532">
        <ele>2392</ele>
        <time>2015-07-06T12:18:17+02:00</time>
      </trkpt>
      <trkpt lat="45.37327" lon="6.65315">
        <ele>2393</ele>
        <time>2015-07-06T12:18:32+02:00</time>
      </trkpt>
      <trkpt lat="45.37321" lon="6.65312">
        <ele>2393</ele>
        <time>2015-07-06T12:18:45+02:00</time>
      </trkpt>
      <trkpt lat="45.3731" lon="6.65305">
        <ele>2393</ele>
        <time>2015-07-06T12:18:58+02:00</time>
      </trkpt>
      <trkpt lat="45.37296" lon="6.65299">
        <ele>2394</ele>
        <time>2015-07-06T12:19:15+02:00</time>
      </trkpt>
      <trkpt lat="45.37286" lon="6.65295">
        <ele>2395</ele>
        <time>2015-07-06T12:19:29+02:00</time>
      </trkpt>
      <trkpt lat="45.37271" lon="6.65287">
        <ele>2398</ele>
        <time>2015-07-06T12:19:45+02:00</time>
      </trkpt>
      <trkpt lat="45.37265" lon="6.65291">
        <ele>2397</ele>
        <time>2015-07-06T12:19:53+02:00</time>
      </trkpt>
      <trkpt lat="45.3725" lon="6.65281">
        <ele>2401</ele>
        <time>2015-07-06T12:20:10+02:00</time>
      </trkpt>
      <trkpt lat="45.37239" lon="6.65279">
        <ele>2402</ele>
        <time>2015-07-06T12:20:21+02:00</time>
      </trkpt>
      <trkpt lat="45.37225" lon="6.65267">
        <ele>2407</ele>
        <time>2015-07-06T12:20:38+02:00</time>
      </trkpt>
      <trkpt lat="45.37215" lon="6.65258">
        <ele>2411</ele>
        <time>2015-07-06T12:20:52+02:00</time>
      </trkpt>
      <trkpt lat="45.37213" lon="6.65255">
        <ele>2412</ele>
        <time>2015-07-06T12:20:55+02:00</time>
      </trkpt>
      <trkpt lat="45.372" lon="6.65245">
        <ele>2414</ele>
        <time>2015-07-06T12:21:11+02:00</time>
      </trkpt>
      <trkpt lat="45.37186" lon="6.65237">
        <ele>2415</ele>
        <time>2015-07-06T12:21:28+02:00</time>
      </trkpt>
      <trkpt lat="45.37174" lon="6.65229">
        <ele>2415</ele>
        <time>2015-07-06T12:21:44+02:00</time>
      </trkpt>
      <trkpt lat="45.37164" lon="6.65221">
        <ele>2415</ele>
        <time>2015-07-06T12:21:57+02:00</time>
      </trkpt>
      <trkpt lat="45.37152" lon="6.65215">
        <ele>2415</ele>
        <time>2015-07-06T12:22:13+02:00</time>
      </trkpt>
      <trkpt lat="45.37141" lon="6.65211">
        <ele>2415</ele>
        <time>2015-07-06T12:22:28+02:00</time>
      </trkpt>
      <trkpt lat="45.37141" lon="6.65212">
        <ele>2415</ele>
        <time>2015-07-06T12:22:49+02:00</time>
      </trkpt>
      <trkpt lat="45.37138" lon="6.65212">
        <ele>2415</ele>
        <time>2015-07-06T12:22:58+02:00</time>
      </trkpt>
      <trkpt lat="45.37122" lon="6.65214">
        <ele>2415</ele>
        <time>2015-07-06T12:23:16+02:00</time>
      </trkpt>
      <trkpt lat="45.37118" lon="6.65215">
        <ele>2415</ele>
        <time>2015-07-06T12:23:19+02:00</time>
      </trkpt>
      <trkpt lat="45.37113" lon="6.65215">
        <ele>2415</ele>
        <time>2015-07-06T12:23:24+02:00</time>
      </trkpt>
      <trkpt lat="45.37098" lon="6.65213">
        <ele>2416</ele>
        <time>2015-07-06T12:23:41+02:00</time>
      </trkpt>
      <trkpt lat="45.37095" lon="6.65213">
        <ele>2416</ele>
        <time>2015-07-06T12:23:44+02:00</time>
      </trkpt>
      <trkpt lat="45.37074" lon="6.65209">
        <ele>2418</ele>
        <time>2015-07-06T12:24:04+02:00</time>
      </trkpt>
      <trkpt lat="45.37057" lon="6.65209">
        <ele>2422</ele>
        <time>2015-07-06T12:24:21+02:00</time>
      </trkpt>
      <trkpt lat="45.37054" lon="6.65211">
        <ele>2422</ele>
        <time>2015-07-06T12:24:24+02:00</time>
      </trkpt>
      <trkpt lat="45.37047" lon="6.65213">
        <ele>2423</ele>
        <time>2015-07-06T12:24:32+02:00</time>
      </trkpt>
      <trkpt lat="45.37037" lon="6.65212">
        <ele>2425</ele>
        <time>2015-07-06T12:24:48+02:00</time>
      </trkpt>
      <trkpt lat="45.37038" lon="6.65213">
        <ele>2424</ele>
        <time>2015-07-06T12:25:10+02:00</time>
      </trkpt>
      <trkpt lat="45.37038" lon="6.65213">
        <ele>2425</ele>
        <time>2015-07-06T12:25:31+02:00</time>
      </trkpt>
      <trkpt lat="45.37037" lon="6.65213">
        <ele>2425</ele>
        <time>2015-07-06T12:25:52+02:00</time>
      </trkpt>
      <trkpt lat="45.37036" lon="6.65214">
        <ele>2425</ele>
        <time>2015-07-06T12:26:10+02:00</time>
      </trkpt>
      <trkpt lat="45.37037" lon="6.65213">
        <ele>2425</ele>
        <time>2015-07-06T12:27:44+02:00</time>
      </trkpt>
      <trkpt lat="45.37037" lon="6.65213">
        <ele>2425</ele>
        <time>2015-07-06T12:27:58+02:00</time>
      </trkpt>
      <trkpt lat="45.37034" lon="6.65212">
        <ele>2425</ele>
        <time>2015-07-06T12:28:38+02:00</time>
      </trkpt>
      <trkpt lat="45.3703" lon="6.65213">
        <ele>2426</ele>
        <time>2015-07-06T12:28:53+02:00</time>
      </trkpt>
      <trkpt lat="45.37017" lon="6.65215">
        <ele>2428</ele>
        <time>2015-07-06T12:29:10+02:00</time>
      </trkpt>
      <trkpt lat="45.37003" lon="6.65219">
        <ele>2429</ele>
        <time>2015-07-06T12:29:26+02:00</time>
      </trkpt>
      <trkpt lat="45.36987" lon="6.65225">
        <ele>2430</ele>
        <time>2015-07-06T12:29:43+02:00</time>
      </trkpt>
      <trkpt lat="45.36971" lon="6.65233">
        <ele>2431</ele>
        <time>2015-07-06T12:30:00+02:00</time>
      </trkpt>
      <trkpt lat="45.36956" lon="6.65245">
        <ele>2431</ele>
        <time>2015-07-06T12:30:17+02:00</time>
      </trkpt>
      <trkpt lat="45.3694" lon="6.65254">
        <ele>2433</ele>
        <time>2015-07-06T12:30:34+02:00</time>
      </trkpt>
      <trkpt lat="45.36922" lon="6.65269">
        <ele>2436</ele>
        <time>2015-07-06T12:30:54+02:00</time>
      </trkpt>
      <trkpt lat="45.3691" lon="6.65271">
        <ele>2438</ele>
        <time>2015-07-06T12:31:07+02:00</time>
      </trkpt>
      <trkpt lat="45.36896" lon="6.65275">
        <ele>2439</ele>
        <time>2015-07-06T12:31:25+02:00</time>
      </trkpt>
      <trkpt lat="45.36891" lon="6.65277">
        <ele>2440</ele>
        <time>2015-07-06T12:31:37+02:00</time>
      </trkpt>
      <trkpt lat="45.3689" lon="6.65287">
        <ele>2438</ele>
        <time>2015-07-06T12:31:47+02:00</time>
      </trkpt>
      <trkpt lat="45.36883" lon="6.65301">
        <ele>2436</ele>
        <time>2015-07-06T12:32:02+02:00</time>
      </trkpt>
      <trkpt lat="45.3688" lon="6.65303">
        <ele>2436</ele>
        <time>2015-07-06T12:32:06+02:00</time>
      </trkpt>
      <trkpt lat="45.36869" lon="6.65314">
        <ele>2436</ele>
        <time>2015-07-06T12:32:22+02:00</time>
      </trkpt>
      <trkpt lat="45.36859" lon="6.65324">
        <ele>2434</ele>
        <time>2015-07-06T12:32:38+02:00</time>
      </trkpt>
      <trkpt lat="45.36856" lon="6.65328">
        <ele>2434</ele>
        <time>2015-07-06T12:32:43+02:00</time>
      </trkpt>
      <trkpt lat="45.36848" lon="6.65338">
        <ele>2432</ele>
        <time>2015-07-06T12:32:56+02:00</time>
      </trkpt>
      <trkpt lat="45.36843" lon="6.65349">
        <ele>2427</ele>
        <time>2015-07-06T12:33:09+02:00</time>
      </trkpt>
      <trkpt lat="45.36821" lon="6.65325">
        <ele>2435</ele>
        <time>2015-07-06T12:34:29+02:00</time>
      </trkpt>
      <trkpt lat="45.3682" lon="6.65319">
        <ele>2436</ele>
        <time>2015-07-06T12:34:38+02:00</time>
      </trkpt>
      <trkpt lat="45.36805" lon="6.65302">
        <ele>2440</ele>
        <time>2015-07-06T12:34:58+02:00</time>
      </trkpt>
      <trkpt lat="45.36788" lon="6.65286">
        <ele>2445</ele>
        <time>2015-07-06T12:35:17+02:00</time>
      </trkpt>
      <trkpt lat="45.36771" lon="6.65273">
        <ele>2449</ele>
        <time>2015-07-06T12:35:34+02:00</time>
      </trkpt>
      <trkpt lat="45.36748" lon="6.65269">
        <ele>2452</ele>
        <time>2015-07-06T12:35:54+02:00</time>
      </trkpt>
      <trkpt lat="45.36747" lon="6.6527">
        <ele>2452</ele>
        <time>2015-07-06T12:35:55+02:00</time>
      </trkpt>
      <trkpt lat="45.36727" lon="6.65271">
        <ele>2457</ele>
        <time>2015-07-06T12:36:14+02:00</time>
      </trkpt>
      <trkpt lat="45.36705" lon="6.65271">
        <ele>2463</ele>
        <time>2015-07-06T12:36:35+02:00</time>
      </trkpt>
      <trkpt lat="45.36689" lon="6.65279">
        <ele>2465</ele>
        <time>2015-07-06T12:36:52+02:00</time>
      </trkpt>
      <trkpt lat="45.3668" lon="6.65276">
        <ele>2469</ele>
        <time>2015-07-06T12:37:01+02:00</time>
      </trkpt>
      <trkpt lat="45.3667" lon="6.65286">
        <ele>2469</ele>
        <time>2015-07-06T12:37:15+02:00</time>
      </trkpt>
      <trkpt lat="45.36656" lon="6.65294">
        <ele>2474</ele>
        <time>2015-07-06T12:37:30+02:00</time>
      </trkpt>
      <trkpt lat="45.3664" lon="6.65303">
        <ele>2481</ele>
        <time>2015-07-06T12:37:50+02:00</time>
      </trkpt>
      <trkpt lat="45.36636" lon="6.65317">
        <ele>2479</ele>
        <time>2015-07-06T12:38:05+02:00</time>
      </trkpt>
      <trkpt lat="45.36632" lon="6.65335">
        <ele>2477</ele>
        <time>2015-07-06T12:38:20+02:00</time>
      </trkpt>
      <trkpt lat="45.36619" lon="6.65349">
        <ele>2479</ele>
        <time>2015-07-06T12:38:37+02:00</time>
      </trkpt>
      <trkpt lat="45.36614" lon="6.6535">
        <ele>2481</ele>
        <time>2015-07-06T12:38:44+02:00</time>
      </trkpt>
      <trkpt lat="45.36605" lon="6.65357">
        <ele>2484</ele>
        <time>2015-07-06T12:38:58+02:00</time>
      </trkpt>
      <trkpt lat="45.36597" lon="6.65366">
        <ele>2484</ele>
        <time>2015-07-06T12:39:11+02:00</time>
      </trkpt>
      <trkpt lat="45.36588" lon="6.65374">
        <ele>2486</ele>
        <time>2015-07-06T12:39:25+02:00</time>
      </trkpt>
      <trkpt lat="45.36579" lon="6.65381">
        <ele>2486</ele>
        <time>2015-07-06T12:39:41+02:00</time>
      </trkpt>
      <trkpt lat="45.3657" lon="6.65389">
        <ele>2486</ele>
        <time>2015-07-06T12:39:55+02:00</time>
      </trkpt>
      <trkpt lat="45.36561" lon="6.65399">
        <ele>2484</ele>
        <time>2015-07-06T12:40:09+02:00</time>
      </trkpt>
      <trkpt lat="45.3655" lon="6.65409">
        <ele>2484</ele>
        <time>2015-07-06T12:40:24+02:00</time>
      </trkpt>
      <trkpt lat="45.36543" lon="6.65417">
        <ele>2483</ele>
        <time>2015-07-06T12:40:38+02:00</time>
      </trkpt>
      <trkpt lat="45.36536" lon="6.65429">
        <ele>2481</ele>
        <time>2015-07-06T12:40:53+02:00</time>
      </trkpt>
      <trkpt lat="45.36528" lon="6.65437">
        <ele>2482</ele>
        <time>2015-07-06T12:41:09+02:00</time>
      </trkpt>
      <trkpt lat="45.36518" lon="6.65445">
        <ele>2482</ele>
        <time>2015-07-06T12:41:25+02:00</time>
      </trkpt>
      <trkpt lat="45.36508" lon="6.65457">
        <ele>2481</ele>
        <time>2015-07-06T12:41:40+02:00</time>
      </trkpt>
      <trkpt lat="45.36505" lon="6.65461">
        <ele>2481</ele>
        <time>2015-07-06T12:41:45+02:00</time>
      </trkpt>
      <trkpt lat="45.36489" lon="6.65459">
        <ele>2481</ele>
        <time>2015-07-06T12:42:02+02:00</time>
      </trkpt>
      <trkpt lat="45.36476" lon="6.65457">
        <ele>2479</ele>
        <time>2015-07-06T12:42:17+02:00</time>
      </trkpt>
      <trkpt lat="45.3646" lon="6.65447">
        <ele>2479</ele>
        <time>2015-07-06T12:42:33+02:00</time>
      </trkpt>
      <trkpt lat="45.36454" lon="6.65441">
        <ele>2480</ele>
        <time>2015-07-06T12:42:50+02:00</time>
      </trkpt>
      <trkpt lat="45.3645" lon="6.65434">
        <ele>2481</ele>
        <time>2015-07-06T12:43:37+02:00</time>
      </trkpt>
      <trkpt lat="45.36436" lon="6.65419">
        <ele>2484</ele>
        <time>2015-07-06T12:43:54+02:00</time>
      </trkpt>
      <trkpt lat="45.36419" lon="6.65403">
        <ele>2483</ele>
        <time>2015-07-06T12:44:12+02:00</time>
      </trkpt>
      <trkpt lat="45.36404" lon="6.65387">
        <ele>2480</ele>
        <time>2015-07-06T12:44:29+02:00</time>
      </trkpt>
      <trkpt lat="45.36392" lon="6.65368">
        <ele>2479</ele>
        <time>2015-07-06T12:44:46+02:00</time>
      </trkpt>
      <trkpt lat="45.36383" lon="6.65355">
        <ele>2479</ele>
        <time>2015-07-06T12:45:02+02:00</time>
      </trkpt>
      <trkpt lat="45.36372" lon="6.65344">
        <ele>2478</ele>
        <time>2015-07-06T12:45:19+02:00</time>
      </trkpt>
      <trkpt lat="45.36368" lon="6.65339">
        <ele>2478</ele>
        <time>2015-07-06T12:45:34+02:00</time>
      </trkpt>
      <trkpt lat="45.36369" lon="6.6534">
        <ele>2478</ele>
        <time>2015-07-06T12:46:03+02:00</time>
      </trkpt>
      <trkpt lat="45.36367" lon="6.65339">
        <ele>2477</ele>
        <time>2015-07-06T12:46:47+02:00</time>
      </trkpt>
      <trkpt lat="45.36367" lon="6.65339">
        <ele>2477</ele>
        <time>2015-07-06T12:49:04+02:00</time>
      </trkpt>
      <trkpt lat="45.36367" lon="6.65339">
        <ele>2477</ele>
        <time>2015-07-06T12:49:37+02:00</time>
      </trkpt>
      <trkpt lat="45.36367" lon="6.65339">
        <ele>2477</ele>
        <time>2015-07-06T12:49:57+02:00</time>
      </trkpt>
      <trkpt lat="45.36366" lon="6.65324">
        <ele>2478</ele>
        <time>2015-07-06T12:50:16+02:00</time>
      </trkpt>
      <trkpt lat="45.36361" lon="6.65309">
        <ele>2477</ele>
        <time>2015-07-06T12:50:32+02:00</time>
      </trkpt>
      <trkpt lat="45.36354" lon="6.65295">
        <ele>2475</ele>
        <time>2015-07-06T12:50:46+02:00</time>
      </trkpt>
      <trkpt lat="45.36343" lon="6.65292">
        <ele>2472</ele>
        <time>2015-07-06T12:51:02+02:00</time>
      </trkpt>
      <trkpt lat="45.36335" lon="6.65285">
        <ele>2469</ele>
        <time>2015-07-06T12:51:14+02:00</time>
      </trkpt>
      <trkpt lat="45.36325" lon="6.65274">
        <ele>2466</ele>
        <time>2015-07-06T12:51:30+02:00</time>
      </trkpt>
      <trkpt lat="45.36312" lon="6.65264">
        <ele>2463</ele>
        <time>2015-07-06T12:51:48+02:00</time>
      </trkpt>
      <trkpt lat="45.36302" lon="6.65259">
        <ele>2461</ele>
        <time>2015-07-06T12:52:02+02:00</time>
      </trkpt>
      <trkpt lat="45.36293" lon="6.65251">
        <ele>2458</ele>
        <time>2015-07-06T12:52:15+02:00</time>
      </trkpt>
      <trkpt lat="45.36281" lon="6.65244">
        <ele>2457</ele>
        <time>2015-07-06T12:52:31+02:00</time>
      </trkpt>
      <trkpt lat="45.36268" lon="6.65234">
        <ele>2455</ele>
        <time>2015-07-06T12:52:46+02:00</time>
      </trkpt>
      <trkpt lat="45.36264" lon="6.65231">
        <ele>2454</ele>
        <time>2015-07-06T12:52:51+02:00</time>
      </trkpt>
      <trkpt lat="45.36252" lon="6.65224">
        <ele>2451</ele>
        <time>2015-07-06T12:53:07+02:00</time>
      </trkpt>
      <trkpt lat="45.36242" lon="6.65215">
        <ele>2449</ele>
        <time>2015-07-06T12:53:22+02:00</time>
      </trkpt>
      <trkpt lat="45.36235" lon="6.65211">
        <ele>2448</ele>
        <time>2015-07-06T12:53:31+02:00</time>
      </trkpt>
      <trkpt lat="45.36228" lon="6.65205">
        <ele>2446</ele>
        <time>2015-07-06T12:53:43+02:00</time>
      </trkpt>
      <trkpt lat="45.36216" lon="6.65193">
        <ele>2442</ele>
        <time>2015-07-06T12:54:00+02:00</time>
      </trkpt>
      <trkpt lat="45.36205" lon="6.65184">
        <ele>2438</ele>
        <time>2015-07-06T12:54:15+02:00</time>
      </trkpt>
      <trkpt lat="45.36193" lon="6.65169">
        <ele>2433</ele>
        <time>2015-07-06T12:54:32+02:00</time>
      </trkpt>
      <trkpt lat="45.36185" lon="6.65152">
        <ele>2431</ele>
        <time>2015-07-06T12:54:48+02:00</time>
      </trkpt>
      <trkpt lat="45.36183" lon="6.65146">
        <ele>2431</ele>
        <time>2015-07-06T12:55:01+02:00</time>
      </trkpt>
      <trkpt lat="45.36183" lon="6.65147">
        <ele>2431</ele>
        <time>2015-07-06T12:55:23+02:00</time>
      </trkpt>
      <trkpt lat="45.36183" lon="6.65146">
        <ele>2431</ele>
        <time>2015-07-06T12:55:48+02:00</time>
      </trkpt>
      <trkpt lat="45.36181" lon="6.65155">
        <ele>2430</ele>
        <time>2015-07-06T12:56:03+02:00</time>
      </trkpt>
      <trkpt lat="45.36175" lon="6.65167">
        <ele>2428</ele>
        <time>2015-07-06T12:56:21+02:00</time>
      </trkpt>
      <trkpt lat="45.36173" lon="6.65155">
        <ele>2427</ele>
        <time>2015-07-06T12:56:31+02:00</time>
      </trkpt>
      <trkpt lat="45.36166" lon="6.65144">
        <ele>2425</ele>
        <time>2015-07-06T12:56:48+02:00</time>
      </trkpt>
      <trkpt lat="45.36165" lon="6.65147">
        <ele>2425</ele>
        <time>2015-07-06T12:56:51+02:00</time>
      </trkpt>
      <trkpt lat="45.36156" lon="6.6516">
        <ele>2423</ele>
        <time>2015-07-06T12:57:03+02:00</time>
      </trkpt>
      <trkpt lat="45.36145" lon="6.65168">
        <ele>2422</ele>
        <time>2015-07-06T12:57:17+02:00</time>
      </trkpt>
      <trkpt lat="45.36141" lon="6.65168">
        <ele>2422</ele>
        <time>2015-07-06T12:57:22+02:00</time>
      </trkpt>
      <trkpt lat="45.36134" lon="6.65164">
        <ele>2420</ele>
        <time>2015-07-06T12:57:30+02:00</time>
      </trkpt>
      <trkpt lat="45.36119" lon="6.65163">
        <ele>2418</ele>
        <time>2015-07-06T12:57:46+02:00</time>
      </trkpt>
      <trkpt lat="45.36102" lon="6.6516">
        <ele>2416</ele>
        <time>2015-07-06T12:58:04+02:00</time>
      </trkpt>
      <trkpt lat="45.36096" lon="6.65161">
        <ele>2415</ele>
        <time>2015-07-06T12:58:20+02:00</time>
      </trkpt>
      <trkpt lat="45.36092" lon="6.65158">
        <ele>2414</ele>
        <time>2015-07-06T13:03:56+02:00</time>
      </trkpt>
      <trkpt lat="45.36094" lon="6.65147">
        <ele>2414</ele>
        <time>2015-07-06T13:06:29+02:00</time>
      </trkpt>
      <trkpt lat="45.36068" lon="6.6512">
        <ele>2409</ele>
        <time>2015-07-06T13:09:40+02:00</time>
      </trkpt>
      <trkpt lat="45.36065" lon="6.65117">
        <ele>2408</ele>
        <time>2015-07-06T13:09:53+02:00</time>
      </trkpt>
      <trkpt lat="45.36063" lon="6.65113">
        <ele>2408</ele>
        <time>2015-07-06T13:09:59+02:00</time>
      </trkpt>
      <trkpt lat="45.36058" lon="6.65107">
        <ele>2407</ele>
        <time>2015-07-06T13:10:12+02:00</time>
      </trkpt>
      <trkpt lat="45.36054" lon="6.65102">
        <ele>2407</ele>
        <time>2015-07-06T13:10:23+02:00</time>
      </trkpt>
      <trkpt lat="45.36047" lon="6.65097">
        <ele>2406</ele>
        <time>2015-07-06T13:10:37+02:00</time>
      </trkpt>
      <trkpt lat="45.36041" lon="6.65088">
        <ele>2405</ele>
        <time>2015-07-06T13:10:51+02:00</time>
      </trkpt>
      <trkpt lat="45.36038" lon="6.65083">
        <ele>2404</ele>
        <time>2015-07-06T13:12:49+02:00</time>
      </trkpt>
      <trkpt lat="45.36029" lon="6.65081">
        <ele>2403</ele>
        <time>2015-07-06T13:13:18+02:00</time>
      </trkpt>
      <trkpt lat="45.36024" lon="6.65083">
        <ele>2403</ele>
        <time>2015-07-06T13:13:34+02:00</time>
      </trkpt>
      <trkpt lat="45.3602" lon="6.65086">
        <ele>2402</ele>
        <time>2015-07-06T13:13:44+02:00</time>
      </trkpt>
      <trkpt lat="45.36015" lon="6.65088">
        <ele>2402</ele>
        <time>2015-07-06T13:13:56+02:00</time>
      </trkpt>
      <trkpt lat="45.36003" lon="6.65095">
        <ele>2401</ele>
        <time>2015-07-06T13:14:11+02:00</time>
      </trkpt>
      <trkpt lat="45.35991" lon="6.65107">
        <ele>2401</ele>
        <time>2015-07-06T13:14:28+02:00</time>
      </trkpt>
      <trkpt lat="45.35982" lon="6.65113">
        <ele>2401</ele>
        <time>2015-07-06T13:14:42+02:00</time>
      </trkpt>
      <trkpt lat="45.35972" lon="6.65109">
        <ele>2401</ele>
        <time>2015-07-06T13:14:57+02:00</time>
      </trkpt>
      <trkpt lat="45.35965" lon="6.65109">
        <ele>2401</ele>
        <time>2015-07-06T13:15:11+02:00</time>
      </trkpt>
      <trkpt lat="45.35962" lon="6.65108">
        <ele>2401</ele>
        <time>2015-07-06T13:15:16+02:00</time>
      </trkpt>
      <trkpt lat="45.3595" lon="6.65094">
        <ele>2400</ele>
        <time>2015-07-06T13:15:32+02:00</time>
      </trkpt>
      <trkpt lat="45.35946" lon="6.65085">
        <ele>2400</ele>
        <time>2015-07-06T13:15:43+02:00</time>
      </trkpt>
      <trkpt lat="45.35942" lon="6.65076">
        <ele>2400</ele>
        <time>2015-07-06T13:15:52+02:00</time>
      </trkpt>
      <trkpt lat="45.35941" lon="6.65072">
        <ele>2400</ele>
        <time>2015-07-06T13:15:56+02:00</time>
      </trkpt>
      <trkpt lat="45.35931" lon="6.65052">
        <ele>2400</ele>
        <time>2015-07-06T13:16:14+02:00</time>
      </trkpt>
      <trkpt lat="45.35928" lon="6.65045">
        <ele>2400</ele>
        <time>2015-07-06T13:16:20+02:00</time>
      </trkpt>
      <trkpt lat="45.35927" lon="6.65041">
        <ele>2400</ele>
        <time>2015-07-06T13:16:23+02:00</time>
      </trkpt>
      <trkpt lat="45.35919" lon="6.65021">
        <ele>2400</ele>
        <time>2015-07-06T13:16:40+02:00</time>
      </trkpt>
      <trkpt lat="45.35914" lon="6.6501">
        <ele>2400</ele>
        <time>2015-07-06T13:16:50+02:00</time>
      </trkpt>
      <trkpt lat="45.35913" lon="6.65006">
        <ele>2400</ele>
        <time>2015-07-06T13:16:53+02:00</time>
      </trkpt>
      <trkpt lat="45.3591" lon="6.64998">
        <ele>2400</ele>
        <time>2015-07-06T13:16:59+02:00</time>
      </trkpt>
      <trkpt lat="45.35905" lon="6.64988">
        <ele>2400</ele>
        <time>2015-07-06T13:17:09+02:00</time>
      </trkpt>
      <trkpt lat="45.35904" lon="6.64964">
        <ele>2400</ele>
        <time>2015-07-06T13:17:28+02:00</time>
      </trkpt>
      <trkpt lat="45.35906" lon="6.64947">
        <ele>2400</ele>
        <time>2015-07-06T13:17:43+02:00</time>
      </trkpt>
      <trkpt lat="45.35901" lon="6.6493">
        <ele>2400</ele>
        <time>2015-07-06T13:17:58+02:00</time>
      </trkpt>
      <trkpt lat="45.35893" lon="6.64913">
        <ele>2400</ele>
        <time>2015-07-06T13:18:15+02:00</time>
      </trkpt>
      <trkpt lat="45.35892" lon="6.64906">
        <ele>2400</ele>
        <time>2015-07-06T13:18:29+02:00</time>
      </trkpt>
      <trkpt lat="45.35891" lon="6.64906">
        <ele>2400</ele>
        <time>2015-07-06T13:18:46+02:00</time>
      </trkpt>
      <trkpt lat="45.3589" lon="6.649">
        <ele>2401</ele>
        <time>2015-07-06T13:19:07+02:00</time>
      </trkpt>
      <trkpt lat="45.3589" lon="6.64881">
        <ele>2401</ele>
        <time>2015-07-06T13:19:22+02:00</time>
      </trkpt>
      <trkpt lat="45.35888" lon="6.6486">
        <ele>2402</ele>
        <time>2015-07-06T13:19:36+02:00</time>
      </trkpt>
      <trkpt lat="45.35885" lon="6.64841">
        <ele>2403</ele>
        <time>2015-07-06T13:19:51+02:00</time>
      </trkpt>
      <trkpt lat="45.35877" lon="6.64814">
        <ele>2404</ele>
        <time>2015-07-06T13:20:11+02:00</time>
      </trkpt>
      <trkpt lat="45.35871" lon="6.6479">
        <ele>2404</ele>
        <time>2015-07-06T13:20:29+02:00</time>
      </trkpt>
      <trkpt lat="45.35866" lon="6.64766">
        <ele>2405</ele>
        <time>2015-07-06T13:20:46+02:00</time>
      </trkpt>
      <trkpt lat="45.35865" lon="6.64762">
        <ele>2405</ele>
        <time>2015-07-06T13:20:48+02:00</time>
      </trkpt>
      <trkpt lat="45.3586" lon="6.64739">
        <ele>2405</ele>
        <time>2015-07-06T13:21:06+02:00</time>
      </trkpt>
      <trkpt lat="45.3586" lon="6.64738">
        <ele>2405</ele>
        <time>2015-07-06T13:21:07+02:00</time>
      </trkpt>
      <trkpt lat="45.35855" lon="6.64723">
        <ele>2405</ele>
        <time>2015-07-06T13:21:22+02:00</time>
      </trkpt>
      <trkpt lat="45.3585" lon="6.64709">
        <ele>2405</ele>
        <time>2015-07-06T13:21:36+02:00</time>
      </trkpt>
      <trkpt lat="45.35846" lon="6.64701">
        <ele>2404</ele>
        <time>2015-07-06T13:21:50+02:00</time>
      </trkpt>
      <trkpt lat="45.35841" lon="6.64693">
        <ele>2402</ele>
        <time>2015-07-06T13:22:08+02:00</time>
      </trkpt>
      <trkpt lat="45.35839" lon="6.64686">
        <ele>2402</ele>
        <time>2015-07-06T13:22:14+02:00</time>
      </trkpt>
      <trkpt lat="45.35834" lon="6.64665">
        <ele>2400</ele>
        <time>2015-07-06T13:22:32+02:00</time>
      </trkpt>
      <trkpt lat="45.35833" lon="6.64651">
        <ele>2400</ele>
        <time>2015-07-06T13:22:47+02:00</time>
      </trkpt>
      <trkpt lat="45.35835" lon="6.64641">
        <ele>2401</ele>
        <time>2015-07-06T13:23:03+02:00</time>
      </trkpt>
      <trkpt lat="45.35838" lon="6.64627">
        <ele>2403</ele>
        <time>2015-07-06T13:23:20+02:00</time>
      </trkpt>
      <trkpt lat="45.3584" lon="6.64613">
        <ele>2404</ele>
        <time>2015-07-06T13:23:36+02:00</time>
      </trkpt>
      <trkpt lat="45.35839" lon="6.64611">
        <ele>2404</ele>
        <time>2015-07-06T13:23:37+02:00</time>
      </trkpt>
      <trkpt lat="45.35843" lon="6.64592">
        <ele>2406</ele>
        <time>2015-07-06T13:23:55+02:00</time>
      </trkpt>
      <trkpt lat="45.35844" lon="6.64581">
        <ele>2406</ele>
        <time>2015-07-06T13:24:09+02:00</time>
      </trkpt>
      <trkpt lat="45.35846" lon="6.64568">
        <ele>2407</ele>
        <time>2015-07-06T13:24:23+02:00</time>
      </trkpt>
      <trkpt lat="45.35849" lon="6.64552">
        <ele>2409</ele>
        <time>2015-07-06T13:24:40+02:00</time>
      </trkpt>
      <trkpt lat="45.35849" lon="6.64542">
        <ele>2409</ele>
        <time>2015-07-06T13:24:57+02:00</time>
      </trkpt>
      <trkpt lat="45.35851" lon="6.64535">
        <ele>2410</ele>
        <time>2015-07-06T13:25:12+02:00</time>
      </trkpt>
      <trkpt lat="45.35853" lon="6.64528">
        <ele>2410</ele>
        <time>2015-07-06T13:25:27+02:00</time>
      </trkpt>
      <trkpt lat="45.35858" lon="6.64517">
        <ele>2412</ele>
        <time>2015-07-06T13:25:43+02:00</time>
      </trkpt>
      <trkpt lat="45.35866" lon="6.64505">
        <ele>2414</ele>
        <time>2015-07-06T13:25:59+02:00</time>
      </trkpt>
      <trkpt lat="45.35874" lon="6.64494">
        <ele>2416</ele>
        <time>2015-07-06T13:26:15+02:00</time>
      </trkpt>
      <trkpt lat="45.3588" lon="6.64479">
        <ele>2418</ele>
        <time>2015-07-06T13:26:31+02:00</time>
      </trkpt>
      <trkpt lat="45.35887" lon="6.64465">
        <ele>2419</ele>
        <time>2015-07-06T13:26:47+02:00</time>
      </trkpt>
      <trkpt lat="45.35891" lon="6.64458">
        <ele>2420</ele>
        <time>2015-07-06T13:27:03+02:00</time>
      </trkpt>
      <trkpt lat="45.35893" lon="6.64459">
        <ele>2420</ele>
        <time>2015-07-06T13:27:24+02:00</time>
      </trkpt>
      <trkpt lat="45.35892" lon="6.64459">
        <ele>2420</ele>
        <time>2015-07-06T13:27:42+02:00</time>
      </trkpt>
      <trkpt lat="45.35892" lon="6.64459">
        <ele>2420</ele>
        <time>2015-07-06T13:28:14+02:00</time>
      </trkpt>
      <trkpt lat="45.35894" lon="6.64452">
        <ele>2420</ele>
        <time>2015-07-06T13:28:41+02:00</time>
      </trkpt>
      <trkpt lat="45.35899" lon="6.64437">
        <ele>2421</ele>
        <time>2015-07-06T13:28:57+02:00</time>
      </trkpt>
      <trkpt lat="45.35906" lon="6.64425">
        <ele>2422</ele>
        <time>2015-07-06T13:29:12+02:00</time>
      </trkpt>
      <trkpt lat="45.35906" lon="6.64423">
        <ele>2422</ele>
        <time>2015-07-06T13:29:14+02:00</time>
      </trkpt>
      <trkpt lat="45.35911" lon="6.64408">
        <ele>2423</ele>
        <time>2015-07-06T13:29:30+02:00</time>
      </trkpt>
      <trkpt lat="45.35914" lon="6.64402">
        <ele>2424</ele>
        <time>2015-07-06T13:29:46+02:00</time>
      </trkpt>
      <trkpt lat="45.35916" lon="6.64401">
        <ele>2425</ele>
        <time>2015-07-06T13:30:07+02:00</time>
      </trkpt>
      <trkpt lat="45.35917" lon="6.64386">
        <ele>2426</ele>
        <time>2015-07-06T13:30:21+02:00</time>
      </trkpt>
      <trkpt lat="45.35918" lon="6.6437">
        <ele>2427</ele>
        <time>2015-07-06T13:30:35+02:00</time>
      </trkpt>
      <trkpt lat="45.35919" lon="6.64352">
        <ele>2429</ele>
        <time>2015-07-06T13:30:51+02:00</time>
      </trkpt>
      <trkpt lat="45.35918" lon="6.64346">
        <ele>2429</ele>
        <time>2015-07-06T13:30:56+02:00</time>
      </trkpt>
      <trkpt lat="45.35917" lon="6.64329">
        <ele>2430</ele>
        <time>2015-07-06T13:31:13+02:00</time>
      </trkpt>
      <trkpt lat="45.35919" lon="6.64316">
        <ele>2431</ele>
        <time>2015-07-06T13:31:29+02:00</time>
      </trkpt>
      <trkpt lat="45.35921" lon="6.64305">
        <ele>2433</ele>
        <time>2015-07-06T13:31:44+02:00</time>
      </trkpt>
      <trkpt lat="45.35922" lon="6.64297">
        <ele>2434</ele>
        <time>2015-07-06T13:31:57+02:00</time>
      </trkpt>
      <trkpt lat="45.35927" lon="6.64287">
        <ele>2436</ele>
        <time>2015-07-06T13:32:14+02:00</time>
      </trkpt>
      <trkpt lat="45.35933" lon="6.64277">
        <ele>2438</ele>
        <time>2015-07-06T13:32:29+02:00</time>
      </trkpt>
      <trkpt lat="45.35942" lon="6.64268">
        <ele>2440</ele>
        <time>2015-07-06T13:32:47+02:00</time>
      </trkpt>
      <trkpt lat="45.35946" lon="6.64259">
        <ele>2441</ele>
        <time>2015-07-06T13:33:04+02:00</time>
      </trkpt>
      <trkpt lat="45.35954" lon="6.64248">
        <ele>2443</ele>
        <time>2015-07-06T13:33:19+02:00</time>
      </trkpt>
      <trkpt lat="45.35965" lon="6.64238">
        <ele>2445</ele>
        <time>2015-07-06T13:33:36+02:00</time>
      </trkpt>
      <trkpt lat="45.35975" lon="6.64231">
        <ele>2447</ele>
        <time>2015-07-06T13:33:54+02:00</time>
      </trkpt>
      <trkpt lat="45.35978" lon="6.64228">
        <ele>2447</ele>
        <time>2015-07-06T13:34:10+02:00</time>
      </trkpt>
      <trkpt lat="45.35982" lon="6.64223">
        <ele>2448</ele>
        <time>2015-07-06T13:34:24+02:00</time>
      </trkpt>
      <trkpt lat="45.35987" lon="6.64213">
        <ele>2449</ele>
        <time>2015-07-06T13:34:44+02:00</time>
      </trkpt>
      <trkpt lat="45.35993" lon="6.64207">
        <ele>2449</ele>
        <time>2015-07-06T15:12:03+02:00</time>
      </trkpt>
      <trkpt lat="45.35989" lon="6.64218">
        <ele>2449</ele>
        <time>2015-07-06T15:12:16+02:00</time>
      </trkpt>
      <trkpt lat="45.35984" lon="6.64229">
        <ele>2448</ele>
        <time>2015-07-06T15:12:31+02:00</time>
      </trkpt>
      <trkpt lat="45.35984" lon="6.6423">
        <ele>2448</ele>
        <time>2015-07-06T15:12:33+02:00</time>
      </trkpt>
      <trkpt lat="45.35974" lon="6.64235">
        <ele>2447</ele>
        <time>2015-07-06T15:12:48+02:00</time>
      </trkpt>
      <trkpt lat="45.35964" lon="6.64242">
        <ele>2445</ele>
        <time>2015-07-06T15:13:03+02:00</time>
      </trkpt>
      <trkpt lat="45.35954" lon="6.6425">
        <ele>2443</ele>
        <time>2015-07-06T15:13:22+02:00</time>
      </trkpt>
      <trkpt lat="45.35951" lon="6.64256">
        <ele>2442</ele>
        <time>2015-07-06T15:13:36+02:00</time>
      </trkpt>
      <trkpt lat="45.35949" lon="6.64257">
        <ele>2442</ele>
        <time>2015-07-06T15:14:11+02:00</time>
      </trkpt>
      <trkpt lat="45.35943" lon="6.64267">
        <ele>2440</ele>
        <time>2015-07-06T15:14:29+02:00</time>
      </trkpt>
      <trkpt lat="45.35937" lon="6.64278">
        <ele>2439</ele>
        <time>2015-07-06T15:14:44+02:00</time>
      </trkpt>
      <trkpt lat="45.3593" lon="6.64291">
        <ele>2436</ele>
        <time>2015-07-06T15:15:00+02:00</time>
      </trkpt>
      <trkpt lat="45.35925" lon="6.64301">
        <ele>2434</ele>
        <time>2015-07-06T15:15:15+02:00</time>
      </trkpt>
      <trkpt lat="45.35924" lon="6.64314">
        <ele>2433</ele>
        <time>2015-07-06T15:15:29+02:00</time>
      </trkpt>
      <trkpt lat="45.3592" lon="6.64325">
        <ele>2431</ele>
        <time>2015-07-06T15:15:40+02:00</time>
      </trkpt>
      <trkpt lat="45.35921" lon="6.64342">
        <ele>2430</ele>
        <time>2015-07-06T15:15:56+02:00</time>
      </trkpt>
      <trkpt lat="45.35923" lon="6.64361">
        <ele>2430</ele>
        <time>2015-07-06T15:16:13+02:00</time>
      </trkpt>
      <trkpt lat="45.35922" lon="6.6438">
        <ele>2429</ele>
        <time>2015-07-06T15:16:29+02:00</time>
      </trkpt>
      <trkpt lat="45.35919" lon="6.64396">
        <ele>2426</ele>
        <time>2015-07-06T15:16:42+02:00</time>
      </trkpt>
      <trkpt lat="45.35913" lon="6.64416">
        <ele>2423</ele>
        <time>2015-07-06T15:17:00+02:00</time>
      </trkpt>
      <trkpt lat="45.35906" lon="6.64433">
        <ele>2423</ele>
        <time>2015-07-06T15:17:17+02:00</time>
      </trkpt>
      <trkpt lat="45.359" lon="6.64451">
        <ele>2422</ele>
        <time>2015-07-06T15:17:33+02:00</time>
      </trkpt>
      <trkpt lat="45.35895" lon="6.64461">
        <ele>2421</ele>
        <time>2015-07-06T15:17:43+02:00</time>
      </trkpt>
      <trkpt lat="45.35886" lon="6.64478">
        <ele>2419</ele>
        <time>2015-07-06T15:18:00+02:00</time>
      </trkpt>
      <trkpt lat="45.35879" lon="6.64497">
        <ele>2417</ele>
        <time>2015-07-06T15:18:17+02:00</time>
      </trkpt>
      <trkpt lat="45.35867" lon="6.64513">
        <ele>2415</ele>
        <time>2015-07-06T15:18:35+02:00</time>
      </trkpt>
      <trkpt lat="45.3586" lon="6.64528">
        <ele>2413</ele>
        <time>2015-07-06T15:18:50+02:00</time>
      </trkpt>
      <trkpt lat="45.35855" lon="6.64543">
        <ele>2411</ele>
        <time>2015-07-06T15:19:05+02:00</time>
      </trkpt>
      <trkpt lat="45.35855" lon="6.64544">
        <ele>2411</ele>
        <time>2015-07-06T15:19:06+02:00</time>
      </trkpt>
      <trkpt lat="45.35853" lon="6.64566">
        <ele>2410</ele>
        <time>2015-07-06T15:19:23+02:00</time>
      </trkpt>
      <trkpt lat="45.3585" lon="6.64585">
        <ele>2408</ele>
        <time>2015-07-06T15:19:42+02:00</time>
      </trkpt>
      <trkpt lat="45.35846" lon="6.64606">
        <ele>2406</ele>
        <time>2015-07-06T15:20:00+02:00</time>
      </trkpt>
      <trkpt lat="45.35844" lon="6.64619">
        <ele>2405</ele>
        <time>2015-07-06T15:20:10+02:00</time>
      </trkpt>
      <trkpt lat="45.35842" lon="6.64636">
        <ele>2404</ele>
        <time>2015-07-06T15:20:24+02:00</time>
      </trkpt>
      <trkpt lat="45.35839" lon="6.64656">
        <ele>2402</ele>
        <time>2015-07-06T15:20:42+02:00</time>
      </trkpt>
      <trkpt lat="45.3584" lon="6.64666">
        <ele>2402</ele>
        <time>2015-07-06T15:20:50+02:00</time>
      </trkpt>
      <trkpt lat="45.35844" lon="6.64688">
        <ele>2404</ele>
        <time>2015-07-06T15:21:08+02:00</time>
      </trkpt>
      <trkpt lat="45.35851" lon="6.64703">
        <ele>2405</ele>
        <time>2015-07-06T15:21:25+02:00</time>
      </trkpt>
      <trkpt lat="45.35851" lon="6.64704">
        <ele>2405</ele>
        <time>2015-07-06T15:21:26+02:00</time>
      </trkpt>
      <trkpt lat="45.35859" lon="6.64721">
        <ele>2406</ele>
        <time>2015-07-06T15:21:42+02:00</time>
      </trkpt>
      <trkpt lat="45.35864" lon="6.64739">
        <ele>2406</ele>
        <time>2015-07-06T15:21:58+02:00</time>
      </trkpt>
      <trkpt lat="45.35866" lon="6.6475">
        <ele>2405</ele>
        <time>2015-07-06T15:22:07+02:00</time>
      </trkpt>
      <trkpt lat="45.35875" lon="6.64784">
        <ele>2405</ele>
        <time>2015-07-06T15:22:30+02:00</time>
      </trkpt>
      <trkpt lat="45.35882" lon="6.64811">
        <ele>2404</ele>
        <time>2015-07-06T15:22:48+02:00</time>
      </trkpt>
      <trkpt lat="45.35888" lon="6.64831">
        <ele>2403</ele>
        <time>2015-07-06T15:23:02+02:00</time>
      </trkpt>
      <trkpt lat="45.35887" lon="6.64838">
        <ele>2403</ele>
        <time>2015-07-06T15:23:18+02:00</time>
      </trkpt>
      <trkpt lat="45.35892" lon="6.6485">
        <ele>2403</ele>
        <time>2015-07-06T15:23:32+02:00</time>
      </trkpt>
      <trkpt lat="45.35893" lon="6.64852">
        <ele>2403</ele>
        <time>2015-07-06T15:24:25+02:00</time>
      </trkpt>
      <trkpt lat="45.35893" lon="6.64852">
        <ele>2403</ele>
        <time>2015-07-06T15:25:12+02:00</time>
      </trkpt>
      <trkpt lat="45.35893" lon="6.64856">
        <ele>2403</ele>
        <time>2015-07-06T15:25:59+02:00</time>
      </trkpt>
      <trkpt lat="45.35894" lon="6.64866">
        <ele>2402</ele>
        <time>2015-07-06T15:26:15+02:00</time>
      </trkpt>
      <trkpt lat="45.35895" lon="6.64881">
        <ele>2402</ele>
        <time>2015-07-06T15:26:27+02:00</time>
      </trkpt>
      <trkpt lat="45.35895" lon="6.64899">
        <ele>2401</ele>
        <time>2015-07-06T15:26:42+02:00</time>
      </trkpt>
      <trkpt lat="45.35896" lon="6.64909">
        <ele>2400</ele>
        <time>2015-07-06T15:26:49+02:00</time>
      </trkpt>
      <trkpt lat="45.35903" lon="6.64928">
        <ele>2400</ele>
        <time>2015-07-06T15:27:06+02:00</time>
      </trkpt>
      <trkpt lat="45.35909" lon="6.64948">
        <ele>2400</ele>
        <time>2015-07-06T15:27:23+02:00</time>
      </trkpt>
      <trkpt lat="45.3591" lon="6.64956">
        <ele>2400</ele>
        <time>2015-07-06T15:27:41+02:00</time>
      </trkpt>
      <trkpt lat="45.3591" lon="6.64972">
        <ele>2400</ele>
        <time>2015-07-06T15:27:54+02:00</time>
      </trkpt>
      <trkpt lat="45.35909" lon="6.64985">
        <ele>2400</ele>
        <time>2015-07-06T15:28:03+02:00</time>
      </trkpt>
      <trkpt lat="45.3591" lon="6.64991">
        <ele>2400</ele>
        <time>2015-07-06T15:28:08+02:00</time>
      </trkpt>
      <trkpt lat="45.35911" lon="6.64994">
        <ele>2400</ele>
        <time>2015-07-06T15:28:10+02:00</time>
      </trkpt>
      <trkpt lat="45.35917" lon="6.6501">
        <ele>2400</ele>
        <time>2015-07-06T15:28:23+02:00</time>
      </trkpt>
      <trkpt lat="45.35919" lon="6.65015">
        <ele>2400</ele>
        <time>2015-07-06T15:28:27+02:00</time>
      </trkpt>
      <trkpt lat="45.35926" lon="6.65031">
        <ele>2400</ele>
        <time>2015-07-06T15:28:44+02:00</time>
      </trkpt>
      <trkpt lat="45.35929" lon="6.65042">
        <ele>2400</ele>
        <time>2015-07-06T15:28:52+02:00</time>
      </trkpt>
      <trkpt lat="45.35942" lon="6.65065">
        <ele>2400</ele>
        <time>2015-07-06T15:29:13+02:00</time>
      </trkpt>
      <trkpt lat="45.35944" lon="6.65075">
        <ele>2400</ele>
        <time>2015-07-06T15:29:19+02:00</time>
      </trkpt>
      <trkpt lat="45.35947" lon="6.65088">
        <ele>2400</ele>
        <time>2015-07-06T15:29:31+02:00</time>
      </trkpt>
      <trkpt lat="45.35951" lon="6.65106">
        <ele>2401</ele>
        <time>2015-07-06T15:29:47+02:00</time>
      </trkpt>
      <trkpt lat="45.35956" lon="6.65125">
        <ele>2402</ele>
        <time>2015-07-06T15:30:03+02:00</time>
      </trkpt>
      <trkpt lat="45.35961" lon="6.65139">
        <ele>2402</ele>
        <time>2015-07-06T15:30:17+02:00</time>
      </trkpt>
      <trkpt lat="45.35964" lon="6.65153">
        <ele>2403</ele>
        <time>2015-07-06T15:30:29+02:00</time>
      </trkpt>
      <trkpt lat="45.35966" lon="6.6516">
        <ele>2403</ele>
        <time>2015-07-06T15:30:44+02:00</time>
      </trkpt>
      <trkpt lat="45.35963" lon="6.6516">
        <ele>2403</ele>
        <time>2015-07-06T15:31:02+02:00</time>
      </trkpt>
      <trkpt lat="45.35962" lon="6.6516">
        <ele>2403</ele>
        <time>2015-07-06T15:31:24+02:00</time>
      </trkpt>
      <trkpt lat="45.35962" lon="6.65161">
        <ele>2403</ele>
        <time>2015-07-06T15:31:44+02:00</time>
      </trkpt>
      <trkpt lat="45.35966" lon="6.65163">
        <ele>2403</ele>
        <time>2015-07-06T15:31:58+02:00</time>
      </trkpt>
      <trkpt lat="45.35966" lon="6.65167">
        <ele>2403</ele>
        <time>2015-07-06T15:32:14+02:00</time>
      </trkpt>
      <trkpt lat="45.35968" lon="6.6519">
        <ele>2404</ele>
        <time>2015-07-06T15:32:31+02:00</time>
      </trkpt>
      <trkpt lat="45.35971" lon="6.652">
        <ele>2404</ele>
        <time>2015-07-06T15:32:43+02:00</time>
      </trkpt>
      <trkpt lat="45.35971" lon="6.65216">
        <ele>2404</ele>
        <time>2015-07-06T15:32:56+02:00</time>
      </trkpt>
      <trkpt lat="45.35971" lon="6.65229">
        <ele>2405</ele>
        <time>2015-07-06T15:33:09+02:00</time>
      </trkpt>
      <trkpt lat="45.35974" lon="6.65244">
        <ele>2405</ele>
        <time>2015-07-06T15:33:24+02:00</time>
      </trkpt>
      <trkpt lat="45.35979" lon="6.65257">
        <ele>2404</ele>
        <time>2015-07-06T15:33:39+02:00</time>
      </trkpt>
      <trkpt lat="45.35981" lon="6.65275">
        <ele>2403</ele>
        <time>2015-07-06T15:33:56+02:00</time>
      </trkpt>
      <trkpt lat="45.35983" lon="6.65291">
        <ele>2402</ele>
        <time>2015-07-06T15:34:12+02:00</time>
      </trkpt>
      <trkpt lat="45.35981" lon="6.65306">
        <ele>2401</ele>
        <time>2015-07-06T15:34:28+02:00</time>
      </trkpt>
      <trkpt lat="45.35981" lon="6.65315">
        <ele>2400</ele>
        <time>2015-07-06T15:34:44+02:00</time>
      </trkpt>
      <trkpt lat="45.35982" lon="6.65318">
        <ele>2400</ele>
        <time>2015-07-06T15:35:03+02:00</time>
      </trkpt>
      <trkpt lat="45.35982" lon="6.6532">
        <ele>2400</ele>
        <time>2015-07-06T15:35:26+02:00</time>
      </trkpt>
      <trkpt lat="45.35979" lon="6.65319">
        <ele>2400</ele>
        <time>2015-07-06T15:35:47+02:00</time>
      </trkpt>
      <trkpt lat="45.35981" lon="6.65321">
        <ele>2400</ele>
        <time>2015-07-06T15:36:07+02:00</time>
      </trkpt>
      <trkpt lat="45.35981" lon="6.6532">
        <ele>2400</ele>
        <time>2015-07-06T15:36:30+02:00</time>
      </trkpt>
      <trkpt lat="45.35982" lon="6.65321">
        <ele>2400</ele>
        <time>2015-07-06T15:36:54+02:00</time>
      </trkpt>
      <trkpt lat="45.35987" lon="6.65326">
        <ele>2399</ele>
        <time>2015-07-06T15:37:08+02:00</time>
      </trkpt>
      <trkpt lat="45.35996" lon="6.65333">
        <ele>2397</ele>
        <time>2015-07-06T15:37:26+02:00</time>
      </trkpt>
      <trkpt lat="45.35996" lon="6.65344">
        <ele>2393</ele>
        <time>2015-07-06T15:37:40+02:00</time>
      </trkpt>
      <trkpt lat="45.3599" lon="6.65354">
        <ele>2390</ele>
        <time>2015-07-06T15:37:57+02:00</time>
      </trkpt>
      <trkpt lat="45.35987" lon="6.65362">
        <ele>2387</ele>
        <time>2015-07-06T15:38:11+02:00</time>
      </trkpt>
      <trkpt lat="45.35983" lon="6.65366">
        <ele>2386</ele>
        <time>2015-07-06T15:38:27+02:00</time>
      </trkpt>
      <trkpt lat="45.35983" lon="6.65368">
        <ele>2386</ele>
        <time>2015-07-06T15:38:50+02:00</time>
      </trkpt>
      <trkpt lat="45.3598" lon="6.65373">
        <ele>2384</ele>
        <time>2015-07-06T15:39:14+02:00</time>
      </trkpt>
      <trkpt lat="45.35975" lon="6.6538">
        <ele>2382</ele>
        <time>2015-07-06T15:39:28+02:00</time>
      </trkpt>
      <trkpt lat="45.35966" lon="6.65387">
        <ele>2381</ele>
        <time>2015-07-06T15:39:45+02:00</time>
      </trkpt>
      <trkpt lat="45.35961" lon="6.65395">
        <ele>2378</ele>
        <time>2015-07-06T15:39:59+02:00</time>
      </trkpt>
      <trkpt lat="45.35955" lon="6.65402">
        <ele>2376</ele>
        <time>2015-07-06T15:40:16+02:00</time>
      </trkpt>
      <trkpt lat="45.35947" lon="6.65409">
        <ele>2374</ele>
        <time>2015-07-06T15:40:34+02:00</time>
      </trkpt>
      <trkpt lat="45.35939" lon="6.65415">
        <ele>2373</ele>
        <time>2015-07-06T15:40:51+02:00</time>
      </trkpt>
      <trkpt lat="45.35933" lon="6.6542">
        <ele>2372</ele>
        <time>2015-07-06T15:41:06+02:00</time>
      </trkpt>
      <trkpt lat="45.35941" lon="6.65425">
        <ele>2370</ele>
        <time>2015-07-06T15:41:21+02:00</time>
      </trkpt>
      <trkpt lat="45.35948" lon="6.65432">
        <ele>2368</ele>
        <time>2015-07-06T15:41:37+02:00</time>
      </trkpt>
      <trkpt lat="45.35956" lon="6.6544">
        <ele>2365</ele>
        <time>2015-07-06T15:41:53+02:00</time>
      </trkpt>
      <trkpt lat="45.35965" lon="6.65449">
        <ele>2362</ele>
        <time>2015-07-06T15:42:08+02:00</time>
      </trkpt>
      <trkpt lat="45.35971" lon="6.65457">
        <ele>2359</ele>
        <time>2015-07-06T15:42:22+02:00</time>
      </trkpt>
      <trkpt lat="45.35972" lon="6.65463">
        <ele>2357</ele>
        <time>2015-07-06T15:42:26+02:00</time>
      </trkpt>
      <trkpt lat="45.35972" lon="6.65469">
        <ele>2356</ele>
        <time>2015-07-06T15:42:30+02:00</time>
      </trkpt>
      <trkpt lat="45.35976" lon="6.65483">
        <ele>2352</ele>
        <time>2015-07-06T15:42:45+02:00</time>
      </trkpt>
      <trkpt lat="45.35976" lon="6.65484">
        <ele>2352</ele>
        <time>2015-07-06T15:42:46+02:00</time>
      </trkpt>
      <trkpt lat="45.35978" lon="6.65485">
        <ele>2352</ele>
        <time>2015-07-06T15:42:48+02:00</time>
      </trkpt>
      <trkpt lat="45.35993" lon="6.65504">
        <ele>2347</ele>
        <time>2015-07-06T15:43:08+02:00</time>
      </trkpt>
      <trkpt lat="45.35995" lon="6.65506">
        <ele>2346</ele>
        <time>2015-07-06T15:43:10+02:00</time>
      </trkpt>
      <trkpt lat="45.36002" lon="6.65512">
        <ele>2346</ele>
        <time>2015-07-06T15:43:22+02:00</time>
      </trkpt>
      <trkpt lat="45.36011" lon="6.65525">
        <ele>2345</ele>
        <time>2015-07-06T15:43:40+02:00</time>
      </trkpt>
      <trkpt lat="45.36023" lon="6.65532">
        <ele>2344</ele>
        <time>2015-07-06T15:43:56+02:00</time>
      </trkpt>
      <trkpt lat="45.36026" lon="6.65532">
        <ele>2344</ele>
        <time>2015-07-06T15:44:28+02:00</time>
      </trkpt>
      <trkpt lat="45.36038" lon="6.65537">
        <ele>2343</ele>
        <time>2015-07-06T15:44:44+02:00</time>
      </trkpt>
      <trkpt lat="45.36049" lon="6.65543">
        <ele>2342</ele>
        <time>2015-07-06T15:45:01+02:00</time>
      </trkpt>
      <trkpt lat="45.3605" lon="6.65543">
        <ele>2342</ele>
        <time>2015-07-06T15:45:02+02:00</time>
      </trkpt>
      <trkpt lat="45.36067" lon="6.65552">
        <ele>2340</ele>
        <time>2015-07-06T15:45:21+02:00</time>
      </trkpt>
      <trkpt lat="45.36082" lon="6.65562">
        <ele>2338</ele>
        <time>2015-07-06T15:45:39+02:00</time>
      </trkpt>
      <trkpt lat="45.36093" lon="6.65568">
        <ele>2339</ele>
        <time>2015-07-06T15:45:54+02:00</time>
      </trkpt>
      <trkpt lat="45.36105" lon="6.65577">
        <ele>2338</ele>
        <time>2015-07-06T15:46:11+02:00</time>
      </trkpt>
      <trkpt lat="45.3611" lon="6.6559">
        <ele>2337</ele>
        <time>2015-07-06T15:46:28+02:00</time>
      </trkpt>
      <trkpt lat="45.36105" lon="6.65598">
        <ele>2335</ele>
        <time>2015-07-06T15:46:44+02:00</time>
      </trkpt>
      <trkpt lat="45.36107" lon="6.65606">
        <ele>2334</ele>
        <time>2015-07-06T15:47:02+02:00</time>
      </trkpt>
      <trkpt lat="45.36113" lon="6.65618">
        <ele>2332</ele>
        <time>2015-07-06T15:47:18+02:00</time>
      </trkpt>
      <trkpt lat="45.36123" lon="6.6563">
        <ele>2329</ele>
        <time>2015-07-06T15:47:37+02:00</time>
      </trkpt>
      <trkpt lat="45.36135" lon="6.65639">
        <ele>2327</ele>
        <time>2015-07-06T15:47:55+02:00</time>
      </trkpt>
      <trkpt lat="45.3614" lon="6.65646">
        <ele>2324</ele>
        <time>2015-07-06T15:48:14+02:00</time>
      </trkpt>
      <trkpt lat="45.36144" lon="6.65652">
        <ele>2323</ele>
        <time>2015-07-06T15:48:34+02:00</time>
      </trkpt>
      <trkpt lat="45.36148" lon="6.65669">
        <ele>2318</ele>
        <time>2015-07-06T15:48:51+02:00</time>
      </trkpt>
      <trkpt lat="45.36148" lon="6.65674">
        <ele>2318</ele>
        <time>2015-07-06T15:49:08+02:00</time>
      </trkpt>
      <trkpt lat="45.36149" lon="6.65682">
        <ele>2316</ele>
        <time>2015-07-06T15:49:21+02:00</time>
      </trkpt>
      <trkpt lat="45.36152" lon="6.65701">
        <ele>2313</ele>
        <time>2015-07-06T15:49:38+02:00</time>
      </trkpt>
      <trkpt lat="45.36153" lon="6.65704">
        <ele>2313</ele>
        <time>2015-07-06T15:49:40+02:00</time>
      </trkpt>
      <trkpt lat="45.3616" lon="6.65724">
        <ele>2309</ele>
        <time>2015-07-06T15:49:58+02:00</time>
      </trkpt>
      <trkpt lat="45.36163" lon="6.65733">
        <ele>2308</ele>
        <time>2015-07-06T15:50:11+02:00</time>
      </trkpt>
      <trkpt lat="45.36164" lon="6.65734">
        <ele>2307</ele>
        <time>2015-07-06T15:50:14+02:00</time>
      </trkpt>
      <trkpt lat="45.36165" lon="6.65751">
        <ele>2305</ele>
        <time>2015-07-06T15:50:28+02:00</time>
      </trkpt>
      <trkpt lat="45.3616" lon="6.65768">
        <ele>2303</ele>
        <time>2015-07-06T15:50:46+02:00</time>
      </trkpt>
      <trkpt lat="45.36148" lon="6.65775">
        <ele>2303</ele>
        <time>2015-07-06T15:51:05+02:00</time>
      </trkpt>
      <trkpt lat="45.36138" lon="6.65776">
        <ele>2303</ele>
        <time>2015-07-06T15:51:20+02:00</time>
      </trkpt>
      <trkpt lat="45.36133" lon="6.65777">
        <ele>2303</ele>
        <time>2015-07-06T15:51:27+02:00</time>
      </trkpt>
      <trkpt lat="45.36121" lon="6.65793">
        <ele>2301</ele>
        <time>2015-07-06T15:51:44+02:00</time>
      </trkpt>
      <trkpt lat="45.36109" lon="6.65808">
        <ele>2299</ele>
        <time>2015-07-06T15:52:00+02:00</time>
      </trkpt>
      <trkpt lat="45.36107" lon="6.65819">
        <ele>2297</ele>
        <time>2015-07-06T15:52:11+02:00</time>
      </trkpt>
      <trkpt lat="45.36098" lon="6.6584">
        <ele>2294</ele>
        <time>2015-07-06T15:52:26+02:00</time>
      </trkpt>
      <trkpt lat="45.36093" lon="6.65861">
        <ele>2293</ele>
        <time>2015-07-06T15:52:43+02:00</time>
      </trkpt>
      <trkpt lat="45.36092" lon="6.65882">
        <ele>2292</ele>
        <time>2015-07-06T15:53:02+02:00</time>
      </trkpt>
      <trkpt lat="45.3609" lon="6.65882">
        <ele>2292</ele>
        <time>2015-07-06T15:53:14+02:00</time>
      </trkpt>
      <trkpt lat="45.36092" lon="6.65916">
        <ele>2290</ele>
        <time>2015-07-06T16:04:49+02:00</time>
      </trkpt>
      <trkpt lat="45.36094" lon="6.65928">
        <ele>2291</ele>
        <time>2015-07-06T16:05:05+02:00</time>
      </trkpt>
      <trkpt lat="45.36095" lon="6.65937">
        <ele>2292</ele>
        <time>2015-07-06T16:05:25+02:00</time>
      </trkpt>
      <trkpt lat="45.36096" lon="6.65945">
        <ele>2293</ele>
        <time>2015-07-06T16:05:39+02:00</time>
      </trkpt>
      <trkpt lat="45.36096" lon="6.65947">
        <ele>2293</ele>
        <time>2015-07-06T16:06:02+02:00</time>
      </trkpt>
      <trkpt lat="45.36097" lon="6.65952">
        <ele>2294</ele>
        <time>2015-07-06T16:06:20+02:00</time>
      </trkpt>
      <trkpt lat="45.36103" lon="6.65971">
        <ele>2294</ele>
        <time>2015-07-06T16:06:38+02:00</time>
      </trkpt>
      <trkpt lat="45.36107" lon="6.65986">
        <ele>2294</ele>
        <time>2015-07-06T16:06:55+02:00</time>
      </trkpt>
      <trkpt lat="45.36108" lon="6.65998">
        <ele>2295</ele>
        <time>2015-07-06T16:07:06+02:00</time>
      </trkpt>
      <trkpt lat="45.36109" lon="6.66008">
        <ele>2293</ele>
        <time>2015-07-06T16:07:15+02:00</time>
      </trkpt>
      <trkpt lat="45.36112" lon="6.66033">
        <ele>2289</ele>
        <time>2015-07-06T16:07:34+02:00</time>
      </trkpt>
      <trkpt lat="45.36121" lon="6.66051">
        <ele>2284</ele>
        <time>2015-07-06T16:07:51+02:00</time>
      </trkpt>
      <trkpt lat="45.36126" lon="6.66068">
        <ele>2280</ele>
        <time>2015-07-06T16:08:08+02:00</time>
      </trkpt>
      <trkpt lat="45.36125" lon="6.66085">
        <ele>2278</ele>
        <time>2015-07-06T16:08:25+02:00</time>
      </trkpt>
      <trkpt lat="45.3612" lon="6.66097">
        <ele>2277</ele>
        <time>2015-07-06T16:08:40+02:00</time>
      </trkpt>
      <trkpt lat="45.3612" lon="6.661">
        <ele>2277</ele>
        <time>2015-07-06T16:09:01+02:00</time>
      </trkpt>
      <trkpt lat="45.3612" lon="6.66098">
        <ele>2277</ele>
        <time>2015-07-06T16:09:25+02:00</time>
      </trkpt>
      <trkpt lat="45.36119" lon="6.66099">
        <ele>2277</ele>
        <time>2015-07-06T16:09:45+02:00</time>
      </trkpt>
      <trkpt lat="45.3612" lon="6.66101">
        <ele>2277</ele>
        <time>2015-07-06T16:09:49+02:00</time>
      </trkpt>
      <trkpt lat="45.36109" lon="6.66123">
        <ele>2275</ele>
        <time>2015-07-06T16:10:08+02:00</time>
      </trkpt>
      <trkpt lat="45.361" lon="6.66148">
        <ele>2272</ele>
        <time>2015-07-06T16:10:28+02:00</time>
      </trkpt>
      <trkpt lat="45.36112" lon="6.6617">
        <ele>2266</ele>
        <time>2015-07-06T16:10:47+02:00</time>
      </trkpt>
      <trkpt lat="45.36132" lon="6.66183">
        <ele>2262</ele>
        <time>2015-07-06T16:11:07+02:00</time>
      </trkpt>
      <trkpt lat="45.36148" lon="6.66194">
        <ele>2260</ele>
        <time>2015-07-06T16:11:24+02:00</time>
      </trkpt>
      <trkpt lat="45.36159" lon="6.66213">
        <ele>2259</ele>
        <time>2015-07-06T16:11:40+02:00</time>
      </trkpt>
      <trkpt lat="45.36165" lon="6.6624">
        <ele>2259</ele>
        <time>2015-07-06T16:12:00+02:00</time>
      </trkpt>
      <trkpt lat="45.36155" lon="6.66257">
        <ele>2256</ele>
        <time>2015-07-06T16:12:18+02:00</time>
      </trkpt>
      <trkpt lat="45.36144" lon="6.66267">
        <ele>2252</ele>
        <time>2015-07-06T16:12:33+02:00</time>
      </trkpt>
      <trkpt lat="45.36129" lon="6.66284">
        <ele>2246</ele>
        <time>2015-07-06T16:12:52+02:00</time>
      </trkpt>
      <trkpt lat="45.36113" lon="6.66304">
        <ele>2240</ele>
        <time>2015-07-06T16:13:11+02:00</time>
      </trkpt>
      <trkpt lat="45.36092" lon="6.66308">
        <ele>2235</ele>
        <time>2015-07-06T16:13:31+02:00</time>
      </trkpt>
      <trkpt lat="45.36074" lon="6.66299">
        <ele>2233</ele>
        <time>2015-07-06T16:13:51+02:00</time>
      </trkpt>
      <trkpt lat="45.3606" lon="6.66284">
        <ele>2232</ele>
        <time>2015-07-06T16:14:09+02:00</time>
      </trkpt>
      <trkpt lat="45.36045" lon="6.66265">
        <ele>2231</ele>
        <time>2015-07-06T16:14:31+02:00</time>
      </trkpt>
      <trkpt lat="45.36031" lon="6.66249">
        <ele>2230</ele>
        <time>2015-07-06T16:14:50+02:00</time>
      </trkpt>
      <trkpt lat="45.36013" lon="6.66235">
        <ele>2228</ele>
        <time>2015-07-06T16:15:11+02:00</time>
      </trkpt>
      <trkpt lat="45.35996" lon="6.66223">
        <ele>2226</ele>
        <time>2015-07-06T16:15:29+02:00</time>
      </trkpt>
      <trkpt lat="45.35976" lon="6.66218">
        <ele>2224</ele>
        <time>2015-07-06T16:15:46+02:00</time>
      </trkpt>
      <trkpt lat="45.35962" lon="6.66212">
        <ele>2223</ele>
        <time>2015-07-06T16:16:03+02:00</time>
      </trkpt>
      <trkpt lat="45.35962" lon="6.66211">
        <ele>2223</ele>
        <time>2015-07-06T16:16:27+02:00</time>
      </trkpt>
      <trkpt lat="45.35961" lon="6.66214">
        <ele>2222</ele>
        <time>2015-07-06T16:17:25+02:00</time>
      </trkpt>
      <trkpt lat="45.35961" lon="6.66211">
        <ele>2223</ele>
        <time>2015-07-06T16:17:49+02:00</time>
      </trkpt>
      <trkpt lat="45.35962" lon="6.66212">
        <ele>2223</ele>
        <time>2015-07-06T16:18:18+02:00</time>
      </trkpt>
      <trkpt lat="45.35957" lon="6.66225">
        <ele>2219</ele>
        <time>2015-07-06T16:18:34+02:00</time>
      </trkpt>
      <trkpt lat="45.35958" lon="6.66234">
        <ele>2217</ele>
        <time>2015-07-06T16:18:50+02:00</time>
      </trkpt>
      <trkpt lat="45.35959" lon="6.66248">
        <ele>2215</ele>
        <time>2015-07-06T16:19:09+02:00</time>
      </trkpt>
      <trkpt lat="45.35961" lon="6.66262">
        <ele>2213</ele>
        <time>2015-07-06T16:19:27+02:00</time>
      </trkpt>
      <trkpt lat="45.35962" lon="6.66266">
        <ele>2213</ele>
        <time>2015-07-06T16:19:31+02:00</time>
      </trkpt>
      <trkpt lat="45.35968" lon="6.66286">
        <ele>2211</ele>
        <time>2015-07-06T16:19:47+02:00</time>
      </trkpt>
      <trkpt lat="45.35975" lon="6.6631">
        <ele>2208</ele>
        <time>2015-07-06T16:20:05+02:00</time>
      </trkpt>
      <trkpt lat="45.3598" lon="6.66328">
        <ele>2206</ele>
        <time>2015-07-06T16:20:21+02:00</time>
      </trkpt>
      <trkpt lat="45.35986" lon="6.66347">
        <ele>2204</ele>
        <time>2015-07-06T16:20:36+02:00</time>
      </trkpt>
      <trkpt lat="45.3599" lon="6.66366">
        <ele>2201</ele>
        <time>2015-07-06T16:20:53+02:00</time>
      </trkpt>
      <trkpt lat="45.35991" lon="6.66369">
        <ele>2201</ele>
        <time>2015-07-06T16:20:55+02:00</time>
      </trkpt>
      <trkpt lat="45.35997" lon="6.66391">
        <ele>2197</ele>
        <time>2015-07-06T16:21:12+02:00</time>
      </trkpt>
      <trkpt lat="45.36007" lon="6.66405">
        <ele>2196</ele>
        <time>2015-07-06T16:21:29+02:00</time>
      </trkpt>
      <trkpt lat="45.36022" lon="6.66408">
        <ele>2199</ele>
        <time>2015-07-06T16:21:51+02:00</time>
      </trkpt>
      <trkpt lat="45.36036" lon="6.66417">
        <ele>2200</ele>
        <time>2015-07-06T16:22:10+02:00</time>
      </trkpt>
      <trkpt lat="45.36045" lon="6.66431">
        <ele>2201</ele>
        <time>2015-07-06T16:22:26+02:00</time>
      </trkpt>
      <trkpt lat="45.36052" lon="6.66451">
        <ele>2199</ele>
        <time>2015-07-06T16:22:44+02:00</time>
      </trkpt>
      <trkpt lat="45.36057" lon="6.66455">
        <ele>2198</ele>
        <time>2015-07-06T16:23:02+02:00</time>
      </trkpt>
      <trkpt lat="45.36064" lon="6.66472">
        <ele>2195</ele>
        <time>2015-07-06T16:23:19+02:00</time>
      </trkpt>
      <trkpt lat="45.36074" lon="6.66489">
        <ele>2191</ele>
        <time>2015-07-06T16:23:37+02:00</time>
      </trkpt>
      <trkpt lat="45.36084" lon="6.66503">
        <ele>2187</ele>
        <time>2015-07-06T16:23:53+02:00</time>
      </trkpt>
      <trkpt lat="45.36092" lon="6.66515">
        <ele>2185</ele>
        <time>2015-07-06T16:24:07+02:00</time>
      </trkpt>
      <trkpt lat="45.36103" lon="6.66527">
        <ele>2184</ele>
        <time>2015-07-06T16:24:23+02:00</time>
      </trkpt>
      <trkpt lat="45.36122" lon="6.66529">
        <ele>2185</ele>
        <time>2015-07-06T16:24:42+02:00</time>
      </trkpt>
      <trkpt lat="45.3614" lon="6.66534">
        <ele>2184</ele>
        <time>2015-07-06T16:24:59+02:00</time>
      </trkpt>
      <trkpt lat="45.36158" lon="6.6654">
        <ele>2183</ele>
        <time>2015-07-06T16:25:17+02:00</time>
      </trkpt>
      <trkpt lat="45.36175" lon="6.66546">
        <ele>2181</ele>
        <time>2015-07-06T16:25:34+02:00</time>
      </trkpt>
      <trkpt lat="45.36196" lon="6.66552">
        <ele>2179</ele>
        <time>2015-07-06T16:25:53+02:00</time>
      </trkpt>
      <trkpt lat="45.36222" lon="6.66553">
        <ele>2177</ele>
        <time>2015-07-06T16:26:15+02:00</time>
      </trkpt>
      <trkpt lat="45.3624" lon="6.6655">
        <ele>2177</ele>
        <time>2015-07-06T16:26:33+02:00</time>
      </trkpt>
      <trkpt lat="45.36255" lon="6.66548">
        <ele>2177</ele>
        <time>2015-07-06T16:26:48+02:00</time>
      </trkpt>
      <trkpt lat="45.36278" lon="6.66558">
        <ele>2173</ele>
        <time>2015-07-06T16:33:05+02:00</time>
      </trkpt>
      <trkpt lat="45.36283" lon="6.66557">
        <ele>2173</ele>
        <time>2015-07-06T16:33:11+02:00</time>
      </trkpt>
      <trkpt lat="45.36302" lon="6.66562">
        <ele>2171</ele>
        <time>2015-07-06T16:33:30+02:00</time>
      </trkpt>
      <trkpt lat="45.36322" lon="6.6656">
        <ele>2170</ele>
        <time>2015-07-06T16:33:48+02:00</time>
      </trkpt>
      <trkpt lat="45.36343" lon="6.66558">
        <ele>2169</ele>
        <time>2015-07-06T16:34:07+02:00</time>
      </trkpt>
      <trkpt lat="45.36364" lon="6.66551">
        <ele>2169</ele>
        <time>2015-07-06T16:34:27+02:00</time>
      </trkpt>
      <trkpt lat="45.3638" lon="6.66541">
        <ele>2169</ele>
        <time>2015-07-06T16:34:47+02:00</time>
      </trkpt>
      <trkpt lat="45.36399" lon="6.6653">
        <ele>2168</ele>
        <time>2015-07-06T16:35:06+02:00</time>
      </trkpt>
      <trkpt lat="45.36417" lon="6.6652">
        <ele>2167</ele>
        <time>2015-07-06T16:35:25+02:00</time>
      </trkpt>
      <trkpt lat="45.3643" lon="6.66515">
        <ele>2165</ele>
        <time>2015-07-06T16:35:39+02:00</time>
      </trkpt>
      <trkpt lat="45.36447" lon="6.66505">
        <ele>2163</ele>
        <time>2015-07-06T16:35:58+02:00</time>
      </trkpt>
      <trkpt lat="45.36448" lon="6.66504">
        <ele>2163</ele>
        <time>2015-07-06T16:35:59+02:00</time>
      </trkpt>
      <trkpt lat="45.36463" lon="6.66488">
        <ele>2162</ele>
        <time>2015-07-06T16:36:17+02:00</time>
      </trkpt>
      <trkpt lat="45.3648" lon="6.66474">
        <ele>2160</ele>
        <time>2015-07-06T16:36:36+02:00</time>
      </trkpt>
      <trkpt lat="45.36494" lon="6.66461">
        <ele>2157</ele>
        <time>2015-07-06T16:36:54+02:00</time>
      </trkpt>
      <trkpt lat="45.36508" lon="6.66447">
        <ele>2154</ele>
        <time>2015-07-06T16:37:11+02:00</time>
      </trkpt>
      <trkpt lat="45.36521" lon="6.66429">
        <ele>2151</ele>
        <time>2015-07-06T16:37:31+02:00</time>
      </trkpt>
      <trkpt lat="45.36532" lon="6.6641">
        <ele>2148</ele>
        <time>2015-07-06T16:37:50+02:00</time>
      </trkpt>
      <trkpt lat="45.36542" lon="6.66397">
        <ele>2146</ele>
        <time>2015-07-06T16:38:06+02:00</time>
      </trkpt>
      <trkpt lat="45.36555" lon="6.66382">
        <ele>2142</ele>
        <time>2015-07-06T16:38:23+02:00</time>
      </trkpt>
      <trkpt lat="45.36567" lon="6.6637">
        <ele>2139</ele>
        <time>2015-07-06T16:38:38+02:00</time>
      </trkpt>
      <trkpt lat="45.36576" lon="6.66352">
        <ele>2136</ele>
        <time>2015-07-06T16:38:55+02:00</time>
      </trkpt>
      <trkpt lat="45.36589" lon="6.66332">
        <ele>2132</ele>
        <time>2015-07-06T16:39:17+02:00</time>
      </trkpt>
      <trkpt lat="45.36603" lon="6.66324">
        <ele>2130</ele>
        <time>2015-07-06T16:39:35+02:00</time>
      </trkpt>
      <trkpt lat="45.36614" lon="6.66314">
        <ele>2128</ele>
        <time>2015-07-06T16:39:50+02:00</time>
      </trkpt>
      <trkpt lat="45.36615" lon="6.66311">
        <ele>2128</ele>
        <time>2015-07-06T16:40:00+02:00</time>
      </trkpt>
      <trkpt lat="45.36614" lon="6.66309">
        <ele>2128</ele>
        <time>2015-07-06T16:40:02+02:00</time>
      </trkpt>
      <trkpt lat="45.36611" lon="6.66285">
        <ele>2129</ele>
        <time>2015-07-06T16:40:20+02:00</time>
      </trkpt>
      <trkpt lat="45.36612" lon="6.66272">
        <ele>2129</ele>
        <time>2015-07-06T16:40:28+02:00</time>
      </trkpt>
      <trkpt lat="45.36619" lon="6.66266">
        <ele>2128</ele>
        <time>2015-07-06T16:40:37+02:00</time>
      </trkpt>
      <trkpt lat="45.3664" lon="6.6627">
        <ele>2126</ele>
        <time>2015-07-06T16:40:57+02:00</time>
      </trkpt>
      <trkpt lat="45.36662" lon="6.66271">
        <ele>2123</ele>
        <time>2015-07-06T16:41:18+02:00</time>
      </trkpt>
      <trkpt lat="45.36683" lon="6.66264">
        <ele>2119</ele>
        <time>2015-07-06T16:41:38+02:00</time>
      </trkpt>
      <trkpt lat="45.36704" lon="6.66253">
        <ele>2116</ele>
        <time>2015-07-06T16:41:58+02:00</time>
      </trkpt>
      <trkpt lat="45.36712" lon="6.66245">
        <ele>2115</ele>
        <time>2015-07-06T16:42:09+02:00</time>
      </trkpt>
      <trkpt lat="45.3672" lon="6.66235">
        <ele>2115</ele>
        <time>2015-07-06T16:42:28+02:00</time>
      </trkpt>
      <trkpt lat="45.36725" lon="6.66227">
        <ele>2116</ele>
        <time>2015-07-06T16:42:49+02:00</time>
      </trkpt>
      <trkpt lat="45.36738" lon="6.66211">
        <ele>2116</ele>
        <time>2015-07-06T16:43:07+02:00</time>
      </trkpt>
      <trkpt lat="45.36753" lon="6.66205">
        <ele>2114</ele>
        <time>2015-07-06T16:43:27+02:00</time>
      </trkpt>
      <trkpt lat="45.36762" lon="6.66202">
        <ele>2112</ele>
        <time>2015-07-06T16:43:38+02:00</time>
      </trkpt>
      <trkpt lat="45.36781" lon="6.66204">
        <ele>2107</ele>
        <time>2015-07-06T16:43:58+02:00</time>
      </trkpt>
      <trkpt lat="45.36795" lon="6.66202">
        <ele>2104</ele>
        <time>2015-07-06T16:44:14+02:00</time>
      </trkpt>
      <trkpt lat="45.36812" lon="6.66192">
        <ele>2103</ele>
        <time>2015-07-06T16:44:31+02:00</time>
      </trkpt>
      <trkpt lat="45.36828" lon="6.66183">
        <ele>2102</ele>
        <time>2015-07-06T16:44:49+02:00</time>
      </trkpt>
      <trkpt lat="45.36844" lon="6.66175">
        <ele>2100</ele>
        <time>2015-07-06T16:45:08+02:00</time>
      </trkpt>
      <trkpt lat="45.36855" lon="6.66168">
        <ele>2098</ele>
        <time>2015-07-06T16:45:23+02:00</time>
      </trkpt>
      <trkpt lat="45.36865" lon="6.66159">
        <ele>2097</ele>
        <time>2015-07-06T16:45:37+02:00</time>
      </trkpt>
      <trkpt lat="45.3688" lon="6.66148">
        <ele>2096</ele>
        <time>2015-07-06T16:45:54+02:00</time>
      </trkpt>
      <trkpt lat="45.36896" lon="6.66144">
        <ele>2092</ele>
        <time>2015-07-06T16:46:13+02:00</time>
      </trkpt>
      <trkpt lat="45.36908" lon="6.66156">
        <ele>2083</ele>
        <time>2015-07-06T16:46:31+02:00</time>
      </trkpt>
      <trkpt lat="45.36909" lon="6.66168">
        <ele>2079</ele>
        <time>2015-07-06T16:46:44+02:00</time>
      </trkpt>
      <trkpt lat="45.36901" lon="6.66169">
        <ele>2081</ele>
        <time>2015-07-06T16:46:57+02:00</time>
      </trkpt>
      <trkpt lat="45.36897" lon="6.66179">
        <ele>2080</ele>
        <time>2015-07-06T16:47:11+02:00</time>
      </trkpt>
      <trkpt lat="45.36899" lon="6.66183">
        <ele>2078</ele>
        <time>2015-07-06T16:47:30+02:00</time>
      </trkpt>
      <trkpt lat="45.369" lon="6.66188">
        <ele>2076</ele>
        <time>2015-07-06T16:48:43+02:00</time>
      </trkpt>
      <trkpt lat="45.36902" lon="6.66198">
        <ele>2073</ele>
        <time>2015-07-06T16:48:58+02:00</time>
      </trkpt>
      <trkpt lat="45.36905" lon="6.66206">
        <ele>2069</ele>
        <time>2015-07-06T16:49:12+02:00</time>
      </trkpt>
      <trkpt lat="45.36909" lon="6.66216">
        <ele>2065</ele>
        <time>2015-07-06T16:49:27+02:00</time>
      </trkpt>
      <trkpt lat="45.36916" lon="6.66225">
        <ele>2060</ele>
        <time>2015-07-06T16:49:43+02:00</time>
      </trkpt>
      <trkpt lat="45.36921" lon="6.66236">
        <ele>2056</ele>
        <time>2015-07-06T16:49:57+02:00</time>
      </trkpt>
      <trkpt lat="45.36924" lon="6.6625">
        <ele>2052</ele>
        <time>2015-07-06T16:50:14+02:00</time>
      </trkpt>
      <trkpt lat="45.36933" lon="6.6626">
        <ele>2050</ele>
        <time>2015-07-06T16:50:32+02:00</time>
      </trkpt>
      <trkpt lat="45.36943" lon="6.66267">
        <ele>2048</ele>
        <time>2015-07-06T16:50:50+02:00</time>
      </trkpt>
      <trkpt lat="45.3695" lon="6.66271">
        <ele>2046</ele>
        <time>2015-07-06T16:51:01+02:00</time>
      </trkpt>
      <trkpt lat="45.36945" lon="6.66293">
        <ele>2044</ele>
        <time>2015-07-06T16:51:19+02:00</time>
      </trkpt>
      <trkpt lat="45.36951" lon="6.66304">
        <ele>2042</ele>
        <time>2015-07-06T16:51:35+02:00</time>
      </trkpt>
      <trkpt lat="45.36951" lon="6.66304">
        <ele>2042</ele>
        <time>2015-07-06T16:51:36+02:00</time>
      </trkpt>
      <trkpt lat="45.36953" lon="6.66303">
        <ele>2042</ele>
        <time>2015-07-06T16:51:38+02:00</time>
      </trkpt>
      <trkpt lat="45.36966" lon="6.66307">
        <ele>2039</ele>
        <time>2015-07-06T16:51:52+02:00</time>
      </trkpt>
      <trkpt lat="45.36982" lon="6.66316">
        <ele>2034</ele>
        <time>2015-07-06T16:52:10+02:00</time>
      </trkpt>
      <trkpt lat="45.36999" lon="6.66324">
        <ele>2029</ele>
        <time>2015-07-06T16:52:26+02:00</time>
      </trkpt>
      <trkpt lat="45.37004" lon="6.66326">
        <ele>2028</ele>
        <time>2015-07-06T16:52:31+02:00</time>
      </trkpt>
      <trkpt lat="45.37016" lon="6.66332">
        <ele>2025</ele>
        <time>2015-07-06T16:52:44+02:00</time>
      </trkpt>
      <trkpt lat="45.3703" lon="6.6634">
        <ele>2023</ele>
        <time>2015-07-06T16:53:00+02:00</time>
      </trkpt>
      <trkpt lat="45.37035" lon="6.66338">
        <ele>2022</ele>
        <time>2015-07-06T16:53:05+02:00</time>
      </trkpt>
      <trkpt lat="45.37054" lon="6.66325">
        <ele>2021</ele>
        <time>2015-07-06T16:53:24+02:00</time>
      </trkpt>
      <trkpt lat="45.37072" lon="6.66325">
        <ele>2018</ele>
        <time>2015-07-06T16:53:42+02:00</time>
      </trkpt>
      <trkpt lat="45.3708" lon="6.66326">
        <ele>2017</ele>
        <time>2015-07-06T16:53:52+02:00</time>
      </trkpt>
      <trkpt lat="45.37096" lon="6.66336">
        <ele>2013</ele>
        <time>2015-07-06T16:54:11+02:00</time>
      </trkpt>
      <trkpt lat="45.37111" lon="6.66347">
        <ele>2011</ele>
        <time>2015-07-06T16:54:30+02:00</time>
      </trkpt>
      <trkpt lat="45.37118" lon="6.66351">
        <ele>2010</ele>
        <time>2015-07-06T16:54:47+02:00</time>
      </trkpt>
      <trkpt lat="45.37125" lon="6.66348">
        <ele>2008</ele>
        <time>2015-07-06T16:55:05+02:00</time>
      </trkpt>
      <trkpt lat="45.37134" lon="6.66345">
        <ele>2007</ele>
        <time>2015-07-06T16:55:24+02:00</time>
      </trkpt>
      <trkpt lat="45.37133" lon="6.66345">
        <ele>2007</ele>
        <time>2015-07-06T16:55:45+02:00</time>
      </trkpt>
      <trkpt lat="45.3714" lon="6.66343">
        <ele>2006</ele>
        <time>2015-07-06T16:56:02+02:00</time>
      </trkpt>
      <trkpt lat="45.37148" lon="6.66337">
        <ele>2004</ele>
        <time>2015-07-06T16:56:15+02:00</time>
      </trkpt>
      <trkpt lat="45.37183" lon="6.66339">
        <ele>1999</ele>
        <time>2015-07-06T17:06:03+02:00</time>
      </trkpt>
      <trkpt lat="45.37192" lon="6.66345">
        <ele>1998</ele>
        <time>2015-07-06T17:06:18+02:00</time>
      </trkpt>
      <trkpt lat="45.37204" lon="6.66351">
        <ele>1997</ele>
        <time>2015-07-06T17:06:35+02:00</time>
      </trkpt>
      <trkpt lat="45.37222" lon="6.66356">
        <ele>1995</ele>
        <time>2015-07-06T17:06:56+02:00</time>
      </trkpt>
      <trkpt lat="45.37238" lon="6.66361">
        <ele>1993</ele>
        <time>2015-07-06T17:07:15+02:00</time>
      </trkpt>
      <trkpt lat="45.37252" lon="6.6637">
        <ele>1992</ele>
        <time>2015-07-06T17:07:32+02:00</time>
      </trkpt>
      <trkpt lat="45.37264" lon="6.66379">
        <ele>1990</ele>
        <time>2015-07-06T17:07:48+02:00</time>
      </trkpt>
      <trkpt lat="45.37276" lon="6.66388">
        <ele>1988</ele>
        <time>2015-07-06T17:08:06+02:00</time>
      </trkpt>
      <trkpt lat="45.37285" lon="6.66397">
        <ele>1985</ele>
        <time>2015-07-06T17:08:18+02:00</time>
      </trkpt>
      <trkpt lat="45.37292" lon="6.66404">
        <ele>1983</ele>
        <time>2015-07-06T17:08:27+02:00</time>
      </trkpt>
      <trkpt lat="45.3731" lon="6.6642">
        <ele>1976</ele>
        <time>2015-07-06T17:08:47+02:00</time>
      </trkpt>
      <trkpt lat="45.37314" lon="6.66423">
        <ele>1975</ele>
        <time>2015-07-06T17:08:52+02:00</time>
      </trkpt>
      <trkpt lat="45.37329" lon="6.66431">
        <ele>1972</ele>
        <time>2015-07-06T17:09:08+02:00</time>
      </trkpt>
      <trkpt lat="45.37329" lon="6.66431">
        <ele>1971</ele>
        <time>2015-07-06T17:09:09+02:00</time>
      </trkpt>
      <trkpt lat="45.37351" lon="6.66431">
        <ele>1968</ele>
        <time>2015-07-06T17:09:29+02:00</time>
      </trkpt>
      <trkpt lat="45.37365" lon="6.66431">
        <ele>1967</ele>
        <time>2015-07-06T17:09:44+02:00</time>
      </trkpt>
      <trkpt lat="45.37379" lon="6.66434">
        <ele>1965</ele>
        <time>2015-07-06T17:09:58+02:00</time>
      </trkpt>
      <trkpt lat="45.37387" lon="6.66438">
        <ele>1964</ele>
        <time>2015-07-06T17:10:05+02:00</time>
      </trkpt>
      <trkpt lat="45.37406" lon="6.66448">
        <ele>1961</ele>
        <time>2015-07-06T17:10:23+02:00</time>
      </trkpt>
      <trkpt lat="45.37413" lon="6.66451">
        <ele>1959</ele>
        <time>2015-07-06T17:10:30+02:00</time>
      </trkpt>
      <trkpt lat="45.37427" lon="6.66457">
        <ele>1957</ele>
        <time>2015-07-06T17:10:42+02:00</time>
      </trkpt>
      <trkpt lat="45.37432" lon="6.66462">
        <ele>1956</ele>
        <time>2015-07-06T17:10:47+02:00</time>
      </trkpt>
      <trkpt lat="45.37448" lon="6.66468">
        <ele>1954</ele>
        <time>2015-07-06T17:11:01+02:00</time>
      </trkpt>
      <trkpt lat="45.37466" lon="6.66475">
        <ele>1951</ele>
        <time>2015-07-06T17:11:18+02:00</time>
      </trkpt>
      <trkpt lat="45.37486" lon="6.66481">
        <ele>1947</ele>
        <time>2015-07-06T17:11:36+02:00</time>
      </trkpt>
      <trkpt lat="45.37496" lon="6.66486">
        <ele>1945</ele>
        <time>2015-07-06T17:11:45+02:00</time>
      </trkpt>
      <trkpt lat="45.37505" lon="6.66494">
        <ele>1942</ele>
        <time>2015-07-06T17:11:54+02:00</time>
      </trkpt>
      <trkpt lat="45.37519" lon="6.66502">
        <ele>1940</ele>
        <time>2015-07-06T17:12:06+02:00</time>
      </trkpt>
      <trkpt lat="45.37536" lon="6.66513">
        <ele>1942</ele>
        <time>2015-07-06T17:12:23+02:00</time>
      </trkpt>
      <trkpt lat="45.37554" lon="6.66528">
        <ele>1942</ele>
        <time>2015-07-06T17:12:40+02:00</time>
      </trkpt>
      <trkpt lat="45.37576" lon="6.66544">
        <ele>1938</ele>
        <time>2015-07-06T17:12:59+02:00</time>
      </trkpt>
      <trkpt lat="45.37597" lon="6.66557">
        <ele>1935</ele>
        <time>2015-07-06T17:13:18+02:00</time>
      </trkpt>
      <trkpt lat="45.37615" lon="6.6657">
        <ele>1932</ele>
        <time>2015-07-06T17:13:35+02:00</time>
      </trkpt>
      <trkpt lat="45.37633" lon="6.66583">
        <ele>1927</ele>
        <time>2015-07-06T17:13:54+02:00</time>
      </trkpt>
      <trkpt lat="45.37643" lon="6.66589">
        <ele>1926</ele>
        <time>2015-07-06T17:14:24+02:00</time>
      </trkpt>
      <trkpt lat="45.37654" lon="6.66595">
        <ele>1925</ele>
        <time>2015-07-06T17:15:05+02:00</time>
      </trkpt>
      <trkpt lat="45.37662" lon="6.66604">
        <ele>1924</ele>
        <time>2015-07-06T17:15:17+02:00</time>
      </trkpt>
      <trkpt lat="45.37669" lon="6.66621">
        <ele>1923</ele>
        <time>2015-07-06T17:15:30+02:00</time>
      </trkpt>
      <trkpt lat="45.37684" lon="6.66639">
        <ele>1922</ele>
        <time>2015-07-06T17:15:49+02:00</time>
      </trkpt>
      <trkpt lat="45.3769" lon="6.66645">
        <ele>1921</ele>
        <time>2015-07-06T17:15:57+02:00</time>
      </trkpt>
      <trkpt lat="45.37705" lon="6.66664">
        <ele>1918</ele>
        <time>2015-07-06T17:16:15+02:00</time>
      </trkpt>
      <trkpt lat="45.37706" lon="6.66665">
        <ele>1918</ele>
        <time>2015-07-06T17:16:16+02:00</time>
      </trkpt>
      <trkpt lat="45.37712" lon="6.66674">
        <ele>1918</ele>
        <time>2015-07-06T17:16:23+02:00</time>
      </trkpt>
      <trkpt lat="45.37727" lon="6.66696">
        <ele>1916</ele>
        <time>2015-07-06T17:16:42+02:00</time>
      </trkpt>
      <trkpt lat="45.37738" lon="6.66711">
        <ele>1914</ele>
        <time>2015-07-06T17:16:55+02:00</time>
      </trkpt>
      <trkpt lat="45.3775" lon="6.66726">
        <ele>1911</ele>
        <time>2015-07-06T17:17:11+02:00</time>
      </trkpt>
      <trkpt lat="45.37757" lon="6.66733">
        <ele>1910</ele>
        <time>2015-07-06T17:17:27+02:00</time>
      </trkpt>
      <trkpt lat="45.37779" lon="6.66742">
        <ele>1908</ele>
        <time>2015-07-06T17:17:48+02:00</time>
      </trkpt>
      <trkpt lat="45.37803" lon="6.66752">
        <ele>1905</ele>
        <time>2015-07-06T17:18:08+02:00</time>
      </trkpt>
      <trkpt lat="45.37811" lon="6.66756">
        <ele>1904</ele>
        <time>2015-07-06T17:18:16+02:00</time>
      </trkpt>
      <trkpt lat="45.37833" lon="6.66764">
        <ele>1902</ele>
        <time>2015-07-06T17:18:36+02:00</time>
      </trkpt>
      <trkpt lat="45.37854" lon="6.66773">
        <ele>1901</ele>
        <time>2015-07-06T17:18:58+02:00</time>
      </trkpt>
      <trkpt lat="45.37872" lon="6.66782">
        <ele>1901</ele>
        <time>2015-07-06T17:19:15+02:00</time>
      </trkpt>
      <trkpt lat="45.37893" lon="6.66791">
        <ele>1900</ele>
        <time>2015-07-06T17:19:34+02:00</time>
      </trkpt>
      <trkpt lat="45.37903" lon="6.66797">
        <ele>1900</ele>
        <time>2015-07-06T17:19:48+02:00</time>
      </trkpt>
      <trkpt lat="45.37915" lon="6.66809">
        <ele>1900</ele>
        <time>2015-07-06T17:20:03+02:00</time>
      </trkpt>
      <trkpt lat="45.37926" lon="6.66827">
        <ele>1900</ele>
        <time>2015-07-06T17:20:20+02:00</time>
      </trkpt>
      <trkpt lat="45.3793" lon="6.66834">
        <ele>1900</ele>
        <time>2015-07-06T17:20:27+02:00</time>
      </trkpt>
      <trkpt lat="45.37939" lon="6.66852">
        <ele>1900</ele>
        <time>2015-07-06T17:20:44+02:00</time>
      </trkpt>
      <trkpt lat="45.3794" lon="6.66852">
        <ele>1900</ele>
        <time>2015-07-06T17:21:02+02:00</time>
      </trkpt>
      <trkpt lat="45.37947" lon="6.66864">
        <ele>1901</ele>
        <time>2015-07-06T17:21:17+02:00</time>
      </trkpt>
      <trkpt lat="45.37948" lon="6.66868">
        <ele>1901</ele>
        <time>2015-07-06T17:21:40+02:00</time>
      </trkpt>
      <trkpt lat="45.37951" lon="6.66873">
        <ele>1901</ele>
        <time>2015-07-06T17:21:55+02:00</time>
      </trkpt>
      <trkpt lat="45.37958" lon="6.66881">
        <ele>1901</ele>
        <time>2015-07-06T17:22:10+02:00</time>
      </trkpt>
      <trkpt lat="45.37957" lon="6.66883">
        <ele>1901</ele>
        <time>2015-07-06T17:22:24+02:00</time>
      </trkpt>
      <trkpt lat="45.37955" lon="6.66883">
        <ele>1901</ele>
        <time>2015-07-06T17:22:40+02:00</time>
      </trkpt>
      <trkpt lat="45.37954" lon="6.66883">
        <ele>1901</ele>
        <time>2015-07-06T17:23:25+02:00</time>
      </trkpt>
      <trkpt lat="45.37978" lon="6.66879">
        <ele>1900</ele>
        <time>2015-07-06T17:24:31+02:00</time>
      </trkpt>
      <trkpt lat="45.37992" lon="6.66879">
        <ele>1899</ele>
        <time>2015-07-06T17:24:46+02:00</time>
      </trkpt>
      <trkpt lat="45.38006" lon="6.66881">
        <ele>1898</ele>
        <time>2015-07-06T17:25:02+02:00</time>
      </trkpt>
      <trkpt lat="45.38027" lon="6.66888">
        <ele>1898</ele>
        <time>2015-07-06T17:25:22+02:00</time>
      </trkpt>
      <trkpt lat="45.38043" lon="6.66896">
        <ele>1897</ele>
        <time>2015-07-06T17:25:39+02:00</time>
      </trkpt>
      <trkpt lat="45.38065" lon="6.6691">
        <ele>1895</ele>
        <time>2015-07-06T17:26:00+02:00</time>
      </trkpt>
      <trkpt lat="45.38083" lon="6.6692">
        <ele>1895</ele>
        <time>2015-07-06T17:26:18+02:00</time>
      </trkpt>
      <trkpt lat="45.38107" lon="6.66941">
        <ele>1898</ele>
        <time>2015-07-06T17:26:40+02:00</time>
      </trkpt>
      <trkpt lat="45.38108" lon="6.66942">
        <ele>1898</ele>
        <time>2015-07-06T17:26:41+02:00</time>
      </trkpt>
      <trkpt lat="45.38124" lon="6.6696">
        <ele>1899</ele>
        <time>2015-07-06T17:26:57+02:00</time>
      </trkpt>
      <trkpt lat="45.3814" lon="6.66982">
        <ele>1898</ele>
        <time>2015-07-06T17:27:15+02:00</time>
      </trkpt>
      <trkpt lat="45.38153" lon="6.67">
        <ele>1896</ele>
        <time>2015-07-06T17:27:31+02:00</time>
      </trkpt>
      <trkpt lat="45.38168" lon="6.67021">
        <ele>1901</ele>
        <time>2015-07-06T17:27:48+02:00</time>
      </trkpt>
      <trkpt lat="45.3818" lon="6.6704">
        <ele>1905</ele>
        <time>2015-07-06T17:28:05+02:00</time>
      </trkpt>
      <trkpt lat="45.38192" lon="6.67051">
        <ele>1904</ele>
        <time>2015-07-06T17:28:18+02:00</time>
      </trkpt>
      <trkpt lat="45.38207" lon="6.6706">
        <ele>1902</ele>
        <time>2015-07-06T17:28:35+02:00</time>
      </trkpt>
      <trkpt lat="45.38212" lon="6.67064">
        <ele>1900</ele>
        <time>2015-07-06T17:28:41+02:00</time>
      </trkpt>
      <trkpt lat="45.38222" lon="6.67086">
        <ele>1897</ele>
        <time>2015-07-06T17:28:59+02:00</time>
      </trkpt>
      <trkpt lat="45.38226" lon="6.67098">
        <ele>1896</ele>
        <time>2015-07-06T17:29:08+02:00</time>
      </trkpt>
      <trkpt lat="45.38233" lon="6.6712">
        <ele>1893</ele>
        <time>2015-07-06T17:29:21+02:00</time>
      </trkpt>
      <trkpt lat="45.38234" lon="6.67121">
        <ele>1892</ele>
        <time>2015-07-06T17:29:24+02:00</time>
      </trkpt>
      <trkpt lat="45.38249" lon="6.67132">
        <ele>1886</ele>
        <time>2015-07-06T17:29:42+02:00</time>
      </trkpt>
      <trkpt lat="45.3826" lon="6.67139">
        <ele>1885</ele>
        <time>2015-07-06T17:29:57+02:00</time>
      </trkpt>
      <trkpt lat="45.38276" lon="6.6716">
        <ele>1884</ele>
        <time>2015-07-06T17:30:16+02:00</time>
      </trkpt>
      <trkpt lat="45.38298" lon="6.67171">
        <ele>1882</ele>
        <time>2015-07-06T17:30:36+02:00</time>
      </trkpt>
      <trkpt lat="45.38318" lon="6.67176">
        <ele>1881</ele>
        <time>2015-07-06T17:30:53+02:00</time>
      </trkpt>
      <trkpt lat="45.38334" lon="6.67181">
        <ele>1880</ele>
        <time>2015-07-06T17:31:07+02:00</time>
      </trkpt>
      <trkpt lat="45.38348" lon="6.67195">
        <ele>1880</ele>
        <time>2015-07-06T17:31:24+02:00</time>
      </trkpt>
      <trkpt lat="45.3836" lon="6.67211">
        <ele>1880</ele>
        <time>2015-07-06T17:31:39+02:00</time>
      </trkpt>
      <trkpt lat="45.38366" lon="6.67216">
        <ele>1880</ele>
        <time>2015-07-06T17:31:44+02:00</time>
      </trkpt>
      <trkpt lat="45.38378" lon="6.67241">
        <ele>1880</ele>
        <time>2015-07-06T17:32:03+02:00</time>
      </trkpt>
      <trkpt lat="45.38382" lon="6.6725">
        <ele>1880</ele>
        <time>2015-07-06T17:32:17+02:00</time>
      </trkpt>
      <trkpt lat="45.38382" lon="6.67251">
        <ele>1880</ele>
        <time>2015-07-06T17:32:39+02:00</time>
      </trkpt>
      <trkpt lat="45.38388" lon="6.67259">
        <ele>1881</ele>
        <time>2015-07-06T17:33:10+02:00</time>
      </trkpt>
      <trkpt lat="45.38393" lon="6.67267">
        <ele>1883</ele>
        <time>2015-07-06T17:33:23+02:00</time>
      </trkpt>
      <trkpt lat="45.38401" lon="6.67268">
        <ele>1882</ele>
        <time>2015-07-06T17:33:34+02:00</time>
      </trkpt>
      <trkpt lat="45.38414" lon="6.67262">
        <ele>1879</ele>
        <time>2015-07-06T17:33:48+02:00</time>
      </trkpt>
      <trkpt lat="45.38419" lon="6.67258">
        <ele>1878</ele>
        <time>2015-07-06T17:33:53+02:00</time>
      </trkpt>
      <trkpt lat="45.38436" lon="6.67247">
        <ele>1873</ele>
        <time>2015-07-06T17:34:12+02:00</time>
      </trkpt>
      <trkpt lat="45.38454" lon="6.67243">
        <ele>1870</ele>
        <time>2015-07-06T17:34:29+02:00</time>
      </trkpt>
      <trkpt lat="45.38459" lon="6.67241">
        <ele>1869</ele>
        <time>2015-07-06T17:34:40+02:00</time>
      </trkpt>
      <trkpt lat="45.38478" lon="6.67234">
        <ele>1866</ele>
        <time>2015-07-06T17:34:58+02:00</time>
      </trkpt>
      <trkpt lat="45.38491" lon="6.67234">
        <ele>1865</ele>
        <time>2015-07-06T17:35:10+02:00</time>
      </trkpt>
      <trkpt lat="45.38513" lon="6.67226">
        <ele>1861</ele>
        <time>2015-07-06T17:35:30+02:00</time>
      </trkpt>
      <trkpt lat="45.38534" lon="6.67225">
        <ele>1859</ele>
        <time>2015-07-06T17:35:49+02:00</time>
      </trkpt>
      <trkpt lat="45.38552" lon="6.67226">
        <ele>1857</ele>
        <time>2015-07-06T17:36:07+02:00</time>
      </trkpt>
      <trkpt lat="45.3857" lon="6.67232">
        <ele>1855</ele>
        <time>2015-07-06T17:36:25+02:00</time>
      </trkpt>
      <trkpt lat="45.38588" lon="6.67235">
        <ele>1852</ele>
        <time>2015-07-06T17:36:42+02:00</time>
      </trkpt>
      <trkpt lat="45.38604" lon="6.67242">
        <ele>1850</ele>
        <time>2015-07-06T17:37:01+02:00</time>
      </trkpt>
      <trkpt lat="45.38616" lon="6.67246">
        <ele>1848</ele>
        <time>2015-07-06T17:37:13+02:00</time>
      </trkpt>
      <trkpt lat="45.38621" lon="6.67246">
        <ele>1847</ele>
        <time>2015-07-06T17:37:17+02:00</time>
      </trkpt>
      <trkpt lat="45.38645" lon="6.67248">
        <ele>1843</ele>
        <time>2015-07-06T17:37:37+02:00</time>
      </trkpt>
      <trkpt lat="45.38666" lon="6.67239">
        <ele>1841</ele>
        <time>2015-07-06T17:37:55+02:00</time>
      </trkpt>
      <trkpt lat="45.38682" lon="6.67239">
        <ele>1840</ele>
        <time>2015-07-06T17:38:09+02:00</time>
      </trkpt>
      <trkpt lat="45.38703" lon="6.67242">
        <ele>1837</ele>
        <time>2015-07-06T17:38:26+02:00</time>
      </trkpt>
      <trkpt lat="45.38704" lon="6.67242">
        <ele>1837</ele>
        <time>2015-07-06T17:38:27+02:00</time>
      </trkpt>
      <trkpt lat="45.3871" lon="6.67238">
        <ele>1837</ele>
        <time>2015-07-06T17:38:33+02:00</time>
      </trkpt>
      <trkpt lat="45.38721" lon="6.67223">
        <ele>1838</ele>
        <time>2015-07-06T17:38:49+02:00</time>
      </trkpt>
      <trkpt lat="45.38729" lon="6.6722">
        <ele>1838</ele>
        <time>2015-07-06T17:38:56+02:00</time>
      </trkpt>
      <trkpt lat="45.38746" lon="6.67214">
        <ele>1837</ele>
        <time>2015-07-06T17:39:12+02:00</time>
      </trkpt>
      <trkpt lat="45.38768" lon="6.67209">
        <ele>1836</ele>
        <time>2015-07-06T17:39:30+02:00</time>
      </trkpt>
      <trkpt lat="45.38787" lon="6.67207">
        <ele>1834</ele>
        <time>2015-07-06T17:39:47+02:00</time>
      </trkpt>
      <trkpt lat="45.38805" lon="6.67213">
        <ele>1831</ele>
        <time>2015-07-06T17:40:03+02:00</time>
      </trkpt>
      <trkpt lat="45.38824" lon="6.67218">
        <ele>1828</ele>
        <time>2015-07-06T17:40:19+02:00</time>
      </trkpt>
      <trkpt lat="45.38843" lon="6.67228">
        <ele>1825</ele>
        <time>2015-07-06T17:40:36+02:00</time>
      </trkpt>
      <trkpt lat="45.38863" lon="6.67241">
        <ele>1821</ele>
        <time>2015-07-06T17:40:53+02:00</time>
      </trkpt>
      <trkpt lat="45.38879" lon="6.67247">
        <ele>1819</ele>
        <time>2015-07-06T17:41:09+02:00</time>
      </trkpt>
      <trkpt lat="45.38898" lon="6.67253">
        <ele>1818</ele>
        <time>2015-07-06T17:41:26+02:00</time>
      </trkpt>
      <trkpt lat="45.3892" lon="6.67258">
        <ele>1816</ele>
        <time>2015-07-06T17:41:44+02:00</time>
      </trkpt>
      <trkpt lat="45.38939" lon="6.67264">
        <ele>1816</ele>
        <time>2015-07-06T17:42:01+02:00</time>
      </trkpt>
      <trkpt lat="45.38941" lon="6.67264">
        <ele>1816</ele>
        <time>2015-07-06T17:42:03+02:00</time>
      </trkpt>
      <trkpt lat="45.38962" lon="6.67266">
        <ele>1816</ele>
        <time>2015-07-06T17:42:22+02:00</time>
      </trkpt>
      <trkpt lat="45.38977" lon="6.67267">
        <ele>1816</ele>
        <time>2015-07-06T17:42:38+02:00</time>
      </trkpt>
      <trkpt lat="45.38994" lon="6.67268">
        <ele>1816</ele>
        <time>2015-07-06T17:42:54+02:00</time>
      </trkpt>
      <trkpt lat="45.39014" lon="6.67277">
        <ele>1814</ele>
        <time>2015-07-06T17:43:13+02:00</time>
      </trkpt>
      <trkpt lat="45.39037" lon="6.67289">
        <ele>1811</ele>
        <time>2015-07-06T17:43:36+02:00</time>
      </trkpt>
      <trkpt lat="45.39057" lon="6.67295">
        <ele>1810</ele>
        <time>2015-07-06T17:43:54+02:00</time>
      </trkpt>
      <trkpt lat="45.39074" lon="6.67297">
        <ele>1809</ele>
        <time>2015-07-06T17:44:11+02:00</time>
      </trkpt>
      <trkpt lat="45.39078" lon="6.67297">
        <ele>1809</ele>
        <time>2015-07-06T17:44:14+02:00</time>
      </trkpt>
      <trkpt lat="45.39098" lon="6.67297">
        <ele>1808</ele>
        <time>2015-07-06T17:44:31+02:00</time>
      </trkpt>
      <trkpt lat="45.39114" lon="6.67301">
        <ele>1806</ele>
        <time>2015-07-06T17:44:49+02:00</time>
      </trkpt>
      <trkpt lat="45.39127" lon="6.67304">
        <ele>1804</ele>
        <time>2015-07-06T17:45:02+02:00</time>
      </trkpt>
      <trkpt lat="45.39138" lon="6.67307">
        <ele>1803</ele>
        <time>2015-07-06T17:45:16+02:00</time>
      </trkpt>
      <trkpt lat="45.39152" lon="6.67314">
        <ele>1800</ele>
        <time>2015-07-06T17:45:32+02:00</time>
      </trkpt>
      <trkpt lat="45.39162" lon="6.67323">
        <ele>1795</ele>
        <time>2015-07-06T17:45:47+02:00</time>
      </trkpt>
      <trkpt lat="45.3917" lon="6.67331">
        <ele>1792</ele>
        <time>2015-07-06T17:46:03+02:00</time>
      </trkpt>
      <trkpt lat="45.3918" lon="6.67337">
        <ele>1790</ele>
        <time>2015-07-06T17:46:18+02:00</time>
      </trkpt>
      <trkpt lat="45.39187" lon="6.67339">
        <ele>1789</ele>
        <time>2015-07-06T17:46:32+02:00</time>
      </trkpt>
      <trkpt lat="45.39195" lon="6.67339">
        <ele>1788</ele>
        <time>2015-07-06T17:46:47+02:00</time>
      </trkpt>
      <trkpt lat="45.39202" lon="6.6734">
        <ele>1788</ele>
        <time>2015-07-06T17:47:01+02:00</time>
      </trkpt>
      <trkpt lat="45.39211" lon="6.67339">
        <ele>1787</ele>
        <time>2015-07-06T17:47:16+02:00</time>
      </trkpt>
      <trkpt lat="45.39224" lon="6.67339">
        <ele>1785</ele>
        <time>2015-07-06T17:47:30+02:00</time>
      </trkpt>
      <trkpt lat="45.3924" lon="6.67344">
        <ele>1783</ele>
        <time>2015-07-06T17:47:47+02:00</time>
      </trkpt>
      <trkpt lat="45.39252" lon="6.67348">
        <ele>1782</ele>
        <time>2015-07-06T17:48:04+02:00</time>
      </trkpt>
      <trkpt lat="45.39262" lon="6.67347">
        <ele>1781</ele>
        <time>2015-07-06T17:48:20+02:00</time>
      </trkpt>
      <trkpt lat="45.39281" lon="6.67354">
        <ele>1779</ele>
        <time>2015-07-06T17:48:40+02:00</time>
      </trkpt>
      <trkpt lat="45.39303" lon="6.67367">
        <ele>1776</ele>
        <time>2015-07-06T17:48:59+02:00</time>
      </trkpt>
      <trkpt lat="45.39323" lon="6.67375">
        <ele>1774</ele>
        <time>2015-07-06T17:49:16+02:00</time>
      </trkpt>
      <trkpt lat="45.39338" lon="6.67381">
        <ele>1773</ele>
        <time>2015-07-06T17:49:30+02:00</time>
      </trkpt>
      <trkpt lat="45.39361" lon="6.67391">
        <ele>1773</ele>
        <time>2015-07-06T17:49:51+02:00</time>
      </trkpt>
      <trkpt lat="45.3938" lon="6.67399">
        <ele>1772</ele>
        <time>2015-07-06T17:50:10+02:00</time>
      </trkpt>
      <trkpt lat="45.39399" lon="6.6741">
        <ele>1771</ele>
        <time>2015-07-06T17:50:30+02:00</time>
      </trkpt>
      <trkpt lat="45.39419" lon="6.67421">
        <ele>1771</ele>
        <time>2015-07-06T17:50:48+02:00</time>
      </trkpt>
      <trkpt lat="45.39438" lon="6.6743">
        <ele>1773</ele>
        <time>2015-07-06T17:51:04+02:00</time>
      </trkpt>
      <trkpt lat="45.3945" lon="6.67439">
        <ele>1774</ele>
        <time>2015-07-06T17:51:22+02:00</time>
      </trkpt>
      <trkpt lat="45.39465" lon="6.67449">
        <ele>1775</ele>
        <time>2015-07-06T17:55:20+02:00</time>
      </trkpt>
      <trkpt lat="45.39476" lon="6.67453">
        <ele>1775</ele>
        <time>2015-07-06T17:55:35+02:00</time>
      </trkpt>
      <trkpt lat="45.39488" lon="6.67455">
        <ele>1775</ele>
        <time>2015-07-06T17:55:50+02:00</time>
      </trkpt>
      <trkpt lat="45.395" lon="6.67453">
        <ele>1775</ele>
        <time>2015-07-06T17:56:05+02:00</time>
      </trkpt>
      <trkpt lat="45.39512" lon="6.67453">
        <ele>1777</ele>
        <time>2015-07-06T17:56:21+02:00</time>
      </trkpt>
      <trkpt lat="45.3953" lon="6.67453">
        <ele>1781</ele>
        <time>2015-07-06T17:56:38+02:00</time>
      </trkpt>
      <trkpt lat="45.39541" lon="6.6745">
        <ele>1783</ele>
        <time>2015-07-06T17:56:53+02:00</time>
      </trkpt>
      <trkpt lat="45.3956" lon="6.67455">
        <ele>1786</ele>
        <time>2015-07-06T17:57:11+02:00</time>
      </trkpt>
      <trkpt lat="45.39576" lon="6.67457">
        <ele>1789</ele>
        <time>2015-07-06T17:57:27+02:00</time>
      </trkpt>
      <trkpt lat="45.39593" lon="6.6746">
        <ele>1790</ele>
        <time>2015-07-06T17:57:43+02:00</time>
      </trkpt>
      <trkpt lat="45.39611" lon="6.67465">
        <ele>1788</ele>
        <time>2015-07-06T17:58:02+02:00</time>
      </trkpt>
      <trkpt lat="45.39632" lon="6.67468">
        <ele>1786</ele>
        <time>2015-07-06T17:58:16+02:00</time>
      </trkpt>
      <trkpt lat="45.39646" lon="6.67469">
        <ele>1785</ele>
        <time>2015-07-06T17:58:29+02:00</time>
      </trkpt>
      <trkpt lat="45.39668" lon="6.67476">
        <ele>1781</ele>
        <time>2015-07-06T17:58:50+02:00</time>
      </trkpt>
      <trkpt lat="45.39686" lon="6.6748">
        <ele>1780</ele>
        <time>2015-07-06T17:59:08+02:00</time>
      </trkpt>
      <trkpt lat="45.39695" lon="6.67481">
        <ele>1780</ele>
        <time>2015-07-06T17:59:18+02:00</time>
      </trkpt>
      <trkpt lat="45.39714" lon="6.6748">
        <ele>1782</ele>
        <time>2015-07-06T17:59:36+02:00</time>
      </trkpt>
      <trkpt lat="45.3973" lon="6.67476">
        <ele>1786</ele>
        <time>2015-07-06T17:59:51+02:00</time>
      </trkpt>
      <trkpt lat="45.3975" lon="6.67469">
        <ele>1791</ele>
        <time>2015-07-06T18:00:08+02:00</time>
      </trkpt>
      <trkpt lat="45.39758" lon="6.67468">
        <ele>1791</ele>
        <time>2015-07-06T18:00:18+02:00</time>
      </trkpt>
      <trkpt lat="45.39774" lon="6.67464">
        <ele>1793</ele>
        <time>2015-07-06T18:00:33+02:00</time>
      </trkpt>
      <trkpt lat="45.39782" lon="6.67464">
        <ele>1793</ele>
        <time>2015-07-06T18:00:41+02:00</time>
      </trkpt>
      <trkpt lat="45.3979" lon="6.67462">
        <ele>1794</ele>
        <time>2015-07-06T18:00:49+02:00</time>
      </trkpt>
      <trkpt lat="45.3981" lon="6.67463">
        <ele>1793</ele>
        <time>2015-07-06T18:01:05+02:00</time>
      </trkpt>
      <trkpt lat="45.3982" lon="6.67462">
        <ele>1793</ele>
        <time>2015-07-06T18:01:13+02:00</time>
      </trkpt>
      <trkpt lat="45.39835" lon="6.67461">
        <ele>1793</ele>
        <time>2015-07-06T18:01:25+02:00</time>
      </trkpt>
      <trkpt lat="45.39843" lon="6.67462">
        <ele>1792</ele>
        <time>2015-07-06T18:01:32+02:00</time>
      </trkpt>
      <trkpt lat="45.39857" lon="6.67463">
        <ele>1791</ele>
        <time>2015-07-06T18:01:48+02:00</time>
      </trkpt>
      <trkpt lat="45.39875" lon="6.67466">
        <ele>1788</ele>
        <time>2015-07-06T18:02:06+02:00</time>
      </trkpt>
      <trkpt lat="45.3989" lon="6.67469">
        <ele>1785</ele>
        <time>2015-07-06T18:02:23+02:00</time>
      </trkpt>
      <trkpt lat="45.39907" lon="6.67474">
        <ele>1781</ele>
        <time>2015-07-06T18:02:39+02:00</time>
      </trkpt>
      <trkpt lat="45.39924" lon="6.67472">
        <ele>1784</ele>
        <time>2015-07-06T18:02:55+02:00</time>
      </trkpt>
      <trkpt lat="45.39938" lon="6.67476">
        <ele>1783</ele>
        <time>2015-07-06T18:03:12+02:00</time>
      </trkpt>
      <trkpt lat="45.39947" lon="6.67475">
        <ele>1785</ele>
        <time>2015-07-06T18:03:25+02:00</time>
      </trkpt>
      <trkpt lat="45.39958" lon="6.6748">
        <ele>1783</ele>
        <time>2015-07-06T18:03:43+02:00</time>
      </trkpt>
      <trkpt lat="45.39974" lon="6.67494">
        <ele>1778</ele>
        <time>2015-07-06T18:04:01+02:00</time>
      </trkpt>
      <trkpt lat="45.39987" lon="6.67501">
        <ele>1776</ele>
        <time>2015-07-06T18:04:32+02:00</time>
      </trkpt>
      <trkpt lat="45.39997" lon="6.67501">
        <ele>1778</ele>
        <time>2015-07-06T18:09:47+02:00</time>
      </trkpt>
      <trkpt lat="45.40008" lon="6.67496">
        <ele>1781</ele>
        <time>2015-07-06T18:10:01+02:00</time>
      </trkpt>
      <trkpt lat="45.40015" lon="6.67493">
        <ele>1782</ele>
        <time>2015-07-06T18:10:10+02:00</time>
      </trkpt>
      <trkpt lat="45.40021" lon="6.67489">
        <ele>1784</ele>
        <time>2015-07-06T18:10:17+02:00</time>
      </trkpt>
      <trkpt lat="45.40035" lon="6.67478">
        <ele>1788</ele>
        <time>2015-07-06T18:10:33+02:00</time>
      </trkpt>
      <trkpt lat="45.40046" lon="6.67471">
        <ele>1789</ele>
        <time>2015-07-06T18:10:48+02:00</time>
      </trkpt>
      <trkpt lat="45.40055" lon="6.67464">
        <ele>1791</ele>
        <time>2015-07-06T18:10:58+02:00</time>
      </trkpt>
      <trkpt lat="45.40069" lon="6.67452">
        <ele>1794</ele>
        <time>2015-07-06T18:11:14+02:00</time>
      </trkpt>
      <trkpt lat="45.40081" lon="6.67435">
        <ele>1799</ele>
        <time>2015-07-06T18:11:30+02:00</time>
      </trkpt>
      <trkpt lat="45.4009" lon="6.67421">
        <ele>1799</ele>
        <time>2015-07-06T18:11:43+02:00</time>
      </trkpt>
      <trkpt lat="45.40099" lon="6.67409">
        <ele>1799</ele>
        <time>2015-07-06T18:11:55+02:00</time>
      </trkpt>
      <trkpt lat="45.40109" lon="6.67395">
        <ele>1798</ele>
        <time>2015-07-06T18:12:10+02:00</time>
      </trkpt>
      <trkpt lat="45.4011" lon="6.67394">
        <ele>1798</ele>
        <time>2015-07-06T18:12:11+02:00</time>
      </trkpt>
      <trkpt lat="45.40122" lon="6.67377">
        <ele>1795</ele>
        <time>2015-07-06T18:12:27+02:00</time>
      </trkpt>
      <trkpt lat="45.40132" lon="6.67356">
        <ele>1796</ele>
        <time>2015-07-06T18:12:44+02:00</time>
      </trkpt>
      <trkpt lat="45.40133" lon="6.67351">
        <ele>1796</ele>
        <time>2015-07-06T18:12:48+02:00</time>
      </trkpt>
      <trkpt lat="45.40137" lon="6.67322">
        <ele>1798</ele>
        <time>2015-07-06T18:13:04+02:00</time>
      </trkpt>
      <trkpt lat="45.40135" lon="6.67302">
        <ele>1798</ele>
        <time>2015-07-06T18:13:19+02:00</time>
      </trkpt>
      <trkpt lat="45.40135" lon="6.67299">
        <ele>1798</ele>
        <time>2015-07-06T18:13:21+02:00</time>
      </trkpt>
      <trkpt lat="45.40138" lon="6.67279">
        <ele>1794</ele>
        <time>2015-07-06T18:13:30+02:00</time>
      </trkpt>
      <trkpt lat="45.40139" lon="6.67255">
        <ele>1791</ele>
        <time>2015-07-06T18:13:44+02:00</time>
      </trkpt>
      <trkpt lat="45.40143" lon="6.6723">
        <ele>1788</ele>
        <time>2015-07-06T18:13:58+02:00</time>
      </trkpt>
      <trkpt lat="45.40147" lon="6.67202">
        <ele>1786</ele>
        <time>2015-07-06T18:14:14+02:00</time>
      </trkpt>
      <trkpt lat="45.40154" lon="6.67179">
        <ele>1782</ele>
        <time>2015-07-06T18:14:31+02:00</time>
      </trkpt>
      <trkpt lat="45.40164" lon="6.67158">
        <ele>1778</ele>
        <time>2015-07-06T18:14:46+02:00</time>
      </trkpt>
      <trkpt lat="45.40176" lon="6.6714">
        <ele>1774</ele>
        <time>2015-07-06T18:15:00+02:00</time>
      </trkpt>
      <trkpt lat="45.40183" lon="6.67116">
        <ele>1774</ele>
        <time>2015-07-06T18:15:16+02:00</time>
      </trkpt>
      <trkpt lat="45.40194" lon="6.67095">
        <ele>1773</ele>
        <time>2015-07-06T18:15:30+02:00</time>
      </trkpt>
      <trkpt lat="45.40204" lon="6.67076">
        <ele>1772</ele>
        <time>2015-07-06T18:15:45+02:00</time>
      </trkpt>
      <trkpt lat="45.40214" lon="6.67056">
        <ele>1771</ele>
        <time>2015-07-06T18:15:59+02:00</time>
      </trkpt>
      <trkpt lat="45.40224" lon="6.67035">
        <ele>1770</ele>
        <time>2015-07-06T18:16:13+02:00</time>
      </trkpt>
      <trkpt lat="45.40234" lon="6.67014">
        <ele>1770</ele>
        <time>2015-07-06T18:16:29+02:00</time>
      </trkpt>
      <trkpt lat="45.40244" lon="6.66996">
        <ele>1770</ele>
        <time>2015-07-06T18:16:44+02:00</time>
      </trkpt>
      <trkpt lat="45.40256" lon="6.66974">
        <ele>1769</ele>
        <time>2015-07-06T18:17:00+02:00</time>
      </trkpt>
      <trkpt lat="45.40266" lon="6.66949">
        <ele>1769</ele>
        <time>2015-07-06T18:17:17+02:00</time>
      </trkpt>
      <trkpt lat="45.40267" lon="6.66948">
        <ele>1769</ele>
        <time>2015-07-06T18:17:18+02:00</time>
      </trkpt>
      <trkpt lat="45.40276" lon="6.66925">
        <ele>1769</ele>
        <time>2015-07-06T18:17:35+02:00</time>
      </trkpt>
      <trkpt lat="45.40284" lon="6.66896">
        <ele>1768</ele>
        <time>2015-07-06T18:17:53+02:00</time>
      </trkpt>
      <trkpt lat="45.40287" lon="6.66874">
        <ele>1767</ele>
        <time>2015-07-06T18:18:05+02:00</time>
      </trkpt>
      <trkpt lat="45.40286" lon="6.66869">
        <ele>1768</ele>
        <time>2015-07-06T18:18:09+02:00</time>
      </trkpt>
      <trkpt lat="45.40284" lon="6.66853">
        <ele>1769</ele>
        <time>2015-07-06T18:18:18+02:00</time>
      </trkpt>
      <trkpt lat="45.40285" lon="6.66837">
        <ele>1769</ele>
        <time>2015-07-06T18:18:29+02:00</time>
      </trkpt>
      <trkpt lat="45.40294" lon="6.66819">
        <ele>1768</ele>
        <time>2015-07-06T18:18:44+02:00</time>
      </trkpt>
      <trkpt lat="45.40296" lon="6.66817">
        <ele>1767</ele>
        <time>2015-07-06T18:18:46+02:00</time>
      </trkpt>
      <trkpt lat="45.40306" lon="6.66802">
        <ele>1766</ele>
        <time>2015-07-06T18:19:01+02:00</time>
      </trkpt>
      <trkpt lat="45.40314" lon="6.66784">
        <ele>1765</ele>
        <time>2015-07-06T18:19:22+02:00</time>
      </trkpt>
      <trkpt lat="45.40316" lon="6.66764">
        <ele>1767</ele>
        <time>2015-07-06T18:20:03+02:00</time>
      </trkpt>
      <trkpt lat="45.40316" lon="6.66736">
        <ele>1770</ele>
        <time>2015-07-06T18:20:21+02:00</time>
      </trkpt>
      <trkpt lat="45.40317" lon="6.66704">
        <ele>1773</ele>
        <time>2015-07-06T18:20:37+02:00</time>
      </trkpt>
      <trkpt lat="45.40324" lon="6.66681">
        <ele>1775</ele>
        <time>2015-07-06T18:20:54+02:00</time>
      </trkpt>
      <trkpt lat="45.40332" lon="6.66653">
        <ele>1776</ele>
        <time>2015-07-06T18:21:11+02:00</time>
      </trkpt>
      <trkpt lat="45.40335" lon="6.66629">
        <ele>1777</ele>
        <time>2015-07-06T18:21:26+02:00</time>
      </trkpt>
      <trkpt lat="45.40339" lon="6.66608">
        <ele>1776</ele>
        <time>2015-07-06T18:21:41+02:00</time>
      </trkpt>
      <trkpt lat="45.40342" lon="6.66593">
        <ele>1776</ele>
        <time>2015-07-06T18:21:52+02:00</time>
      </trkpt>
      <trkpt lat="45.40343" lon="6.66589">
        <ele>1775</ele>
        <time>2015-07-06T18:21:55+02:00</time>
      </trkpt>
      <trkpt lat="45.40348" lon="6.66572">
        <ele>1775</ele>
        <time>2015-07-06T18:22:06+02:00</time>
      </trkpt>
      <trkpt lat="45.40354" lon="6.66552">
        <ele>1774</ele>
        <time>2015-07-06T18:22:21+02:00</time>
      </trkpt>
      <trkpt lat="45.40364" lon="6.66528">
        <ele>1774</ele>
        <time>2015-07-06T18:22:36+02:00</time>
      </trkpt>
      <trkpt lat="45.40374" lon="6.66515">
        <ele>1772</ele>
        <time>2015-07-06T18:22:50+02:00</time>
      </trkpt>
      <trkpt lat="45.4039" lon="6.66504">
        <ele>1769</ele>
        <time>2015-07-06T18:23:05+02:00</time>
      </trkpt>
      <trkpt lat="45.40403" lon="6.66493">
        <ele>1767</ele>
        <time>2015-07-06T18:23:19+02:00</time>
      </trkpt>
      <trkpt lat="45.40417" lon="6.6648">
        <ele>1764</ele>
        <time>2015-07-06T18:23:31+02:00</time>
      </trkpt>
      <trkpt lat="45.40424" lon="6.66475">
        <ele>1763</ele>
        <time>2015-07-06T18:23:37+02:00</time>
      </trkpt>
      <trkpt lat="45.40443" lon="6.66467">
        <ele>1758</ele>
        <time>2015-07-06T18:23:55+02:00</time>
      </trkpt>
      <trkpt lat="45.4045" lon="6.66464">
        <ele>1757</ele>
        <time>2015-07-06T18:24:01+02:00</time>
      </trkpt>
      <trkpt lat="45.40459" lon="6.66462">
        <ele>1755</ele>
        <time>2015-07-06T18:24:08+02:00</time>
      </trkpt>
      <trkpt lat="45.40476" lon="6.66458">
        <ele>1751</ele>
        <time>2015-07-06T18:24:26+02:00</time>
      </trkpt>
      <trkpt lat="45.40491" lon="6.66446">
        <ele>1750</ele>
        <time>2015-07-06T18:24:41+02:00</time>
      </trkpt>
      <trkpt lat="45.40501" lon="6.66432">
        <ele>1752</ele>
        <time>2015-07-06T18:24:56+02:00</time>
      </trkpt>
      <trkpt lat="45.40509" lon="6.6642">
        <ele>1754</ele>
        <time>2015-07-06T18:25:18+02:00</time>
      </trkpt>
      <trkpt lat="45.4052" lon="6.66409">
        <ele>1752</ele>
        <time>2015-07-06T18:25:36+02:00</time>
      </trkpt>
      <trkpt lat="45.40526" lon="6.66397">
        <ele>1751</ele>
        <time>2015-07-06T18:25:49+02:00</time>
      </trkpt>
      <trkpt lat="45.40534" lon="6.66386">
        <ele>1750</ele>
        <time>2015-07-06T18:26:06+02:00</time>
      </trkpt>
      <trkpt lat="45.40541" lon="6.66374">
        <ele>1750</ele>
        <time>2015-07-06T18:26:21+02:00</time>
      </trkpt>
      <trkpt lat="45.40541" lon="6.66373">
        <ele>1749</ele>
        <time>2015-07-06T18:26:24+02:00</time>
      </trkpt>
      <trkpt lat="45.40557" lon="6.66361">
        <ele>1747</ele>
        <time>2015-07-06T18:26:41+02:00</time>
      </trkpt>
      <trkpt lat="45.40569" lon="6.66349">
        <ele>1746</ele>
        <time>2015-07-06T18:26:56+02:00</time>
      </trkpt>
      <trkpt lat="45.40576" lon="6.66342">
        <ele>1745</ele>
        <time>2015-07-06T18:27:06+02:00</time>
      </trkpt>
      <trkpt lat="45.40589" lon="6.66324">
        <ele>1743</ele>
        <time>2015-07-06T18:27:23+02:00</time>
      </trkpt>
      <trkpt lat="45.40594" lon="6.66315">
        <ele>1743</ele>
        <time>2015-07-06T18:27:30+02:00</time>
      </trkpt>
      <trkpt lat="45.40598" lon="6.6631">
        <ele>1742</ele>
        <time>2015-07-06T18:27:35+02:00</time>
      </trkpt>
      <trkpt lat="45.40607" lon="6.66301">
        <ele>1740</ele>
        <time>2015-07-06T18:27:48+02:00</time>
      </trkpt>
      <trkpt lat="45.40615" lon="6.66287">
        <ele>1738</ele>
        <time>2015-07-06T18:28:02+02:00</time>
      </trkpt>
      <trkpt lat="45.40622" lon="6.66277">
        <ele>1737</ele>
        <time>2015-07-06T18:28:12+02:00</time>
      </trkpt>
      <trkpt lat="45.40635" lon="6.66259">
        <ele>1736</ele>
        <time>2015-07-06T18:28:30+02:00</time>
      </trkpt>
      <trkpt lat="45.40648" lon="6.6624">
        <ele>1735</ele>
        <time>2015-07-06T18:28:46+02:00</time>
      </trkpt>
      <trkpt lat="45.40661" lon="6.66224">
        <ele>1733</ele>
        <time>2015-07-06T18:29:02+02:00</time>
      </trkpt>
      <trkpt lat="45.40674" lon="6.66214">
        <ele>1732</ele>
        <time>2015-07-06T18:29:18+02:00</time>
      </trkpt>
      <trkpt lat="45.40681" lon="6.66213">
        <ele>1730</ele>
        <time>2015-07-06T18:29:35+02:00</time>
      </trkpt>
      <trkpt lat="45.40687" lon="6.66206">
        <ele>1729</ele>
        <time>2015-07-06T18:29:54+02:00</time>
      </trkpt>
      <trkpt lat="45.407" lon="6.66193">
        <ele>1728</ele>
        <time>2015-07-06T18:30:11+02:00</time>
      </trkpt>
      <trkpt lat="45.40716" lon="6.6618">
        <ele>1727</ele>
        <time>2015-07-06T18:30:28+02:00</time>
      </trkpt>
      <trkpt lat="45.40728" lon="6.66167">
        <ele>1726</ele>
        <time>2015-07-06T18:30:43+02:00</time>
      </trkpt>
      <trkpt lat="45.4074" lon="6.66159">
        <ele>1725</ele>
        <time>2015-07-06T18:30:58+02:00</time>
      </trkpt>
      <trkpt lat="45.40748" lon="6.66151">
        <ele>1724</ele>
        <time>2015-07-06T18:31:13+02:00</time>
      </trkpt>
      <trkpt lat="45.40748" lon="6.66151">
        <ele>1724</ele>
        <time>2015-07-06T18:31:28+02:00</time>
      </trkpt>
      <trkpt lat="45.40754" lon="6.66147">
        <ele>1724</ele>
        <time>2015-07-06T18:31:46+02:00</time>
      </trkpt>
      <trkpt lat="45.40756" lon="6.66145">
        <ele>1724</ele>
        <time>2015-07-06T18:31:52+02:00</time>
      </trkpt>
      <trkpt lat="45.40773" lon="6.66132">
        <ele>1723</ele>
        <time>2015-07-06T18:32:10+02:00</time>
      </trkpt>
      <trkpt lat="45.40784" lon="6.6612">
        <ele>1722</ele>
        <time>2015-07-06T18:32:26+02:00</time>
      </trkpt>
      <trkpt lat="45.40788" lon="6.66114">
        <ele>1722</ele>
        <time>2015-07-06T18:32:44+02:00</time>
      </trkpt>
      <trkpt lat="45.40801" lon="6.66096">
        <ele>1723</ele>
        <time>2015-07-06T18:33:01+02:00</time>
      </trkpt>
      <trkpt lat="45.40805" lon="6.66092">
        <ele>1723</ele>
        <time>2015-07-06T18:33:05+02:00</time>
      </trkpt>
      <trkpt lat="45.40808" lon="6.66086">
        <ele>1723</ele>
        <time>2015-07-06T18:33:10+02:00</time>
      </trkpt>
      <trkpt lat="45.40819" lon="6.66067">
        <ele>1723</ele>
        <time>2015-07-06T18:33:26+02:00</time>
      </trkpt>
      <trkpt lat="45.40823" lon="6.66053">
        <ele>1723</ele>
        <time>2015-07-06T18:33:41+02:00</time>
      </trkpt>
      <trkpt lat="45.40823" lon="6.66047">
        <ele>1724</ele>
        <time>2015-07-06T18:34:25+02:00</time>
      </trkpt>
      <trkpt lat="45.40814" lon="6.6604">
        <ele>1725</ele>
        <time>2015-07-06T18:34:40+02:00</time>
      </trkpt>
      <trkpt lat="45.40809" lon="6.6604">
        <ele>1725</ele>
        <time>2015-07-06T18:34:52+02:00</time>
      </trkpt>
      <trkpt lat="45.40798" lon="6.66039">
        <ele>1726</ele>
        <time>2015-07-06T18:35:05+02:00</time>
      </trkpt>
      <trkpt lat="45.4078" lon="6.66038">
        <ele>1728</ele>
        <time>2015-07-06T18:35:22+02:00</time>
      </trkpt>
      <trkpt lat="45.40767" lon="6.66037">
        <ele>1729</ele>
        <time>2015-07-06T18:39:28+02:00</time>
      </trkpt>
    </trkseg>
  </trk>
</gpx>